PWSweather.com
Personal Weather Stations
Station Observations
KCOFALCO8
Falcon Hills, Falcon, CO 80831

Falcon HillsFalcon, CO 80831

Lat: 38.979792, Lon: -104.61195

Elevation: 7170

Station Type: AcuRite Pro 5-in-1

http://wx.frazierhome.net/

High Low Average
Temperature 93.0°F33.9°C 63.9°F17.7°C 76.9°F24.9°C
Dew Point 53.5°F11.9°C 37.2°F2.9°C 44.5°F6.9°C
Winds 16.0 mph 25.7 kmh Calm Calm 6.0 mph S9.7 kmh S
Wind Gusts -- -- --
Humidity 61% 20% 34%
Pressure 30.27 in1025.1 mb 30.16 in1021.3 mb -
Precipitation 0.00 in0.0 mm - -
Hour Temp Dew Point Humidity Winds Wind Gusts Pressure Precip Precip Rate Daily Precip Total
12:00 AM 63.4°F17.4°C 48.2°F9.0°C 58% 3.0 mph WNW4.8 kmh WNW -- 30.20 in1022.7 mb 0.00 in0.0 mm 0.00 in0.0 mm 0.00 in0.0 mm
12:01 AM 63.4°F17.4°C 48.2°F9.0°C 58% 3.0 mph WNW4.8 kmh WNW -- 30.19 in1022.4 mb 0.00 in0.0 mm 0.00 in0.0 mm 0.00 in0.0 mm
12:02 AM 63.2°F17.3°C 48.0°F8.9°C 58% 2.0 mph WNW3.2 kmh WNW -- 30.20 in1022.7 mb 0.00 in0.0 mm 0.00 in0.0 mm 0.00 in0.0 mm
12:03 AM 63.2°F17.3°C 48.0°F8.9°C 58% 3.0 mph W4.8 kmh W -- 30.19 in1022.4 mb 0.00 in0.0 mm 0.00 in0.0 mm 0.00 in0.0 mm
12:04 AM 63.2°F17.3°C 48.0°F8.9°C 58% 2.0 mph WNW3.2 kmh WNW -- 30.20 in1022.7 mb 0.00 in0.0 mm 0.00 in0.0 mm 0.00 in0.0 mm
12:05 AM 63.0°F17.2°C 47.9°F8.8°C 58% 3.0 mph WNW4.8 kmh WNW -- 30.20 in1022.7 mb 0.00 in0.0 mm 0.00 in0.0 mm 0.00 in0.0 mm
12:06 AM 63.0°F17.2°C 48.3°F9.1°C 59% 2.0 mph WNW3.2 kmh WNW -- 30.20 in1022.7 mb 0.00 in0.0 mm 0.00 in0.0 mm 0.00 in0.0 mm
12:07 AM 63.0°F17.2°C 48.3°F9.1°C 59% 2.0 mph W3.2 kmh W -- 30.18 in1022.0 mb 0.00 in0.0 mm 0.00 in0.0 mm 0.00 in0.0 mm
12:08 AM 63.0°F17.2°C 48.3°F9.1°C 59% 2.0 mph W3.2 kmh W -- 30.19 in1022.4 mb 0.00 in0.0 mm 0.00 in0.0 mm 0.00 in0.0 mm
12:09 AM 63.0°F17.2°C 48.3°F9.1°C 59% 2.0 mph W3.2 kmh W -- 30.18 in1022.0 mb 0.00 in0.0 mm 0.00 in0.0 mm 0.00 in0.0 mm
12:10 AM 63.0°F17.2°C 48.3°F9.1°C 59% 2.0 mph W3.2 kmh W -- 30.19 in1022.4 mb 0.00 in0.0 mm 0.00 in0.0 mm 0.00 in0.0 mm
12:11 AM 62.7°F17.1°C 48.1°F8.9°C 59% 2.0 mph W3.2 kmh W -- 30.18 in1022.0 mb 0.00 in0.0 mm 0.00 in0.0 mm 0.00 in0.0 mm
12:12 AM 62.7°F17.1°C 48.1°F8.9°C 59% 2.0 mph WNW3.2 kmh WNW -- 30.19 in1022.4 mb 0.00 in0.0 mm 0.00 in0.0 mm 0.00 in0.0 mm
12:13 AM 62.7°F17.1°C 48.1°F8.9°C 59% 2.0 mph W3.2 kmh W -- 30.19 in1022.4 mb 0.00 in0.0 mm 0.00 in0.0 mm 0.00 in0.0 mm
12:14 AM 62.5°F16.9°C 48.3°F9.1°C 60% 1.0 mph W1.6 kmh W -- 30.19 in1022.4 mb 0.00 in0.0 mm 0.00 in0.0 mm 0.00 in0.0 mm
12:15 AM 62.5°F16.9°C 48.3°F9.1°C 60% 2.0 mph WNW3.2 kmh WNW -- 30.18 in1022.0 mb 0.00 in0.0 mm 0.00 in0.0 mm 0.00 in0.0 mm
12:16 AM 62.4°F16.9°C 48.3°F9.1°C 60% 3.0 mph WNW4.8 kmh WNW -- 30.19 in1022.4 mb 0.00 in0.0 mm 0.00 in0.0 mm 0.00 in0.0 mm
12:17 AM 62.4°F16.9°C 48.3°F9.1°C 60% 3.0 mph W4.8 kmh W -- 30.19 in1022.4 mb 0.00 in0.0 mm 0.00 in0.0 mm 0.00 in0.0 mm
12:18 AM 62.4°F16.9°C 48.3°F9.1°C 60% 2.0 mph W3.2 kmh W -- 30.19 in1022.4 mb 0.00 in0.0 mm 0.00 in0.0 mm 0.00 in0.0 mm
12:19 AM 62.4°F16.9°C 48.3°F9.1°C 60% 3.0 mph W4.8 kmh W -- 30.19 in1022.4 mb 0.00 in0.0 mm 0.00 in0.0 mm 0.00 in0.0 mm
12:21 AM 62.4°F16.9°C 48.3°F9.1°C 60% 3.0 mph WNW4.8 kmh WNW -- 30.19 in1022.4 mb 0.00 in0.0 mm 0.00 in0.0 mm 0.00 in0.0 mm
12:22 AM 62.4°F16.9°C 48.3°F9.1°C 60% 3.0 mph NW4.8 kmh NW -- 30.19 in1022.4 mb 0.00 in0.0 mm 0.00 in0.0 mm 0.00 in0.0 mm
12:23 AM 62.4°F16.9°C 48.3°F9.1°C 60% 3.0 mph WNW4.8 kmh WNW -- 30.18 in1022.0 mb 0.00 in0.0 mm 0.00 in0.0 mm 0.00 in0.0 mm
12:24 AM 62.4°F16.9°C 48.3°F9.1°C 60% 3.0 mph W4.8 kmh W -- 30.19 in1022.4 mb 0.00 in0.0 mm 0.00 in0.0 mm 0.00 in0.0 mm
12:25 AM 62.4°F16.9°C 48.3°F9.1°C 60% 2.0 mph W3.2 kmh W -- 30.19 in1022.4 mb 0.00 in0.0 mm 0.00 in0.0 mm 0.00 in0.0 mm
12:26 AM 62.4°F16.9°C 48.7°F9.3°C 61% 2.0 mph W3.2 kmh W -- 30.19 in1022.4 mb 0.00 in0.0 mm 0.00 in0.0 mm 0.00 in0.0 mm
12:28 AM 62.4°F16.9°C 48.7°F9.3°C 61% 3.0 mph WNW4.8 kmh WNW -- 30.19 in1022.4 mb 0.00 in0.0 mm 0.00 in0.0 mm 0.00 in0.0 mm
12:29 AM 62.4°F16.9°C 48.7°F9.3°C 61% 2.0 mph WNW3.2 kmh WNW -- 30.19 in1022.4 mb 0.00 in0.0 mm 0.00 in0.0 mm 0.00 in0.0 mm
12:31 AM 62.4°F16.9°C 48.7°F9.3°C 61% 3.0 mph W4.8 kmh W -- 30.18 in1022.0 mb 0.00 in0.0 mm 0.00 in0.0 mm 0.00 in0.0 mm
12:32 AM 62.4°F16.9°C 48.7°F9.3°C 61% 2.0 mph W3.2 kmh W -- 30.19 in1022.4 mb 0.00 in0.0 mm 0.00 in0.0 mm 0.00 in0.0 mm
12:33 AM 62.4°F16.9°C 48.7°F9.3°C 61% 3.0 mph WNW4.8 kmh WNW -- 30.18 in1022.0 mb 0.00 in0.0 mm 0.00 in0.0 mm 0.00 in0.0 mm
12:34 AM 62.4°F16.9°C 48.7°F9.3°C 61% 3.0 mph WNW4.8 kmh WNW -- 30.19 in1022.4 mb 0.00 in0.0 mm 0.00 in0.0 mm 0.00 in0.0 mm
12:35 AM 62.4°F16.9°C 48.7°F9.3°C 61% 2.0 mph WNW3.2 kmh WNW -- 30.19 in1022.4 mb 0.00 in0.0 mm 0.00 in0.0 mm 0.00 in0.0 mm
12:36 AM 62.4°F16.9°C 48.7°F9.3°C 61% 3.0 mph WNW4.8 kmh WNW -- 30.19 in1022.4 mb 0.00 in0.0 mm 0.00 in0.0 mm 0.00 in0.0 mm
12:37 AM 62.4°F16.9°C 48.7°F9.3°C 61% 2.0 mph W3.2 kmh W -- 30.19 in1022.4 mb 0.00 in0.0 mm 0.00 in0.0 mm 0.00 in0.0 mm
12:38 AM 62.5°F16.9°C 48.7°F9.3°C 61% 2.0 mph WNW3.2 kmh WNW -- 30.19 in1022.4 mb 0.00 in0.0 mm 0.00 in0.0 mm 0.00 in0.0 mm
12:39 AM 62.5°F16.9°C 48.7°F9.3°C 61% 3.0 mph NW4.8 kmh NW -- 30.18 in1022.0 mb 0.00 in0.0 mm 0.00 in0.0 mm 0.00 in0.0 mm
12:40 AM 62.5°F16.9°C 48.7°F9.3°C 61% 2.0 mph NW3.2 kmh NW -- 30.18 in1022.0 mb 0.00 in0.0 mm 0.00 in0.0 mm 0.00 in0.0 mm
12:41 AM 62.5°F16.9°C 48.7°F9.3°C 61% 2.0 mph W3.2 kmh W -- 30.18 in1022.0 mb 0.00 in0.0 mm 0.00 in0.0 mm 0.00 in0.0 mm
12:42 AM 62.7°F17.1°C 49.0°F9.4°C 61% 2.0 mph WNW3.2 kmh WNW -- 30.18 in1022.0 mb 0.00 in0.0 mm 0.00 in0.0 mm 0.00 in0.0 mm
12:44 AM 62.7°F17.1°C 49.0°F9.4°C 61% 1.0 mph W1.6 kmh W -- 30.19 in1022.4 mb 0.00 in0.0 mm 0.00 in0.0 mm 0.00 in0.0 mm
12:45 AM 62.7°F17.1°C 49.0°F9.4°C 61% Calm Calm -- 30.19 in1022.4 mb 0.00 in0.0 mm 0.00 in0.0 mm 0.00 in0.0 mm
12:47 AM 62.7°F17.1°C 49.0°F9.4°C 61% 1.0 mph WNW1.6 kmh WNW -- 30.18 in1022.0 mb 0.00 in0.0 mm 0.00 in0.0 mm 0.00 in0.0 mm
12:48 AM 62.7°F17.1°C 49.0°F9.4°C 61% 2.0 mph WNW3.2 kmh WNW -- 30.18 in1022.0 mb 0.00 in0.0 mm 0.00 in0.0 mm 0.00 in0.0 mm
12:49 AM 62.7°F17.1°C 48.6°F9.2°C 60% 2.0 mph W3.2 kmh W -- 30.19 in1022.4 mb 0.00 in0.0 mm 0.00 in0.0 mm 0.00 in0.0 mm
12:50 AM 63.0°F17.2°C 48.8°F9.3°C 60% 2.0 mph WNW3.2 kmh WNW -- 30.19 in1022.4 mb 0.00 in0.0 mm 0.00 in0.0 mm 0.00 in0.0 mm
12:51 AM 63.0°F17.2°C 48.8°F9.3°C 60% 2.0 mph WNW3.2 kmh WNW -- 30.18 in1022.0 mb 0.00 in0.0 mm 0.00 in0.0 mm 0.00 in0.0 mm
12:52 AM 63.2°F17.3°C 48.5°F9.2°C 59% 2.0 mph W3.2 kmh W -- 30.18 in1022.0 mb 0.00 in0.0 mm 0.00 in0.0 mm 0.00 in0.0 mm
12:53 AM 63.4°F17.4°C 48.7°F9.3°C 59% 2.0 mph W3.2 kmh W -- 30.18 in1022.0 mb 0.00 in0.0 mm 0.00 in0.0 mm 0.00 in0.0 mm
12:54 AM 63.4°F17.4°C 48.7°F9.3°C 59% 2.0 mph W3.2 kmh W -- 30.19 in1022.4 mb 0.00 in0.0 mm 0.00 in0.0 mm 0.00 in0.0 mm
12:55 AM 63.4°F17.4°C 48.7°F9.3°C 59% 2.0 mph WNW3.2 kmh WNW -- 30.18 in1022.0 mb 0.00 in0.0 mm 0.00 in0.0 mm 0.00 in0.0 mm
12:56 AM 63.6°F17.6°C 48.5°F9.2°C 58% 3.0 mph W4.8 kmh W -- 30.18 in1022.0 mb 0.00 in0.0 mm 0.00 in0.0 mm 0.00 in0.0 mm
12:57 AM 63.9°F17.7°C 48.7°F9.3°C 58% 2.0 mph WNW3.2 kmh WNW -- 30.18 in1022.0 mb 0.00 in0.0 mm 0.00 in0.0 mm 0.00 in0.0 mm
12:58 AM 63.9°F17.7°C 48.7°F9.3°C 58% 2.0 mph W3.2 kmh W -- 30.18 in1022.0 mb 0.00 in0.0 mm 0.00 in0.0 mm 0.00 in0.0 mm
12:59 AM 63.9°F17.7°C 48.7°F9.3°C 58% 2.0 mph WNW3.2 kmh WNW -- 30.18 in1022.0 mb 0.00 in0.0 mm 0.00 in0.0 mm 0.00 in0.0 mm
01:01 AM 63.9°F17.7°C 47.8°F8.8°C 56% 2.0 mph WNW3.2 kmh WNW -- 30.18 in1022.0 mb 0.00 in0.0 mm 0.00 in0.0 mm 0.00 in0.0 mm
01:02 AM 63.9°F17.7°C 47.8°F8.8°C 56% 2.0 mph W3.2 kmh W -- 30.18 in1022.0 mb 0.00 in0.0 mm 0.00 in0.0 mm 0.00 in0.0 mm
01:03 AM 63.9°F17.7°C 47.8°F8.8°C 56% 2.0 mph WNW3.2 kmh WNW -- 30.18 in1022.0 mb 0.00 in0.0 mm 0.00 in0.0 mm 0.00 in0.0 mm
01:07 AM 64.1°F17.8°C 47.9°F8.8°C 56% 2.0 mph WNW3.2 kmh WNW -- 30.18 in1022.0 mb 0.00 in0.0 mm 0.00 in0.0 mm 0.00 in0.0 mm
01:08 AM 64.1°F17.8°C 47.4°F8.6°C 55% 2.0 mph WNW3.2 kmh WNW -- 30.18 in1022.0 mb 0.00 in0.0 mm 0.00 in0.0 mm 0.00 in0.0 mm
01:12 AM 64.4°F18.0°C 47.8°F8.8°C 55% 2.0 mph W3.2 kmh W -- 30.18 in1022.0 mb 0.00 in0.0 mm 0.00 in0.0 mm 0.00 in0.0 mm
01:13 AM 64.4°F18.0°C 47.8°F8.8°C 55% 2.0 mph WNW3.2 kmh WNW -- 30.18 in1022.0 mb 0.00 in0.0 mm 0.00 in0.0 mm 0.00 in0.0 mm
01:14 AM 64.4°F18.0°C 47.8°F8.8°C 55% 2.0 mph W3.2 kmh W -- 30.18 in1022.0 mb 0.00 in0.0 mm 0.00 in0.0 mm 0.00 in0.0 mm
01:16 AM 64.4°F18.0°C 47.8°F8.8°C 55% 1.0 mph W1.6 kmh W -- 30.18 in1022.0 mb 0.00 in0.0 mm 0.00 in0.0 mm 0.00 in0.0 mm
01:18 AM 64.4°F18.0°C 47.8°F8.8°C 55% 2.0 mph W3.2 kmh W -- 30.18 in1022.0 mb 0.00 in0.0 mm 0.00 in0.0 mm 0.00 in0.0 mm
01:19 AM 64.6°F18.1°C 48.0°F8.9°C 55% 3.0 mph W4.8 kmh W -- 30.18 in1022.0 mb 0.00 in0.0 mm 0.00 in0.0 mm 0.00 in0.0 mm
01:21 AM 64.9°F18.3°C 47.8°F8.8°C 54% 4.0 mph W6.4 kmh W -- 30.18 in1022.0 mb 0.00 in0.0 mm 0.00 in0.0 mm 0.00 in0.0 mm
01:22 AM 65.2°F18.4°C 47.5°F8.6°C 53% 3.0 mph W4.8 kmh W -- 30.18 in1022.0 mb 0.00 in0.0 mm 0.00 in0.0 mm 0.00 in0.0 mm
01:23 AM 65.2°F18.4°C 47.5°F8.6°C 53% 2.0 mph WNW3.2 kmh WNW -- 30.18 in1022.0 mb 0.00 in0.0 mm 0.00 in0.0 mm 0.00 in0.0 mm
01:24 AM 65.2°F18.4°C 47.5°F8.6°C 53% 2.0 mph W3.2 kmh W -- 30.18 in1022.0 mb 0.00 in0.0 mm 0.00 in0.0 mm 0.00 in0.0 mm
01:25 AM 65.2°F18.4°C 47.5°F8.6°C 53% 3.0 mph W4.8 kmh W -- 30.18 in1022.0 mb 0.00 in0.0 mm 0.00 in0.0 mm 0.00 in0.0 mm
01:26 AM 65.5°F18.6°C 46.8°F8.2°C 51% 3.0 mph WNW4.8 kmh WNW -- 30.18 in1022.0 mb 0.00 in0.0 mm 0.00 in0.0 mm 0.00 in0.0 mm
01:27 AM 65.6°F18.7°C 46.9°F8.3°C 51% 3.0 mph W4.8 kmh W -- 30.18 in1022.0 mb 0.00 in0.0 mm 0.00 in0.0 mm 0.00 in0.0 mm
01:28 AM 65.8°F18.8°C 46.6°F8.1°C 50% 3.0 mph W4.8 kmh W -- 30.18 in1022.0 mb 0.00 in0.0 mm 0.00 in0.0 mm 0.00 in0.0 mm
01:29 AM 65.8°F18.8°C 46.6°F8.1°C 50% 2.0 mph W3.2 kmh W -- 30.19 in1022.4 mb 0.00 in0.0 mm 0.00 in0.0 mm 0.00 in0.0 mm
01:30 AM 65.9°F18.8°C 46.6°F8.1°C 50% 3.0 mph W4.8 kmh W -- 30.19 in1022.4 mb 0.00 in0.0 mm 0.00 in0.0 mm 0.00 in0.0 mm
01:31 AM 66.1°F18.9°C 46.7°F8.2°C 50% 3.0 mph W4.8 kmh W -- 30.18 in1022.0 mb 0.00 in0.0 mm 0.00 in0.0 mm 0.00 in0.0 mm
01:32 AM 66.4°F19.1°C 47.1°F8.4°C 50% 3.0 mph W4.8 kmh W -- 30.18 in1022.0 mb 0.00 in0.0 mm 0.00 in0.0 mm 0.00 in0.0 mm
01:35 AM 66.6°F19.2°C 46.7°F8.2°C 49% 3.0 mph W4.8 kmh W -- 30.18 in1022.0 mb 0.00 in0.0 mm 0.00 in0.0 mm 0.00 in0.0 mm
01:37 AM 66.6°F19.2°C 46.2°F7.9°C 48% 3.0 mph W4.8 kmh W -- 30.19 in1022.4 mb 0.00 in0.0 mm 0.00 in0.0 mm 0.00 in0.0 mm
01:38 AM 66.6°F19.2°C 46.2°F7.9°C 48% 2.0 mph W3.2 kmh W -- 30.19 in1022.4 mb 0.00 in0.0 mm 0.00 in0.0 mm 0.00 in0.0 mm
01:39 AM 66.6°F19.2°C 46.2°F7.9°C 48% 3.0 mph WNW4.8 kmh WNW -- 30.18 in1022.0 mb 0.00 in0.0 mm 0.00 in0.0 mm 0.00 in0.0 mm
01:40 AM 66.6°F19.2°C 46.2°F7.9°C 48% 2.0 mph W3.2 kmh W -- 30.18 in1022.0 mb 0.00 in0.0 mm 0.00 in0.0 mm 0.00 in0.0 mm
01:41 AM 66.6°F19.2°C 46.2°F7.9°C 48% 2.0 mph W3.2 kmh W -- 30.19 in1022.4 mb 0.00 in0.0 mm 0.00 in0.0 mm 0.00 in0.0 mm
01:43 AM 66.9°F19.4°C 46.5°F8.1°C 48% 3.0 mph W4.8 kmh W -- 30.19 in1022.4 mb 0.00 in0.0 mm 0.00 in0.0 mm 0.00 in0.0 mm
01:45 AM 67.1°F19.5°C 46.7°F8.2°C 48% 3.0 mph W4.8 kmh W -- 30.18 in1022.0 mb 0.00 in0.0 mm 0.00 in0.0 mm 0.00 in0.0 mm
01:47 AM 67.1°F19.5°C 45.5°F7.5°C 46% 3.0 mph W4.8 kmh W -- 30.18 in1022.0 mb 0.00 in0.0 mm 0.00 in0.0 mm 0.00 in0.0 mm
01:48 AM 67.1°F19.5°C 45.5°F7.5°C 46% 2.0 mph WSW3.2 kmh WSW -- 30.18 in1022.0 mb 0.00 in0.0 mm 0.00 in0.0 mm 0.00 in0.0 mm
01:49 AM 67.1°F19.5°C 45.5°F7.5°C 46% 3.0 mph WNW4.8 kmh WNW -- 30.18 in1022.0 mb 0.00 in0.0 mm 0.00 in0.0 mm 0.00 in0.0 mm
01:50 AM 67.1°F19.5°C 45.5°F7.5°C 46% 3.0 mph W4.8 kmh W -- 30.18 in1022.0 mb 0.00 in0.0 mm 0.00 in0.0 mm 0.00 in0.0 mm
01:51 AM 67.1°F19.5°C 45.5°F7.5°C 46% 2.0 mph W3.2 kmh W -- 30.18 in1022.0 mb 0.00 in0.0 mm 0.00 in0.0 mm 0.00 in0.0 mm
01:53 AM 67.1°F19.5°C 45.5°F7.5°C 46% 3.0 mph WNW4.8 kmh WNW -- 30.18 in1022.0 mb 0.00 in0.0 mm 0.00 in0.0 mm 0.00 in0.0 mm
01:54 AM 67.1°F19.5°C 45.5°F7.5°C 46% 2.0 mph W3.2 kmh W -- 30.18 in1022.0 mb 0.00 in0.0 mm 0.00 in0.0 mm 0.00 in0.0 mm
01:55 AM 67.1°F19.5°C 45.5°F7.5°C 46% 2.0 mph WNW3.2 kmh WNW -- 30.18 in1022.0 mb 0.00 in0.0 mm 0.00 in0.0 mm 0.00 in0.0 mm
01:56 AM 67.1°F19.5°C 45.5°F7.5°C 46% 2.0 mph W3.2 kmh W -- 30.18 in1022.0 mb 0.00 in0.0 mm 0.00 in0.0 mm 0.00 in0.0 mm
01:58 AM 66.9°F19.4°C 45.4°F7.4°C 46% 2.0 mph W3.2 kmh W -- 30.18 in1022.0 mb 0.00 in0.0 mm 0.00 in0.0 mm 0.00 in0.0 mm
01:59 AM 66.9°F19.4°C 45.4°F7.4°C 46% 3.0 mph W4.8 kmh W -- 30.18 in1022.0 mb 0.00 in0.0 mm 0.00 in0.0 mm 0.00 in0.0 mm
02:00 AM 66.9°F19.4°C 45.4°F7.4°C 46% 3.0 mph W4.8 kmh W -- 30.19 in1022.4 mb 0.00 in0.0 mm 0.00 in0.0 mm 0.00 in0.0 mm
02:01 AM 66.9°F19.4°C 45.4°F7.4°C 46% 2.0 mph W3.2 kmh W -- 30.18 in1022.0 mb 0.00 in0.0 mm 0.00 in0.0 mm 0.00 in0.0 mm
02:02 AM 66.9°F19.4°C 45.4°F7.4°C 46% 3.0 mph W4.8 kmh W -- 30.18 in1022.0 mb 0.00 in0.0 mm 0.00 in0.0 mm 0.00 in0.0 mm
02:03 AM 66.9°F19.4°C 45.4°F7.4°C 46% 2.0 mph W3.2 kmh W -- 30.18 in1022.0 mb 0.00 in0.0 mm 0.00 in0.0 mm 0.00 in0.0 mm
02:06 AM 66.6°F19.2°C 45.0°F7.2°C 46% 2.0 mph WNW3.2 kmh WNW -- 30.18 in1022.0 mb 0.00 in0.0 mm 0.00 in0.0 mm 0.00 in0.0 mm
02:08 AM 66.6°F19.2°C 45.0°F7.2°C 46% 2.0 mph W3.2 kmh W -- 30.18 in1022.0 mb 0.00 in0.0 mm 0.00 in0.0 mm 0.00 in0.0 mm
02:09 AM 66.6°F19.2°C 45.0°F7.2°C 46% 3.0 mph W4.8 kmh W -- 30.18 in1022.0 mb 0.00 in0.0 mm 0.00 in0.0 mm 0.00 in0.0 mm
02:10 AM 66.5°F19.2°C 46.2°F7.9°C 48% 3.0 mph WNW4.8 kmh WNW -- 30.18 in1022.0 mb 0.00 in0.0 mm 0.00 in0.0 mm 0.00 in0.0 mm
02:11 AM 66.5°F19.2°C 46.2°F7.9°C 48% 3.0 mph W4.8 kmh W -- 30.18 in1022.0 mb 0.00 in0.0 mm 0.00 in0.0 mm 0.00 in0.0 mm
02:12 AM 66.5°F19.2°C 46.2°F7.9°C 48% 3.0 mph WNW4.8 kmh WNW -- 30.18 in1022.0 mb 0.00 in0.0 mm 0.00 in0.0 mm 0.00 in0.0 mm
02:13 AM 66.5°F19.2°C 46.2°F7.9°C 48% 2.0 mph WNW3.2 kmh WNW -- 30.18 in1022.0 mb 0.00 in0.0 mm 0.00 in0.0 mm 0.00 in0.0 mm
02:14 AM 66.5°F19.2°C 46.2°F7.9°C 48% 2.0 mph W3.2 kmh W -- 30.18 in1022.0 mb 0.00 in0.0 mm 0.00 in0.0 mm 0.00 in0.0 mm
02:15 AM 66.5°F19.2°C 46.2°F7.9°C 48% 2.0 mph WNW3.2 kmh WNW -- 30.18 in1022.0 mb 0.00 in0.0 mm 0.00 in0.0 mm 0.00 in0.0 mm
02:16 AM 66.4°F19.1°C 46.0°F7.8°C 48% 2.0 mph WNW3.2 kmh WNW -- 30.18 in1022.0 mb 0.00 in0.0 mm 0.00 in0.0 mm 0.00 in0.0 mm
02:17 AM 66.4°F19.1°C 46.0°F7.8°C 48% 2.0 mph W3.2 kmh W -- 30.18 in1022.0 mb 0.00 in0.0 mm 0.00 in0.0 mm 0.00 in0.0 mm
02:18 AM 66.1°F18.9°C 45.7°F7.6°C 48% 2.0 mph W3.2 kmh W -- 30.18 in1022.0 mb 0.00 in0.0 mm 0.00 in0.0 mm 0.00 in0.0 mm
02:21 AM 66.1°F18.9°C 45.7°F7.6°C 48% 3.0 mph W4.8 kmh W -- 30.18 in1022.0 mb 0.00 in0.0 mm 0.00 in0.0 mm 0.00 in0.0 mm
02:22 AM 66.1°F18.9°C 45.7°F7.6°C 48% 2.0 mph WNW3.2 kmh WNW -- 30.18 in1022.0 mb 0.00 in0.0 mm 0.00 in0.0 mm 0.00 in0.0 mm
02:23 AM 66.1°F18.9°C 45.7°F7.6°C 48% 2.0 mph W3.2 kmh W -- 30.18 in1022.0 mb 0.00 in0.0 mm 0.00 in0.0 mm 0.00 in0.0 mm
02:24 AM 66.1°F18.9°C 45.7°F7.6°C 48% 2.0 mph WNW3.2 kmh WNW -- 30.18 in1022.0 mb 0.00 in0.0 mm 0.00 in0.0 mm 0.00 in0.0 mm
02:25 AM 66.1°F18.9°C 45.7°F7.6°C 48% 2.0 mph W3.2 kmh W -- 30.18 in1022.0 mb 0.00 in0.0 mm 0.00 in0.0 mm 0.00 in0.0 mm
02:26 AM 66.1°F18.9°C 45.7°F7.6°C 48% 3.0 mph W4.8 kmh W -- 30.18 in1022.0 mb 0.00 in0.0 mm 0.00 in0.0 mm 0.00 in0.0 mm
02:27 AM 66.1°F18.9°C 45.7°F7.6°C 48% 2.0 mph W3.2 kmh W -- 30.18 in1022.0 mb 0.00 in0.0 mm 0.00 in0.0 mm 0.00 in0.0 mm
02:32 AM 66.1°F18.9°C 45.7°F7.6°C 48% 3.0 mph WNW4.8 kmh WNW -- 30.18 in1022.0 mb 0.00 in0.0 mm 0.00 in0.0 mm 0.00 in0.0 mm
02:33 AM 66.1°F18.9°C 45.7°F7.6°C 48% 2.0 mph W3.2 kmh W -- 30.18 in1022.0 mb 0.00 in0.0 mm 0.00 in0.0 mm 0.00 in0.0 mm
02:34 AM 66.1°F18.9°C 45.7°F7.6°C 48% 3.0 mph WNW4.8 kmh WNW -- 30.18 in1022.0 mb 0.00 in0.0 mm 0.00 in0.0 mm 0.00 in0.0 mm
02:35 AM 66.4°F19.1°C 46.0°F7.8°C 48% 3.0 mph WNW4.8 kmh WNW -- 30.18 in1022.0 mb 0.00 in0.0 mm 0.00 in0.0 mm 0.00 in0.0 mm
02:37 AM 66.4°F19.1°C 46.0°F7.8°C 48% 2.0 mph WNW3.2 kmh WNW -- 30.18 in1022.0 mb 0.00 in0.0 mm 0.00 in0.0 mm 0.00 in0.0 mm
02:38 AM 66.4°F19.1°C 46.0°F7.8°C 48% 2.0 mph W3.2 kmh W -- 30.18 in1022.0 mb 0.00 in0.0 mm 0.00 in0.0 mm 0.00 in0.0 mm
02:39 AM 66.4°F19.1°C 46.0°F7.8°C 48% 3.0 mph NW4.8 kmh NW -- 30.18 in1022.0 mb 0.00 in0.0 mm 0.00 in0.0 mm 0.00 in0.0 mm
02:40 AM 66.4°F19.1°C 44.9°F7.2°C 46% 3.0 mph WNW4.8 kmh WNW -- 30.18 in1022.0 mb 0.00 in0.0 mm 0.00 in0.0 mm 0.00 in0.0 mm
02:42 AM 66.4°F19.1°C 44.9°F7.2°C 46% 3.0 mph W4.8 kmh W -- 30.18 in1022.0 mb 0.00 in0.0 mm 0.00 in0.0 mm 0.00 in0.0 mm
02:46 AM 66.4°F19.1°C 44.9°F7.2°C 46% 3.0 mph WNW4.8 kmh WNW -- 30.18 in1022.0 mb 0.00 in0.0 mm 0.00 in0.0 mm 0.00 in0.0 mm
02:47 AM 66.4°F19.1°C 44.9°F7.2°C 46% 2.0 mph W3.2 kmh W -- 30.18 in1022.0 mb 0.00 in0.0 mm 0.00 in0.0 mm 0.00 in0.0 mm
02:48 AM 66.4°F19.1°C 44.9°F7.2°C 46% 3.0 mph WNW4.8 kmh WNW -- 30.18 in1022.0 mb 0.00 in0.0 mm 0.00 in0.0 mm 0.00 in0.0 mm
02:49 AM 66.4°F19.1°C 44.9°F7.2°C 46% 3.0 mph W4.8 kmh W -- 30.18 in1022.0 mb 0.00 in0.0 mm 0.00 in0.0 mm 0.00 in0.0 mm
02:50 AM 66.4°F19.1°C 44.9°F7.2°C 46% 2.0 mph W3.2 kmh W -- 30.18 in1022.0 mb 0.00 in0.0 mm 0.00 in0.0 mm 0.00 in0.0 mm
02:51 AM 66.4°F19.1°C 44.9°F7.2°C 46% 2.0 mph WNW3.2 kmh WNW -- 30.18 in1022.0 mb 0.00 in0.0 mm 0.00 in0.0 mm 0.00 in0.0 mm
02:52 AM 66.4°F19.1°C 44.9°F7.2°C 46% 2.0 mph NW3.2 kmh NW -- 30.18 in1022.0 mb 0.00 in0.0 mm 0.00 in0.0 mm 0.00 in0.0 mm
02:53 AM 66.4°F19.1°C 44.9°F7.2°C 46% 2.0 mph WNW3.2 kmh WNW -- 30.18 in1022.0 mb 0.00 in0.0 mm 0.00 in0.0 mm 0.00 in0.0 mm
02:54 AM 66.4°F19.1°C 44.9°F7.2°C 46% 3.0 mph W4.8 kmh W -- 30.18 in1022.0 mb 0.00 in0.0 mm 0.00 in0.0 mm 0.00 in0.0 mm
02:55 AM 66.4°F19.1°C 44.9°F7.2°C 46% 3.0 mph WNW4.8 kmh WNW -- 30.18 in1022.0 mb 0.00 in0.0 mm 0.00 in0.0 mm 0.00 in0.0 mm
02:57 AM 66.4°F19.1°C 44.9°F7.2°C 46% 2.0 mph W3.2 kmh W -- 30.18 in1022.0 mb 0.00 in0.0 mm 0.00 in0.0 mm 0.00 in0.0 mm
02:58 AM 66.1°F18.9°C 44.5°F6.9°C 46% 2.0 mph WNW3.2 kmh WNW -- 30.18 in1022.0 mb 0.00 in0.0 mm 0.00 in0.0 mm 0.00 in0.0 mm
02:59 AM 66.1°F18.9°C 44.5°F6.9°C 46% 2.0 mph W3.2 kmh W -- 30.18 in1022.0 mb 0.00 in0.0 mm 0.00 in0.0 mm 0.00 in0.0 mm
03:00 AM 66.1°F18.9°C 44.5°F6.9°C 46% 3.0 mph W4.8 kmh W -- 30.18 in1022.0 mb 0.00 in0.0 mm 0.00 in0.0 mm 0.00 in0.0 mm
03:01 AM 66.1°F18.9°C 44.5°F6.9°C 46% 3.0 mph NW4.8 kmh NW -- 30.18 in1022.0 mb 0.00 in0.0 mm 0.00 in0.0 mm 0.00 in0.0 mm
03:02 AM 66.1°F18.9°C 44.5°F6.9°C 46% 3.0 mph WNW4.8 kmh WNW -- 30.18 in1022.0 mb 0.00 in0.0 mm 0.00 in0.0 mm 0.00 in0.0 mm
03:03 AM 66.1°F18.9°C 44.5°F6.9°C 46% 3.0 mph NW4.8 kmh NW -- 30.18 in1022.0 mb 0.00 in0.0 mm 0.00 in0.0 mm 0.00 in0.0 mm
03:05 AM 65.9°F18.8°C 44.4°F6.9°C 46% 3.0 mph W4.8 kmh W -- 30.18 in1022.0 mb 0.00 in0.0 mm 0.00 in0.0 mm 0.00 in0.0 mm
03:06 AM 65.9°F18.8°C 44.4°F6.9°C 46% 3.0 mph NW4.8 kmh NW -- 30.18 in1022.0 mb 0.00 in0.0 mm 0.00 in0.0 mm 0.00 in0.0 mm
03:07 AM 65.9°F18.8°C 44.4°F6.9°C 46% 4.0 mph WNW6.4 kmh WNW -- 30.18 in1022.0 mb 0.00 in0.0 mm 0.00 in0.0 mm 0.00 in0.0 mm
03:08 AM 65.9°F18.8°C 44.4°F6.9°C 46% 3.0 mph WNW4.8 kmh WNW -- 30.18 in1022.0 mb 0.00 in0.0 mm 0.00 in0.0 mm 0.00 in0.0 mm
03:09 AM 65.9°F18.8°C 44.4°F6.9°C 46% 4.0 mph WNW6.4 kmh WNW -- 30.18 in1022.0 mb 0.00 in0.0 mm 0.00 in0.0 mm 0.00 in0.0 mm
03:10 AM 65.9°F18.8°C 44.4°F6.9°C 46% 2.0 mph W3.2 kmh W -- 30.18 in1022.0 mb 0.00 in0.0 mm 0.00 in0.0 mm 0.00 in0.0 mm
03:11 AM 65.9°F18.8°C 44.4°F6.9°C 46% 3.0 mph W4.8 kmh W -- 30.18 in1022.0 mb 0.00 in0.0 mm 0.00 in0.0 mm 0.00 in0.0 mm
03:12 AM 65.9°F18.8°C 44.4°F6.9°C 46% 3.0 mph WNW4.8 kmh WNW -- 30.18 in1022.0 mb 0.00 in0.0 mm 0.00 in0.0 mm 0.00 in0.0 mm
03:13 AM 65.9°F18.8°C 44.4°F6.9°C 46% 2.0 mph WNW3.2 kmh WNW -- 30.18 in1022.0 mb 0.00 in0.0 mm 0.00 in0.0 mm 0.00 in0.0 mm
03:14 AM 66.1°F18.9°C 44.0°F6.7°C 45% 3.0 mph WNW4.8 kmh WNW -- 30.18 in1022.0 mb 0.00 in0.0 mm 0.00 in0.0 mm 0.00 in0.0 mm
03:16 AM 66.1°F18.9°C 44.0°F6.7°C 45% 3.0 mph W4.8 kmh W -- 30.18 in1022.0 mb 0.00 in0.0 mm 0.00 in0.0 mm 0.00 in0.0 mm
03:17 AM 66.1°F18.9°C 44.0°F6.7°C 45% 3.0 mph NW4.8 kmh NW -- 30.18 in1022.0 mb 0.00 in0.0 mm 0.00 in0.0 mm 0.00 in0.0 mm
03:18 AM 66.1°F18.9°C 44.0°F6.7°C 45% 2.0 mph W3.2 kmh W -- 30.18 in1022.0 mb 0.00 in0.0 mm 0.00 in0.0 mm 0.00 in0.0 mm
03:20 AM 66.4°F19.1°C 44.3°F6.8°C 45% 3.0 mph WNW4.8 kmh WNW -- 30.18 in1022.0 mb 0.00 in0.0 mm 0.00 in0.0 mm 0.00 in0.0 mm
03:21 AM 66.4°F19.1°C 44.3°F6.8°C 45% 3.0 mph W4.8 kmh W -- 30.18 in1022.0 mb 0.00 in0.0 mm 0.00 in0.0 mm 0.00 in0.0 mm
03:22 AM 66.4°F19.1°C 44.3°F6.8°C 45% 3.0 mph WNW4.8 kmh WNW -- 30.18 in1022.0 mb 0.00 in0.0 mm 0.00 in0.0 mm 0.00 in0.0 mm
03:23 AM 66.4°F19.1°C 44.3°F6.8°C 45% 2.0 mph WNW3.2 kmh WNW -- 30.18 in1022.0 mb 0.00 in0.0 mm 0.00 in0.0 mm 0.00 in0.0 mm
03:24 AM 66.4°F19.1°C 44.3°F6.8°C 45% 3.0 mph WNW4.8 kmh WNW -- 30.18 in1022.0 mb 0.00 in0.0 mm 0.00 in0.0 mm 0.00 in0.0 mm
03:25 AM 66.4°F19.1°C 44.3°F6.8°C 45% 3.0 mph W4.8 kmh W -- 30.18 in1022.0 mb 0.00 in0.0 mm 0.00 in0.0 mm 0.00 in0.0 mm
03:29 AM 66.4°F19.1°C 44.3°F6.8°C 45% 3.0 mph WNW4.8 kmh WNW -- 30.18 in1022.0 mb 0.00 in0.0 mm 0.00 in0.0 mm 0.00 in0.0 mm
03:30 AM 66.4°F19.1°C 44.3°F6.8°C 45% 3.0 mph W4.8 kmh W -- 30.18 in1022.0 mb 0.00 in0.0 mm 0.00 in0.0 mm 0.00 in0.0 mm
03:31 AM 66.4°F19.1°C 44.3°F6.8°C 45% 3.0 mph WNW4.8 kmh WNW -- 30.18 in1022.0 mb 0.00 in0.0 mm 0.00 in0.0 mm 0.00 in0.0 mm
03:33 AM 66.4°F19.1°C 43.7°F6.5°C 44% 3.0 mph WNW4.8 kmh WNW -- 30.18 in1022.0 mb 0.00 in0.0 mm 0.00 in0.0 mm 0.00 in0.0 mm
03:38 AM 66.4°F19.1°C 43.7°F6.5°C 44% 4.0 mph W6.4 kmh W -- 30.18 in1022.0 mb 0.00 in0.0 mm 0.00 in0.0 mm 0.00 in0.0 mm
03:39 AM 66.4°F19.1°C 43.7°F6.5°C 44% 4.0 mph W6.4 kmh W -- 30.19 in1022.4 mb 0.00 in0.0 mm 0.00 in0.0 mm 0.00 in0.0 mm
03:40 AM 66.4°F19.1°C 43.7°F6.5°C 44% 3.0 mph WNW4.8 kmh WNW -- 30.19 in1022.4 mb 0.00 in0.0 mm 0.00 in0.0 mm 0.00 in0.0 mm
03:42 AM 66.4°F19.1°C 43.7°F6.5°C 44% 3.0 mph WNW4.8 kmh WNW -- 30.18 in1022.0 mb 0.00 in0.0 mm 0.00 in0.0 mm 0.00 in0.0 mm
03:43 AM 66.4°F19.1°C 43.7°F6.5°C 44% 3.0 mph W4.8 kmh W -- 30.18 in1022.0 mb 0.00 in0.0 mm 0.00 in0.0 mm 0.00 in0.0 mm
03:44 AM 66.4°F19.1°C 43.1°F6.2°C 43% 3.0 mph NW4.8 kmh NW -- 30.18 in1022.0 mb 0.00 in0.0 mm 0.00 in0.0 mm 0.00 in0.0 mm
03:45 AM 66.4°F19.1°C 43.1°F6.2°C 43% 3.0 mph NW4.8 kmh NW -- 30.19 in1022.4 mb 0.00 in0.0 mm 0.00 in0.0 mm 0.00 in0.0 mm
03:46 AM 66.4°F19.1°C 43.1°F6.2°C 43% 3.0 mph WNW4.8 kmh WNW -- 30.18 in1022.0 mb 0.00 in0.0 mm 0.00 in0.0 mm 0.00 in0.0 mm
03:47 AM 66.4°F19.1°C 43.1°F6.2°C 43% 3.0 mph WNW4.8 kmh WNW -- 30.19 in1022.4 mb 0.00 in0.0 mm 0.00 in0.0 mm 0.00 in0.0 mm
03:49 AM 66.4°F19.1°C 43.1°F6.2°C 43% 4.0 mph NW6.4 kmh NW -- 30.19 in1022.4 mb 0.00 in0.0 mm 0.00 in0.0 mm 0.00 in0.0 mm
03:50 AM 66.4°F19.1°C 43.1°F6.2°C 43% 5.0 mph NW8.0 kmh NW -- 30.19 in1022.4 mb 0.00 in0.0 mm 0.00 in0.0 mm 0.00 in0.0 mm
03:51 AM 66.5°F19.2°C 42.0°F5.6°C 41% 4.0 mph NW6.4 kmh NW -- 30.19 in1022.4 mb 0.00 in0.0 mm 0.00 in0.0 mm 0.00 in0.0 mm
03:52 AM 66.5°F19.2°C 42.0°F5.6°C 41% 4.0 mph W6.4 kmh W -- 30.19 in1022.4 mb 0.00 in0.0 mm 0.00 in0.0 mm 0.00 in0.0 mm
03:53 AM 66.6°F19.2°C 42.0°F5.6°C 41% 4.0 mph W6.4 kmh W -- 30.18 in1022.0 mb 0.00 in0.0 mm 0.00 in0.0 mm 0.00 in0.0 mm
03:54 AM 66.6°F19.2°C 42.0°F5.6°C 41% 5.0 mph W8.0 kmh W -- 30.18 in1022.0 mb 0.00 in0.0 mm 0.00 in0.0 mm 0.00 in0.0 mm
03:55 AM 66.6°F19.2°C 42.0°F5.6°C 41% 3.0 mph W4.8 kmh W -- 30.19 in1022.4 mb 0.00 in0.0 mm 0.00 in0.0 mm 0.00 in0.0 mm
03:56 AM 66.6°F19.2°C 42.0°F5.6°C 41% 4.0 mph WNW6.4 kmh WNW -- 30.19 in1022.4 mb 0.00 in0.0 mm 0.00 in0.0 mm 0.00 in0.0 mm
03:57 AM 66.6°F19.2°C 42.0°F5.6°C 41% 5.0 mph WNW8.0 kmh WNW -- 30.18 in1022.0 mb 0.00 in0.0 mm 0.00 in0.0 mm 0.00 in0.0 mm
03:58 AM 66.6°F19.2°C 42.0°F5.6°C 41% 6.0 mph WNW9.7 kmh WNW -- 30.18 in1022.0 mb 0.00 in0.0 mm 0.00 in0.0 mm 0.00 in0.0 mm
03:59 AM 66.6°F19.2°C 42.0°F5.6°C 41% 5.0 mph W8.0 kmh W -- 30.19 in1022.4 mb 0.00 in0.0 mm 0.00 in0.0 mm 0.00 in0.0 mm
04:00 AM 66.6°F19.2°C 42.0°F5.6°C 41% 5.0 mph WNW8.0 kmh WNW -- 30.19 in1022.4 mb 0.00 in0.0 mm 0.00 in0.0 mm 0.00 in0.0 mm
04:01 AM 66.6°F19.2°C 42.0°F5.6°C 41% 4.0 mph W6.4 kmh W -- 30.18 in1022.0 mb 0.00 in0.0 mm 0.00 in0.0 mm 0.00 in0.0 mm
04:02 AM 66.6°F19.2°C 42.0°F5.6°C 41% 4.0 mph WNW6.4 kmh WNW -- 30.18 in1022.0 mb 0.00 in0.0 mm 0.00 in0.0 mm 0.00 in0.0 mm
04:03 AM 66.6°F19.2°C 41.4°F5.2°C 40% 6.0 mph WNW9.7 kmh WNW -- 30.18 in1022.0 mb 0.00 in0.0 mm 0.00 in0.0 mm 0.00 in0.0 mm
04:05 AM 66.6°F19.2°C 41.4°F5.2°C 40% 5.0 mph NNW8.0 kmh NNW -- 30.18 in1022.0 mb 0.00 in0.0 mm 0.00 in0.0 mm 0.00 in0.0 mm
04:06 AM 66.6°F19.2°C 41.4°F5.2°C 40% 4.0 mph WNW6.4 kmh WNW -- 30.18 in1022.0 mb 0.00 in0.0 mm 0.00 in0.0 mm 0.00 in0.0 mm
04:07 AM 66.5°F19.2°C 41.4°F5.2°C 40% 5.0 mph WNW8.0 kmh WNW -- 30.19 in1022.4 mb 0.00 in0.0 mm 0.00 in0.0 mm 0.00 in0.0 mm
04:08 AM 66.5°F19.2°C 41.4°F5.2°C 40% 4.0 mph W6.4 kmh W -- 30.19 in1022.4 mb 0.00 in0.0 mm 0.00 in0.0 mm 0.00 in0.0 mm
04:09 AM 66.4°F19.1°C 41.2°F5.1°C 40% 6.0 mph WNW9.7 kmh WNW -- 30.19 in1022.4 mb 0.00 in0.0 mm 0.00 in0.0 mm 0.00 in0.0 mm
04:10 AM 66.1°F18.9°C 40.9°F4.9°C 40% 4.0 mph NW6.4 kmh NW -- 30.19 in1022.4 mb 0.00 in0.0 mm 0.00 in0.0 mm 0.00 in0.0 mm
04:11 AM 66.1°F18.9°C 40.9°F4.9°C 40% 6.0 mph NW9.7 kmh NW -- 30.19 in1022.4 mb 0.00 in0.0 mm 0.00 in0.0 mm 0.00 in0.0 mm
04:13 AM 66.1°F18.9°C 40.9°F4.9°C 40% 5.0 mph NW8.0 kmh NW -- 30.19 in1022.4 mb 0.00 in0.0 mm 0.00 in0.0 mm 0.00 in0.0 mm
04:16 AM 65.9°F18.8°C 40.7°F4.8°C 40% 4.0 mph NNW6.4 kmh NNW -- 30.19 in1022.4 mb 0.00 in0.0 mm 0.00 in0.0 mm 0.00 in0.0 mm
04:17 AM 65.9°F18.8°C 40.7°F4.8°C 40% 5.0 mph NW8.0 kmh NW -- 30.18 in1022.0 mb 0.00 in0.0 mm 0.00 in0.0 mm 0.00 in0.0 mm
04:18 AM 65.9°F18.8°C 40.7°F4.8°C 40% 6.0 mph WNW9.7 kmh WNW -- 30.18 in1022.0 mb 0.00 in0.0 mm 0.00 in0.0 mm 0.00 in0.0 mm
04:19 AM 65.9°F18.8°C 40.7°F4.8°C 40% 6.0 mph NW9.7 kmh NW -- 30.18 in1022.0 mb 0.00 in0.0 mm 0.00 in0.0 mm 0.00 in0.0 mm
04:20 AM 65.9°F18.8°C 40.1°F4.5°C 39% 7.0 mph NW11.3 kmh NW -- 30.19 in1022.4 mb 0.00 in0.0 mm 0.00 in0.0 mm 0.00 in0.0 mm
04:21 AM 65.9°F18.8°C 40.1°F4.5°C 39% 5.0 mph NW8.0 kmh NW -- 30.19 in1022.4 mb 0.00 in0.0 mm 0.00 in0.0 mm 0.00 in0.0 mm
04:22 AM 65.9°F18.8°C 40.1°F4.5°C 39% 7.0 mph NNW11.3 kmh NNW -- 30.19 in1022.4 mb 0.00 in0.0 mm 0.00 in0.0 mm 0.00 in0.0 mm
04:23 AM 65.9°F18.8°C 40.1°F4.5°C 39% 5.0 mph NNW8.0 kmh NNW -- 30.19 in1022.4 mb 0.00 in0.0 mm 0.00 in0.0 mm 0.00 in0.0 mm
04:24 AM 65.9°F18.8°C 40.1°F4.5°C 39% 5.0 mph NW8.0 kmh NW -- 30.19 in1022.4 mb 0.00 in0.0 mm 0.00 in0.0 mm 0.00 in0.0 mm
04:25 AM 65.9°F18.8°C 38.7°F3.7°C 37% 4.0 mph NW6.4 kmh NW -- 30.19 in1022.4 mb 0.00 in0.0 mm 0.00 in0.0 mm 0.00 in0.0 mm
04:26 AM 65.9°F18.8°C 38.7°F3.7°C 37% 5.0 mph NNW8.0 kmh NNW -- 30.19 in1022.4 mb 0.00 in0.0 mm 0.00 in0.0 mm 0.00 in0.0 mm
04:27 AM 65.9°F18.8°C 38.7°F3.7°C 37% 6.0 mph NW9.7 kmh NW -- 30.19 in1022.4 mb 0.00 in0.0 mm 0.00 in0.0 mm 0.00 in0.0 mm
04:28 AM 65.9°F18.8°C 38.7°F3.7°C 37% 5.0 mph NW8.0 kmh NW -- 30.19 in1022.4 mb 0.00 in0.0 mm 0.00 in0.0 mm 0.00 in0.0 mm
04:30 AM 65.9°F18.8°C 38.7°F3.7°C 37% 6.0 mph WNW9.7 kmh WNW -- 30.19 in1022.4 mb 0.00 in0.0 mm 0.00 in0.0 mm 0.00 in0.0 mm
04:31 AM 66.1°F18.9°C 38.9°F3.8°C 37% 5.0 mph NNW8.0 kmh NNW -- 30.18 in1022.0 mb 0.00 in0.0 mm 0.00 in0.0 mm 0.00 in0.0 mm
04:32 AM 66.1°F18.9°C 38.9°F3.8°C 37% 5.0 mph NW8.0 kmh NW -- 30.18 in1022.0 mb 0.00 in0.0 mm 0.00 in0.0 mm 0.00 in0.0 mm
04:33 AM 66.1°F18.9°C 38.9°F3.8°C 37% 5.0 mph NNW8.0 kmh NNW -- 30.18 in1022.0 mb 0.00 in0.0 mm 0.00 in0.0 mm 0.00 in0.0 mm
04:34 AM 66.4°F19.1°C 39.2°F4.0°C 37% 6.0 mph W9.7 kmh W -- 30.18 in1022.0 mb 0.00 in0.0 mm 0.00 in0.0 mm 0.00 in0.0 mm
04:35 AM 66.4°F19.1°C 39.2°F4.0°C 37% 5.0 mph WNW8.0 kmh WNW -- 30.18 in1022.0 mb 0.00 in0.0 mm 0.00 in0.0 mm 0.00 in0.0 mm
04:36 AM 66.4°F19.1°C 39.2°F4.0°C 37% 6.0 mph NW9.7 kmh NW -- 30.18 in1022.0 mb 0.00 in0.0 mm 0.00 in0.0 mm 0.00 in0.0 mm
04:37 AM 66.4°F19.1°C 39.2°F4.0°C 37% 6.0 mph NNW9.7 kmh NNW -- 30.18 in1022.0 mb 0.00 in0.0 mm 0.00 in0.0 mm 0.00 in0.0 mm
04:38 AM 66.4°F19.1°C 39.2°F4.0°C 37% 5.0 mph W8.0 kmh W -- 30.18 in1022.0 mb 0.00 in0.0 mm 0.00 in0.0 mm 0.00 in0.0 mm
04:39 AM 66.4°F19.1°C 39.2°F4.0°C 37% 5.0 mph W8.0 kmh W -- 30.19 in1022.4 mb 0.00 in0.0 mm 0.00 in0.0 mm 0.00 in0.0 mm
04:40 AM 66.5°F19.2°C 39.4°F4.1°C 37% 5.0 mph WNW8.0 kmh WNW -- 30.19 in1022.4 mb 0.00 in0.0 mm 0.00 in0.0 mm 0.00 in0.0 mm
04:41 AM 66.5°F19.2°C 37.9°F3.3°C 35% 4.0 mph WNW6.4 kmh WNW -- 30.19 in1022.4 mb 0.00 in0.0 mm 0.00 in0.0 mm 0.00 in0.0 mm
04:42 AM 66.6°F19.2°C 37.9°F3.3°C 35% 6.0 mph WNW9.7 kmh WNW -- 30.19 in1022.4 mb 0.00 in0.0 mm 0.00 in0.0 mm 0.00 in0.0 mm
04:43 AM 66.6°F19.2°C 37.9°F3.3°C 35% 6.0 mph WSW9.7 kmh WSW -- 30.19 in1022.4 mb 0.00 in0.0 mm 0.00 in0.0 mm 0.00 in0.0 mm
04:44 AM 66.6°F19.2°C 37.9°F3.3°C 35% 5.0 mph NW8.0 kmh NW -- 30.19 in1022.4 mb 0.00 in0.0 mm 0.00 in0.0 mm 0.00 in0.0 mm
04:45 AM 67.1°F19.5°C 38.4°F3.6°C 35% 6.0 mph 9.7 kmh -- 30.18 in1022.0 mb 0.00 in0.0 mm 0.00 in0.0 mm 0.00 in0.0 mm
04:46 AM 67.1°F19.5°C 38.4°F3.6°C 35% 5.0 mph NW8.0 kmh NW -- 30.18 in1022.0 mb 0.00 in0.0 mm 0.00 in0.0 mm 0.00 in0.0 mm
04:47 AM 67.1°F19.5°C 38.4°F3.6°C 35% 5.0 mph NNW8.0 kmh NNW -- 30.18 in1022.0 mb 0.00 in0.0 mm 0.00 in0.0 mm 0.00 in0.0 mm
04:48 AM 67.1°F19.5°C 38.4°F3.6°C 35% 5.0 mph W8.0 kmh W -- 30.19 in1022.4 mb 0.00 in0.0 mm 0.00 in0.0 mm 0.00 in0.0 mm
04:49 AM 67.3°F19.6°C 38.6°F3.7°C 35% 6.0 mph NW9.7 kmh NW -- 30.19 in1022.4 mb 0.00 in0.0 mm 0.00 in0.0 mm 0.00 in0.0 mm
04:50 AM 67.5°F19.7°C 38.7°F3.7°C 35% 7.0 mph NW11.3 kmh NW -- 30.19 in1022.4 mb 0.00 in0.0 mm 0.00 in0.0 mm 0.00 in0.0 mm
04:51 AM 67.5°F19.7°C 38.7°F3.7°C 35% 6.0 mph NW9.7 kmh NW -- 30.19 in1022.4 mb 0.00 in0.0 mm 0.00 in0.0 mm 0.00 in0.0 mm
04:52 AM 67.6°F19.8°C 38.9°F3.8°C 35% 6.0 mph WSW9.7 kmh WSW -- 30.19 in1022.4 mb 0.00 in0.0 mm 0.00 in0.0 mm 0.00 in0.0 mm
04:53 AM 67.8°F19.9°C 39.1°F3.9°C 35% 5.0 mph NNW8.0 kmh NNW -- 30.19 in1022.4 mb 0.00 in0.0 mm 0.00 in0.0 mm 0.00 in0.0 mm
04:54 AM 67.8°F19.9°C 39.1°F3.9°C 35% 4.0 mph WNW6.4 kmh WNW -- 30.19 in1022.4 mb 0.00 in0.0 mm 0.00 in0.0 mm 0.00 in0.0 mm
04:55 AM 67.8°F19.9°C 39.1°F3.9°C 35% 5.0 mph NW8.0 kmh NW -- 30.18 in1022.0 mb 0.00 in0.0 mm 0.00 in0.0 mm 0.00 in0.0 mm
04:56 AM 67.8°F19.9°C 39.1°F3.9°C 35% 6.0 mph W9.7 kmh W -- 30.18 in1022.0 mb 0.00 in0.0 mm 0.00 in0.0 mm 0.00 in0.0 mm
04:57 AM 67.8°F19.9°C 39.1°F3.9°C 35% 4.0 mph NW6.4 kmh NW -- 30.18 in1022.0 mb 0.00 in0.0 mm 0.00 in0.0 mm 0.00 in0.0 mm
04:58 AM 67.6°F19.8°C 38.9°F3.8°C 35% 7.0 mph W11.3 kmh W -- 30.19 in1022.4 mb 0.00 in0.0 mm 0.00 in0.0 mm 0.00 in0.0 mm
04:59 AM 67.6°F19.8°C 38.9°F3.8°C 35% 8.0 mph NNW12.9 kmh NNW -- 30.18 in1022.0 mb 0.00 in0.0 mm 0.00 in0.0 mm 0.00 in0.0 mm
05:00 AM 67.6°F19.8°C 38.9°F3.8°C 35% 5.0 mph NW8.0 kmh NW -- 30.18 in1022.0 mb 0.00 in0.0 mm 0.00 in0.0 mm 0.00 in0.0 mm
05:01 AM 67.6°F19.8°C 38.9°F3.8°C 35% 7.0 mph W11.3 kmh W -- 30.18 in1022.0 mb 0.00 in0.0 mm 0.00 in0.0 mm 0.00 in0.0 mm
05:02 AM 67.6°F19.8°C 38.9°F3.8°C 35% 6.0 mph WNW9.7 kmh WNW -- 30.19 in1022.4 mb 0.00 in0.0 mm 0.00 in0.0 mm 0.00 in0.0 mm
05:03 AM 67.6°F19.8°C 38.9°F3.8°C 35% 7.0 mph WNW11.3 kmh WNW -- 30.19 in1022.4 mb 0.00 in0.0 mm 0.00 in0.0 mm 0.00 in0.0 mm
05:04 AM 67.6°F19.8°C 38.9°F3.8°C 35% 7.0 mph W11.3 kmh W -- 30.19 in1022.4 mb 0.00 in0.0 mm 0.00 in0.0 mm 0.00 in0.0 mm
05:05 AM 67.6°F19.8°C 38.9°F3.8°C 35% 7.0 mph WNW11.3 kmh WNW -- 30.18 in1022.0 mb 0.00 in0.0 mm 0.00 in0.0 mm 0.00 in0.0 mm
05:06 AM 67.6°F19.8°C 38.9°F3.8°C 35% 5.0 mph NW8.0 kmh NW -- 30.18 in1022.0 mb 0.00 in0.0 mm 0.00 in0.0 mm 0.00 in0.0 mm
05:07 AM 67.6°F19.8°C 38.9°F3.8°C 35% 5.0 mph WNW8.0 kmh WNW -- 30.18 in1022.0 mb 0.00 in0.0 mm 0.00 in0.0 mm 0.00 in0.0 mm
05:08 AM 67.6°F19.8°C 38.9°F3.8°C 35% 5.0 mph 8.0 kmh -- 30.18 in1022.0 mb 0.00 in0.0 mm 0.00 in0.0 mm 0.00 in0.0 mm
05:09 AM 67.5°F19.7°C 38.7°F3.7°C 35% 5.0 mph WNW8.0 kmh WNW -- 30.19 in1022.4 mb 0.00 in0.0 mm 0.00 in0.0 mm 0.00 in0.0 mm
05:10 AM 67.5°F19.7°C 38.7°F3.7°C 35% 4.0 mph WNW6.4 kmh WNW -- 30.19 in1022.4 mb 0.00 in0.0 mm 0.00 in0.0 mm 0.00 in0.0 mm
05:11 AM 67.5°F19.7°C 38.7°F3.7°C 35% 5.0 mph WNW8.0 kmh WNW -- 30.19 in1022.4 mb 0.00 in0.0 mm 0.00 in0.0 mm 0.00 in0.0 mm
05:12 AM 67.3°F19.6°C 38.6°F3.7°C 35% 4.0 mph NW6.4 kmh NW -- 30.18 in1022.0 mb 0.00 in0.0 mm 0.00 in0.0 mm 0.00 in0.0 mm
05:13 AM 67.3°F19.6°C 38.6°F3.7°C 35% 4.0 mph NW6.4 kmh NW -- 30.19 in1022.4 mb 0.00 in0.0 mm 0.00 in0.0 mm 0.00 in0.0 mm
05:14 AM 67.3°F19.6°C 38.6°F3.7°C 35% 5.0 mph NW8.0 kmh NW -- 30.19 in1022.4 mb 0.00 in0.0 mm 0.00 in0.0 mm 0.00 in0.0 mm
05:15 AM 67.3°F19.6°C 38.6°F3.7°C 35% 4.0 mph NNW6.4 kmh NNW -- 30.19 in1022.4 mb 0.00 in0.0 mm 0.00 in0.0 mm 0.00 in0.0 mm
05:16 AM 67.1°F19.5°C 38.4°F3.6°C 35% 5.0 mph WNW8.0 kmh WNW -- 30.19 in1022.4 mb 0.00 in0.0 mm 0.00 in0.0 mm 0.00 in0.0 mm
05:17 AM 67.1°F19.5°C 38.4°F3.6°C 35% 6.0 mph NW9.7 kmh NW -- 30.19 in1022.4 mb 0.00 in0.0 mm 0.00 in0.0 mm 0.00 in0.0 mm
05:18 AM 67.1°F19.5°C 38.4°F3.6°C 35% 7.0 mph NW11.3 kmh NW -- 30.19 in1022.4 mb 0.00 in0.0 mm 0.00 in0.0 mm 0.00 in0.0 mm
05:19 AM 67.1°F19.5°C 38.4°F3.6°C 35% 4.0 mph NW6.4 kmh NW -- 30.19 in1022.4 mb 0.00 in0.0 mm 0.00 in0.0 mm 0.00 in0.0 mm
05:20 AM 67.1°F19.5°C 38.4°F3.6°C 35% 5.0 mph WNW8.0 kmh WNW -- 30.19 in1022.4 mb 0.00 in0.0 mm 0.00 in0.0 mm 0.00 in0.0 mm
05:21 AM 67.1°F19.5°C 38.4°F3.6°C 35% 4.0 mph NW6.4 kmh NW -- 30.19 in1022.4 mb 0.00 in0.0 mm 0.00 in0.0 mm 0.00 in0.0 mm
05:22 AM 66.9°F19.4°C 38.3°F3.5°C 35% 5.0 mph NW8.0 kmh NW -- 30.19 in1022.4 mb 0.00 in0.0 mm 0.00 in0.0 mm 0.00 in0.0 mm
05:24 AM 66.9°F19.4°C 38.3°F3.5°C 35% 4.0 mph W6.4 kmh W -- 30.19 in1022.4 mb 0.00 in0.0 mm 0.00 in0.0 mm 0.00 in0.0 mm
05:25 AM 66.6°F19.2°C 37.9°F3.3°C 35% 7.0 mph W11.3 kmh W -- 30.19 in1022.4 mb 0.00 in0.0 mm 0.00 in0.0 mm 0.00 in0.0 mm
05:26 AM 66.6°F19.2°C 37.9°F3.3°C 35% 5.0 mph WNW8.0 kmh WNW -- 30.19 in1022.4 mb 0.00 in0.0 mm 0.00 in0.0 mm 0.00 in0.0 mm
05:27 AM 66.6°F19.2°C 37.9°F3.3°C 35% 5.0 mph NNW8.0 kmh NNW -- 30.19 in1022.4 mb 0.00 in0.0 mm 0.00 in0.0 mm 0.00 in0.0 mm
05:29 AM 66.5°F19.2°C 37.9°F3.3°C 35% 4.0 mph WNW6.4 kmh WNW -- 30.19 in1022.4 mb 0.00 in0.0 mm 0.00 in0.0 mm 0.00 in0.0 mm
05:31 AM 66.4°F19.1°C 37.8°F3.2°C 35% 5.0 mph WNW8.0 kmh WNW -- 30.19 in1022.4 mb 0.00 in0.0 mm 0.00 in0.0 mm 0.00 in0.0 mm
05:32 AM 66.4°F19.1°C 37.8°F3.2°C 35% 6.0 mph WNW9.7 kmh WNW -- 30.19 in1022.4 mb 0.00 in0.0 mm 0.00 in0.0 mm 0.00 in0.0 mm
05:33 AM 66.4°F19.1°C 37.8°F3.2°C 35% 6.0 mph NW9.7 kmh NW -- 30.19 in1022.4 mb 0.00 in0.0 mm 0.00 in0.0 mm 0.00 in0.0 mm
05:34 AM 66.4°F19.1°C 37.8°F3.2°C 35% 5.0 mph NW8.0 kmh NW -- 30.19 in1022.4 mb 0.00 in0.0 mm 0.00 in0.0 mm 0.00 in0.0 mm
05:35 AM 66.4°F19.1°C 37.8°F3.2°C 35% 6.0 mph NW9.7 kmh NW -- 30.19 in1022.4 mb 0.00 in0.0 mm 0.00 in0.0 mm 0.00 in0.0 mm
05:36 AM 66.4°F19.1°C 37.8°F3.2°C 35% 6.0 mph W9.7 kmh W -- 30.19 in1022.4 mb 0.00 in0.0 mm 0.00 in0.0 mm 0.00 in0.0 mm
05:37 AM 66.4°F19.1°C 37.8°F3.2°C 35% 7.0 mph WNW11.3 kmh WNW -- 30.19 in1022.4 mb 0.00 in0.0 mm 0.00 in0.0 mm 0.00 in0.0 mm
05:38 AM 66.4°F19.1°C 37.8°F3.2°C 35% 6.0 mph W9.7 kmh W -- 30.19 in1022.4 mb 0.00 in0.0 mm 0.00 in0.0 mm 0.00 in0.0 mm
05:39 AM 66.4°F19.1°C 37.8°F3.2°C 35% 4.0 mph NNW6.4 kmh NNW -- 30.19 in1022.4 mb 0.00 in0.0 mm 0.00 in0.0 mm 0.00 in0.0 mm
05:40 AM 66.1°F18.9°C 37.5°F3.1°C 35% 4.0 mph 6.4 kmh -- 30.19 in1022.4 mb 0.00 in0.0 mm 0.00 in0.0 mm 0.00 in0.0 mm
05:41 AM 66.1°F18.9°C 37.5°F3.1°C 35% 5.0 mph NW8.0 kmh NW -- 30.19 in1022.4 mb 0.00 in0.0 mm 0.00 in0.0 mm 0.00 in0.0 mm
05:42 AM 66.1°F18.9°C 37.5°F3.1°C 35% 5.0 mph WNW8.0 kmh WNW -- 30.19 in1022.4 mb 0.00 in0.0 mm 0.00 in0.0 mm 0.00 in0.0 mm
05:43 AM 66.1°F18.9°C 37.5°F3.1°C 35% 5.0 mph W8.0 kmh W -- 30.19 in1022.4 mb 0.00 in0.0 mm 0.00 in0.0 mm 0.00 in0.0 mm
05:44 AM 66.1°F18.9°C 37.5°F3.1°C 35% 6.0 mph NW9.7 kmh NW -- 30.19 in1022.4 mb 0.00 in0.0 mm 0.00 in0.0 mm 0.00 in0.0 mm
05:45 AM 66.1°F18.9°C 37.5°F3.1°C 35% 5.0 mph NW8.0 kmh NW -- 30.19 in1022.4 mb 0.00 in0.0 mm 0.00 in0.0 mm 0.00 in0.0 mm
05:46 AM 66.1°F18.9°C 37.5°F3.1°C 35% 4.0 mph NW6.4 kmh NW -- 30.19 in1022.4 mb 0.00 in0.0 mm 0.00 in0.0 mm 0.00 in0.0 mm
05:47 AM 66.1°F18.9°C 37.5°F3.1°C 35% 6.0 mph NW9.7 kmh NW -- 30.19 in1022.4 mb 0.00 in0.0 mm 0.00 in0.0 mm 0.00 in0.0 mm
05:48 AM 66.4°F19.1°C 37.8°F3.2°C 35% 5.0 mph W8.0 kmh W -- 30.19 in1022.4 mb 0.00 in0.0 mm 0.00 in0.0 mm 0.00 in0.0 mm
05:49 AM 66.4°F19.1°C 37.8°F3.2°C 35% 7.0 mph WNW11.3 kmh WNW -- 30.19 in1022.4 mb 0.00 in0.0 mm 0.00 in0.0 mm 0.00 in0.0 mm
05:50 AM 66.4°F19.1°C 37.8°F3.2°C 35% 6.0 mph WNW9.7 kmh WNW -- 30.19 in1022.4 mb 0.00 in0.0 mm 0.00 in0.0 mm 0.00 in0.0 mm
05:51 AM 66.4°F19.1°C 37.8°F3.2°C 35% 5.0 mph WNW8.0 kmh WNW -- 30.20 in1022.7 mb 0.00 in0.0 mm 0.00 in0.0 mm 0.00 in0.0 mm
05:52 AM 66.4°F19.1°C 37.8°F3.2°C 35% 6.0 mph WNW9.7 kmh WNW -- 30.19 in1022.4 mb 0.00 in0.0 mm 0.00 in0.0 mm 0.00 in0.0 mm
05:53 AM 66.5°F19.2°C 37.9°F3.3°C 35% 6.0 mph NNW9.7 kmh NNW -- 30.19 in1022.4 mb 0.00 in0.0 mm 0.00 in0.0 mm 0.00 in0.0 mm
05:54 AM 66.5°F19.2°C 37.9°F3.3°C 35% 6.0 mph NW9.7 kmh NW -- 30.19 in1022.4 mb 0.00 in0.0 mm 0.00 in0.0 mm 0.00 in0.0 mm
05:56 AM 66.6°F19.2°C 37.9°F3.3°C 35% 7.0 mph NNW11.3 kmh NNW -- 30.19 in1022.4 mb 0.00 in0.0 mm 0.00 in0.0 mm 0.00 in0.0 mm
05:57 AM 66.6°F19.2°C 37.9°F3.3°C 35% 6.0 mph NNW9.7 kmh NNW -- 30.19 in1022.4 mb 0.00 in0.0 mm 0.00 in0.0 mm 0.00 in0.0 mm
05:58 AM 66.6°F19.2°C 37.9°F3.3°C 35% 8.0 mph NNW12.9 kmh NNW -- 30.19 in1022.4 mb 0.00 in0.0 mm 0.00 in0.0 mm 0.00 in0.0 mm
05:59 AM 66.6°F19.2°C 37.9°F3.3°C 35% 6.0 mph NW9.7 kmh NW -- 30.19 in1022.4 mb 0.00 in0.0 mm 0.00 in0.0 mm 0.00 in0.0 mm
06:00 AM 66.6°F19.2°C 37.9°F3.3°C 35% 5.0 mph W8.0 kmh W -- 30.19 in1022.4 mb 0.00 in0.0 mm 0.00 in0.0 mm 0.00 in0.0 mm
06:01 AM 66.6°F19.2°C 37.9°F3.3°C 35% 7.0 mph NNW11.3 kmh NNW -- 30.19 in1022.4 mb 0.00 in0.0 mm 0.00 in0.0 mm 0.00 in0.0 mm
06:02 AM 66.9°F19.4°C 38.3°F3.5°C 35% 6.0 mph NW9.7 kmh NW -- 30.19 in1022.4 mb 0.00 in0.0 mm 0.00 in0.0 mm 0.00 in0.0 mm
06:03 AM 66.9°F19.4°C 38.3°F3.5°C 35% 5.0 mph NW8.0 kmh NW -- 30.19 in1022.4 mb 0.00 in0.0 mm 0.00 in0.0 mm 0.00 in0.0 mm
06:04 AM 66.9°F19.4°C 38.3°F3.5°C 35% 4.0 mph NW6.4 kmh NW -- 30.19 in1022.4 mb 0.00 in0.0 mm 0.00 in0.0 mm 0.00 in0.0 mm
06:05 AM 66.9°F19.4°C 38.3°F3.5°C 35% 5.0 mph 8.0 kmh -- 30.19 in1022.4 mb 0.00 in0.0 mm 0.00 in0.0 mm 0.00 in0.0 mm
06:06 AM 66.9°F19.4°C 38.3°F3.5°C 35% 8.0 mph NNW12.9 kmh NNW -- 30.19 in1022.4 mb 0.00 in0.0 mm 0.00 in0.0 mm 0.00 in0.0 mm
06:07 AM 67.1°F19.5°C 38.4°F3.6°C 35% 3.0 mph WNW4.8 kmh WNW -- 30.19 in1022.4 mb 0.00 in0.0 mm 0.00 in0.0 mm 0.00 in0.0 mm
06:08 AM 67.1°F19.5°C 38.4°F3.6°C 35% 7.0 mph NNW11.3 kmh NNW -- 30.20 in1022.7 mb 0.00 in0.0 mm 0.00 in0.0 mm 0.00 in0.0 mm
06:09 AM 67.3°F19.6°C 38.6°F3.7°C 35% 5.0 mph NNW8.0 kmh NNW -- 30.20 in1022.7 mb 0.00 in0.0 mm 0.00 in0.0 mm 0.00 in0.0 mm
06:10 AM 67.5°F19.7°C 38.7°F3.7°C 35% 4.0 mph NNW6.4 kmh NNW -- 30.20 in1022.7 mb 0.00 in0.0 mm 0.00 in0.0 mm 0.00 in0.0 mm
06:11 AM 67.5°F19.7°C 38.7°F3.7°C 35% 7.0 mph NNW11.3 kmh NNW -- 30.20 in1022.7 mb 0.00 in0.0 mm 0.00 in0.0 mm 0.00 in0.0 mm
06:12 AM 67.5°F19.7°C 38.7°F3.7°C 35% 8.0 mph NW12.9 kmh NW -- 30.20 in1022.7 mb 0.00 in0.0 mm 0.00 in0.0 mm 0.00 in0.0 mm
06:13 AM 67.5°F19.7°C 38.7°F3.7°C 35% 9.0 mph NNW14.5 kmh NNW -- 30.20 in1022.7 mb 0.00 in0.0 mm 0.00 in0.0 mm 0.00 in0.0 mm
06:14 AM 67.5°F19.7°C 38.7°F3.7°C 35% 7.0 mph 11.3 kmh -- 30.20 in1022.7 mb 0.00 in0.0 mm 0.00 in0.0 mm 0.00 in0.0 mm
06:15 AM 67.5°F19.7°C 38.7°F3.7°C 35% 7.0 mph NW11.3 kmh NW -- 30.20 in1022.7 mb 0.00 in0.0 mm 0.00 in0.0 mm 0.00 in0.0 mm
06:16 AM 67.5°F19.7°C 38.7°F3.7°C 35% 6.0 mph NW9.7 kmh NW -- 30.20 in1022.7 mb 0.00 in0.0 mm 0.00 in0.0 mm 0.00 in0.0 mm
06:17 AM 67.5°F19.7°C 38.7°F3.7°C 35% 5.0 mph NW8.0 kmh NW -- 30.20 in1022.7 mb 0.00 in0.0 mm 0.00 in0.0 mm 0.00 in0.0 mm
06:18 AM 67.5°F19.7°C 38.7°F3.7°C 35% 6.0 mph 9.7 kmh -- 30.20 in1022.7 mb 0.00 in0.0 mm 0.00 in0.0 mm 0.00 in0.0 mm
06:19 AM 67.5°F19.7°C 38.7°F3.7°C 35% 7.0 mph WNW11.3 kmh WNW -- 30.20 in1022.7 mb 0.00 in0.0 mm 0.00 in0.0 mm 0.00 in0.0 mm
06:20 AM 67.6°F19.8°C 38.9°F3.8°C 35% 4.0 mph NNW6.4 kmh NNW -- 30.20 in1022.7 mb 0.00 in0.0 mm 0.00 in0.0 mm 0.00 in0.0 mm
06:21 AM 67.6°F19.8°C 38.2°F3.4°C 34% 4.0 mph NW6.4 kmh NW -- 30.20 in1022.7 mb 0.00 in0.0 mm 0.00 in0.0 mm 0.00 in0.0 mm
06:22 AM 67.6°F19.8°C 38.2°F3.4°C 34% 8.0 mph NW12.9 kmh NW -- 30.20 in1022.7 mb 0.00 in0.0 mm 0.00 in0.0 mm 0.00 in0.0 mm
06:23 AM 67.6°F19.8°C 38.2°F3.4°C 34% 8.0 mph W12.9 kmh W -- 30.20 in1022.7 mb 0.00 in0.0 mm 0.00 in0.0 mm 0.00 in0.0 mm
06:24 AM 67.6°F19.8°C 38.2°F3.4°C 34% 5.0 mph WNW8.0 kmh WNW -- 30.20 in1022.7 mb 0.00 in0.0 mm 0.00 in0.0 mm 0.00 in0.0 mm
06:25 AM 67.6°F19.8°C 38.2°F3.4°C 34% 6.0 mph NW9.7 kmh NW -- 30.20 in1022.7 mb 0.00 in0.0 mm 0.00 in0.0 mm 0.00 in0.0 mm
06:26 AM 67.6°F19.8°C 38.2°F3.4°C 34% 5.0 mph NW8.0 kmh NW -- 30.20 in1022.7 mb 0.00 in0.0 mm 0.00 in0.0 mm 0.00 in0.0 mm
06:27 AM 67.6°F19.8°C 38.2°F3.4°C 34% 7.0 mph NW11.3 kmh NW -- 30.20 in1022.7 mb 0.00 in0.0 mm 0.00 in0.0 mm 0.00 in0.0 mm
06:28 AM 67.6°F19.8°C 38.2°F3.4°C 34% 5.0 mph NNW8.0 kmh NNW -- 30.20 in1022.7 mb 0.00 in0.0 mm 0.00 in0.0 mm 0.00 in0.0 mm
06:29 AM 67.6°F19.8°C 38.2°F3.4°C 34% 5.0 mph NW8.0 kmh NW -- 30.20 in1022.7 mb 0.00 in0.0 mm 0.00 in0.0 mm 0.00 in0.0 mm
06:30 AM 67.6°F19.8°C 38.2°F3.4°C 34% 5.0 mph WNW8.0 kmh WNW -- 30.20 in1022.7 mb 0.00 in0.0 mm 0.00 in0.0 mm 0.00 in0.0 mm
06:31 AM 67.6°F19.8°C 38.2°F3.4°C 34% 6.0 mph NNW9.7 kmh NNW -- 30.20 in1022.7 mb 0.00 in0.0 mm 0.00 in0.0 mm 0.00 in0.0 mm
06:33 AM 67.6°F19.8°C 38.2°F3.4°C 34% 8.0 mph NNW12.9 kmh NNW -- 30.20 in1022.7 mb 0.00 in0.0 mm 0.00 in0.0 mm 0.00 in0.0 mm
06:34 AM 67.6°F19.8°C 38.2°F3.4°C 34% 10.0 mph NW16.1 kmh NW -- 30.20 in1022.7 mb 0.00 in0.0 mm 0.00 in0.0 mm 0.00 in0.0 mm
06:35 AM 67.8°F19.9°C 38.3°F3.5°C 34% 5.0 mph NW8.0 kmh NW -- 30.20 in1022.7 mb 0.00 in0.0 mm 0.00 in0.0 mm 0.00 in0.0 mm
06:36 AM 68.0°F20.0°C 38.5°F3.6°C 34% 8.0 mph NW12.9 kmh NW -- 30.20 in1022.7 mb 0.00 in0.0 mm 0.00 in0.0 mm 0.00 in0.0 mm
06:37 AM 68.1°F20.1°C 38.6°F3.7°C 34% 7.0 mph NNW11.3 kmh NNW -- 30.20 in1022.7 mb 0.00 in0.0 mm 0.00 in0.0 mm 0.00 in0.0 mm
06:38 AM 68.4°F20.2°C 38.8°F3.8°C 34% 7.0 mph NNW11.3 kmh NNW -- 30.20 in1022.7 mb 0.00 in0.0 mm 0.00 in0.0 mm 0.00 in0.0 mm
06:40 AM 68.4°F20.2°C 38.8°F3.8°C 34% 4.0 mph NNW6.4 kmh NNW -- 30.20 in1022.7 mb 0.00 in0.0 mm 0.00 in0.0 mm 0.00 in0.0 mm
06:41 AM 68.4°F20.2°C 38.8°F3.8°C 34% 5.0 mph NNW8.0 kmh NNW -- 30.20 in1022.7 mb 0.00 in0.0 mm 0.00 in0.0 mm 0.00 in0.0 mm
06:42 AM 68.4°F20.2°C 38.8°F3.8°C 34% 5.0 mph NW8.0 kmh NW -- 30.20 in1022.7 mb 0.00 in0.0 mm 0.00 in0.0 mm 0.00 in0.0 mm
06:43 AM 68.4°F20.2°C 38.8°F3.8°C 34% 6.0 mph NNW9.7 kmh NNW -- 30.20 in1022.7 mb 0.00 in0.0 mm 0.00 in0.0 mm 0.00 in0.0 mm
06:44 AM 68.4°F20.2°C 38.8°F3.8°C 34% 5.0 mph NW8.0 kmh NW -- 30.20 in1022.7 mb 0.00 in0.0 mm 0.00 in0.0 mm 0.00 in0.0 mm
06:45 AM 68.4°F20.2°C 38.8°F3.8°C 34% 6.0 mph W9.7 kmh W -- 30.20 in1022.7 mb 0.00 in0.0 mm 0.00 in0.0 mm 0.00 in0.0 mm
06:46 AM 68.4°F20.2°C 38.8°F3.8°C 34% 8.0 mph NNW12.9 kmh NNW -- 30.20 in1022.7 mb 0.00 in0.0 mm 0.00 in0.0 mm 0.00 in0.0 mm
06:47 AM 68.4°F20.2°C 38.8°F3.8°C 34% 5.0 mph NW8.0 kmh NW -- 30.21 in1023.0 mb 0.00 in0.0 mm 0.00 in0.0 mm 0.00 in0.0 mm
06:48 AM 68.4°F20.2°C 38.8°F3.8°C 34% 4.0 mph NNW6.4 kmh NNW -- 30.21 in1023.0 mb 0.00 in0.0 mm 0.00 in0.0 mm 0.00 in0.0 mm
06:49 AM 68.4°F20.2°C 38.8°F3.8°C 34% 5.0 mph NW8.0 kmh NW -- 30.20 in1022.7 mb 0.00 in0.0 mm 0.00 in0.0 mm 0.00 in0.0 mm
06:50 AM 68.4°F20.2°C 38.8°F3.8°C 34% 6.0 mph NNW9.7 kmh NNW -- 30.20 in1022.7 mb 0.00 in0.0 mm 0.00 in0.0 mm 0.00 in0.0 mm
06:51 AM 68.6°F20.3°C 39.0°F3.9°C 34% 6.0 mph NNW9.7 kmh NNW -- 30.21 in1023.0 mb 0.00 in0.0 mm 0.00 in0.0 mm 0.00 in0.0 mm
06:52 AM 68.9°F20.5°C 37.7°F3.2°C 32% 5.0 mph NW8.0 kmh NW -- 30.21 in1023.0 mb 0.00 in0.0 mm 0.00 in0.0 mm 0.00 in0.0 mm
06:53 AM 68.9°F20.5°C 37.7°F3.2°C 32% 5.0 mph 8.0 kmh -- 30.21 in1023.0 mb 0.00 in0.0 mm 0.00 in0.0 mm 0.00 in0.0 mm
06:54 AM 69.3°F20.7°C 38.0°F3.3°C 32% 5.0 mph NNW8.0 kmh NNW -- 30.21 in1023.0 mb 0.00 in0.0 mm 0.00 in0.0 mm 0.00 in0.0 mm
06:55 AM 69.3°F20.7°C 38.0°F3.3°C 32% 4.0 mph NW6.4 kmh NW -- 30.21 in1023.0 mb 0.00 in0.0 mm 0.00 in0.0 mm 0.00 in0.0 mm
06:56 AM 69.3°F20.7°C 38.0°F3.3°C 32% 5.0 mph WNW8.0 kmh WNW -- 30.21 in1023.0 mb 0.00 in0.0 mm 0.00 in0.0 mm 0.00 in0.0 mm
06:58 AM 69.3°F20.7°C 38.0°F3.3°C 32% 8.0 mph NNW12.9 kmh NNW -- 30.21 in1023.0 mb 0.00 in0.0 mm 0.00 in0.0 mm 0.00 in0.0 mm
06:59 AM 69.4°F20.8°C 37.4°F3.0°C 31% 10.0 mph NNW16.1 kmh NNW -- 30.21 in1023.0 mb 0.00 in0.0 mm 0.00 in0.0 mm 0.00 in0.0 mm
07:00 AM 69.8°F21.0°C 37.7°F3.2°C 31% 8.0 mph NNW12.9 kmh NNW -- 30.21 in1023.0 mb 0.00 in0.0 mm 0.00 in0.0 mm 0.00 in0.0 mm
07:01 AM 70.0°F21.1°C 37.9°F3.3°C 31% 7.0 mph WNW11.3 kmh WNW -- 30.21 in1023.0 mb 0.00 in0.0 mm 0.00 in0.0 mm 0.00 in0.0 mm
07:02 AM 70.1°F21.2°C 37.2°F2.9°C 30% 9.0 mph NNW14.5 kmh NNW -- 30.21 in1023.0 mb 0.00 in0.0 mm 0.00 in0.0 mm 0.00 in0.0 mm
07:03 AM 70.3°F21.3°C 37.4°F3.0°C 30% 6.0 mph WNW9.7 kmh WNW -- 30.21 in1023.0 mb 0.00 in0.0 mm 0.00 in0.0 mm 0.00 in0.0 mm
07:04 AM 70.5°F21.4°C 37.5°F3.1°C 30% 4.0 mph NNW6.4 kmh NNW -- 30.21 in1023.0 mb 0.00 in0.0 mm 0.00 in0.0 mm 0.00 in0.0 mm
07:05 AM 70.5°F21.4°C 37.5°F3.1°C 30% 7.0 mph NNW11.3 kmh NNW -- 30.21 in1023.0 mb 0.00 in0.0 mm 0.00 in0.0 mm 0.00 in0.0 mm
07:06 AM 70.6°F21.4°C 37.5°F3.1°C 30% 9.0 mph NW14.5 kmh NW -- 30.21 in1023.0 mb 0.00 in0.0 mm 0.00 in0.0 mm 0.00 in0.0 mm
07:07 AM 70.9°F21.6°C 37.8°F3.2°C 30% 8.0 mph NW12.9 kmh NW -- 30.21 in1023.0 mb 0.00 in0.0 mm 0.00 in0.0 mm 0.00 in0.0 mm
07:08 AM 71.0°F21.7°C 38.0°F3.3°C 30% 6.0 mph 9.7 kmh -- 30.21 in1023.0 mb 0.00 in0.0 mm 0.00 in0.0 mm 0.00 in0.0 mm
07:09 AM 71.0°F21.7°C 38.0°F3.3°C 30% 6.0 mph NW9.7 kmh NW -- 30.21 in1023.0 mb 0.00 in0.0 mm 0.00 in0.0 mm 0.00 in0.0 mm
07:10 AM 71.0°F21.7°C 38.0°F3.3°C 30% 8.0 mph NW12.9 kmh NW -- 30.21 in1023.0 mb 0.00 in0.0 mm 0.00 in0.0 mm 0.00 in0.0 mm
07:11 AM 71.1°F21.7°C 38.0°F3.3°C 30% 5.0 mph WNW8.0 kmh WNW -- 30.21 in1023.0 mb 0.00 in0.0 mm 0.00 in0.0 mm 0.00 in0.0 mm
07:12 AM 71.1°F21.7°C 38.0°F3.3°C 30% 9.0 mph NW14.5 kmh NW -- 30.21 in1023.0 mb 0.00 in0.0 mm 0.00 in0.0 mm 0.00 in0.0 mm
07:14 AM 71.4°F21.9°C 38.3°F3.5°C 30% 5.0 mph 8.0 kmh -- 30.21 in1023.0 mb 0.00 in0.0 mm 0.00 in0.0 mm 0.00 in0.0 mm
07:15 AM 71.4°F21.9°C 38.3°F3.5°C 30% 8.0 mph WNW12.9 kmh WNW -- 30.21 in1023.0 mb 0.00 in0.0 mm 0.00 in0.0 mm 0.00 in0.0 mm
07:16 AM 71.5°F21.9°C 38.3°F3.5°C 30% 9.0 mph NW14.5 kmh NW -- 30.21 in1023.0 mb 0.00 in0.0 mm 0.00 in0.0 mm 0.00 in0.0 mm
07:17 AM 71.5°F21.9°C 38.3°F3.5°C 30% 7.0 mph NW11.3 kmh NW -- 30.21 in1023.0 mb 0.00 in0.0 mm 0.00 in0.0 mm 0.00 in0.0 mm
07:18 AM 71.5°F21.9°C 38.3°F3.5°C 30% 8.0 mph NW12.9 kmh NW -- 30.21 in1023.0 mb 0.00 in0.0 mm 0.00 in0.0 mm 0.00 in0.0 mm
07:19 AM 71.9°F22.2°C 38.8°F3.8°C 30% 9.0 mph NW14.5 kmh NW -- 30.21 in1023.0 mb 0.00 in0.0 mm 0.00 in0.0 mm 0.00 in0.0 mm
07:20 AM 71.9°F22.2°C 38.8°F3.8°C 30% 8.0 mph NW12.9 kmh NW -- 30.21 in1023.0 mb 0.00 in0.0 mm 0.00 in0.0 mm 0.00 in0.0 mm
07:21 AM 72.1°F22.3°C 38.9°F3.8°C 30% 8.0 mph NNW12.9 kmh NNW -- 30.21 in1023.0 mb 0.00 in0.0 mm 0.00 in0.0 mm 0.00 in0.0 mm
07:22 AM 72.1°F22.3°C 38.9°F3.8°C 30% 9.0 mph NNW14.5 kmh NNW -- 30.21 in1023.0 mb 0.00 in0.0 mm 0.00 in0.0 mm 0.00 in0.0 mm
07:23 AM 72.3°F22.4°C 38.2°F3.4°C 29% 8.0 mph NW12.9 kmh NW -- 30.21 in1023.0 mb 0.00 in0.0 mm 0.00 in0.0 mm 0.00 in0.0 mm
07:24 AM 72.5°F22.5°C 38.4°F3.6°C 29% 7.0 mph NNW11.3 kmh NNW -- 30.21 in1023.0 mb 0.00 in0.0 mm 0.00 in0.0 mm 0.00 in0.0 mm
07:25 AM 72.5°F22.5°C 38.4°F3.6°C 29% 8.0 mph WNW12.9 kmh WNW -- 30.21 in1023.0 mb 0.00 in0.0 mm 0.00 in0.0 mm 0.00 in0.0 mm
07:26 AM 72.5°F22.5°C 38.4°F3.6°C 29% 9.0 mph NNW14.5 kmh NNW -- 30.21 in1023.0 mb 0.00 in0.0 mm 0.00 in0.0 mm 0.00 in0.0 mm
07:27 AM 72.6°F22.6°C 38.5°F3.6°C 29% 6.0 mph NW9.7 kmh NW -- 30.21 in1023.0 mb 0.00 in0.0 mm 0.00 in0.0 mm 0.00 in0.0 mm
07:28 AM 72.8°F22.7°C 38.7°F3.7°C 29% 8.0 mph NNW12.9 kmh NNW -- 30.21 in1023.0 mb 0.00 in0.0 mm 0.00 in0.0 mm 0.00 in0.0 mm
07:29 AM 72.8°F22.7°C 38.7°F3.7°C 29% 7.0 mph NW11.3 kmh NW -- 30.21 in1023.0 mb 0.00 in0.0 mm 0.00 in0.0 mm 0.00 in0.0 mm
07:30 AM 73.0°F22.8°C 38.8°F3.8°C 29% 7.0 mph WNW11.3 kmh WNW -- 30.21 in1023.0 mb 0.00 in0.0 mm 0.00 in0.0 mm 0.00 in0.0 mm
07:31 AM 73.4°F23.0°C 39.2°F4.0°C 29% 10.0 mph NW16.1 kmh NW -- 30.21 in1023.0 mb 0.00 in0.0 mm 0.00 in0.0 mm 0.00 in0.0 mm
07:32 AM 73.5°F23.1°C 39.3°F4.1°C 29% 7.0 mph NNW11.3 kmh NNW -- 30.21 in1023.0 mb 0.00 in0.0 mm 0.00 in0.0 mm 0.00 in0.0 mm
07:33 AM 73.5°F23.1°C 39.3°F4.1°C 29% 5.0 mph NW8.0 kmh NW -- 30.21 in1023.0 mb 0.00 in0.0 mm 0.00 in0.0 mm 0.00 in0.0 mm
07:34 AM 73.5°F23.1°C 39.3°F4.1°C 29% 8.0 mph WNW12.9 kmh WNW -- 30.21 in1023.0 mb 0.00 in0.0 mm 0.00 in0.0 mm 0.00 in0.0 mm
07:35 AM 73.8°F23.2°C 39.5°F4.2°C 29% 11.0 mph NW17.7 kmh NW -- 30.22 in1023.4 mb 0.00 in0.0 mm 0.00 in0.0 mm 0.00 in0.0 mm
07:36 AM 74.0°F23.3°C 37.8°F3.2°C 27% 8.0 mph NNW12.9 kmh NNW -- 30.21 in1023.0 mb 0.00 in0.0 mm 0.00 in0.0 mm 0.00 in0.0 mm
07:37 AM 74.0°F23.3°C 37.8°F3.2°C 27% 7.0 mph NNW11.3 kmh NNW -- 30.21 in1023.0 mb 0.00 in0.0 mm 0.00 in0.0 mm 0.00 in0.0 mm
07:38 AM 74.0°F23.3°C 37.8°F3.2°C 27% 11.0 mph NW17.7 kmh NW -- 30.21 in1023.0 mb 0.00 in0.0 mm 0.00 in0.0 mm 0.00 in0.0 mm
07:39 AM 74.4°F23.6°C 38.3°F3.5°C 27% 8.0 mph 12.9 kmh -- 30.23 in1023.7 mb 0.00 in0.0 mm 0.00 in0.0 mm 0.00 in0.0 mm
07:40 AM 74.4°F23.6°C 38.3°F3.5°C 27% 9.0 mph NNW14.5 kmh NNW -- 30.23 in1023.7 mb 0.00 in0.0 mm 0.00 in0.0 mm 0.00 in0.0 mm
07:41 AM 74.6°F23.7°C 38.4°F3.6°C 27% 11.0 mph NNW17.7 kmh NNW -- 30.21 in1023.0 mb 0.00 in0.0 mm 0.00 in0.0 mm 0.00 in0.0 mm
07:42 AM 74.8°F23.8°C 38.6°F3.7°C 27% 10.0 mph NW16.1 kmh NW -- 30.21 in1023.0 mb 0.00 in0.0 mm 0.00 in0.0 mm 0.00 in0.0 mm
07:43 AM 74.8°F23.8°C 38.6°F3.7°C 27% 7.0 mph NW11.3 kmh NW -- 30.23 in1023.7 mb 0.00 in0.0 mm 0.00 in0.0 mm 0.00 in0.0 mm
07:44 AM 74.8°F23.8°C 38.6°F3.7°C 27% 7.0 mph NNW11.3 kmh NNW -- 30.23 in1023.7 mb 0.00 in0.0 mm 0.00 in0.0 mm 0.00 in0.0 mm
07:45 AM 74.8°F23.8°C 38.6°F3.7°C 27% 6.0 mph NNW9.7 kmh NNW -- 30.23 in1023.7 mb 0.00 in0.0 mm 0.00 in0.0 mm 0.00 in0.0 mm
07:46 AM 75.0°F23.9°C 38.7°F3.7°C 27% 10.0 mph WNW16.1 kmh WNW -- 30.22 in1023.4 mb 0.00 in0.0 mm 0.00 in0.0 mm 0.00 in0.0 mm
07:47 AM 75.1°F23.9°C 38.7°F3.7°C 27% 8.0 mph NNW12.9 kmh NNW -- 30.22 in1023.4 mb 0.00 in0.0 mm 0.00 in0.0 mm 0.00 in0.0 mm
07:48 AM 75.1°F23.9°C 38.7°F3.7°C 27% 9.0 mph NNW14.5 kmh NNW -- 30.23 in1023.7 mb 0.00 in0.0 mm 0.00 in0.0 mm 0.00 in0.0 mm
07:49 AM 75.5°F24.2°C 39.2°F4.0°C 27% 9.0 mph NNW14.5 kmh NNW -- 30.23 in1023.7 mb 0.00 in0.0 mm 0.00 in0.0 mm 0.00 in0.0 mm
07:50 AM 75.5°F24.2°C 39.2°F4.0°C 27% 9.0 mph NNE14.5 kmh NNE -- 30.21 in1023.0 mb 0.00 in0.0 mm 0.00 in0.0 mm 0.00 in0.0 mm
07:51 AM 75.6°F24.2°C 39.2°F4.0°C 27% 11.0 mph NNW17.7 kmh NNW -- 30.21 in1023.0 mb 0.00 in0.0 mm 0.00 in0.0 mm 0.00 in0.0 mm
07:52 AM 75.6°F24.2°C 39.2°F4.0°C 27% 9.0 mph NNE14.5 kmh NNE -- 30.22 in1023.4 mb 0.00 in0.0 mm 0.00 in0.0 mm 0.00 in0.0 mm
07:53 AM 75.9°F24.4°C 37.6°F3.1°C 25% 12.0 mph 19.3 kmh -- 30.23 in1023.7 mb 0.00 in0.0 mm 0.00 in0.0 mm 0.00 in0.0 mm
07:54 AM 75.9°F24.4°C 37.6°F3.1°C 25% 8.0 mph NNE12.9 kmh NNE -- 30.23 in1023.7 mb 0.00 in0.0 mm 0.00 in0.0 mm 0.00 in0.0 mm
07:55 AM 76.0°F24.4°C 37.6°F3.1°C 25% 8.0 mph 12.9 kmh -- 30.22 in1023.4 mb 0.00 in0.0 mm 0.00 in0.0 mm 0.00 in0.0 mm
07:56 AM 76.0°F24.4°C 37.6°F3.1°C 25% 10.0 mph NNW16.1 kmh NNW -- 30.22 in1023.4 mb 0.00 in0.0 mm 0.00 in0.0 mm 0.00 in0.0 mm
07:57 AM 76.0°F24.4°C 37.6°F3.1°C 25% 9.0 mph NNW14.5 kmh NNW -- 30.23 in1023.7 mb 0.00 in0.0 mm 0.00 in0.0 mm 0.00 in0.0 mm
07:58 AM 76.4°F24.7°C 38.0°F3.3°C 25% 10.0 mph NNE16.1 kmh NNE -- 30.23 in1023.7 mb 0.00 in0.0 mm 0.00 in0.0 mm 0.00 in0.0 mm
07:59 AM 76.4°F24.7°C 38.0°F3.3°C 25% 8.0 mph NNE12.9 kmh NNE -- 30.22 in1023.4 mb 0.00 in0.0 mm 0.00 in0.0 mm 0.00 in0.0 mm
08:00 AM 76.5°F24.7°C 38.0°F3.3°C 25% 6.0 mph WNW9.7 kmh WNW -- 30.23 in1023.7 mb 0.00 in0.0 mm 0.00 in0.0 mm 0.00 in0.0 mm
08:01 AM 76.5°F24.7°C 38.0°F3.3°C 25% 6.0 mph 9.7 kmh -- 30.23 in1023.7 mb 0.00 in0.0 mm 0.00 in0.0 mm 0.00 in0.0 mm
08:02 AM 76.8°F24.9°C 38.3°F3.5°C 25% 7.0 mph NW11.3 kmh NW -- 30.22 in1023.4 mb 0.00 in0.0 mm 0.00 in0.0 mm 0.00 in0.0 mm
08:03 AM 77.1°F25.1°C 38.6°F3.7°C 25% 10.0 mph NNW16.1 kmh NNW -- 30.22 in1023.4 mb 0.00 in0.0 mm 0.00 in0.0 mm 0.00 in0.0 mm
08:04 AM 77.1°F25.1°C 38.6°F3.7°C 25% 8.0 mph NNW12.9 kmh NNW -- 30.23 in1023.7 mb 0.00 in0.0 mm 0.00 in0.0 mm 0.00 in0.0 mm
08:05 AM 77.4°F25.2°C 38.8°F3.8°C 25% 11.0 mph WNW17.7 kmh WNW -- 30.23 in1023.7 mb 0.00 in0.0 mm 0.00 in0.0 mm 0.00 in0.0 mm
08:06 AM 77.4°F25.2°C 38.8°F3.8°C 25% 7.0 mph WNW11.3 kmh WNW -- 30.23 in1023.7 mb 0.00 in0.0 mm 0.00 in0.0 mm 0.00 in0.0 mm
08:07 AM 77.4°F25.2°C 38.8°F3.8°C 25% 6.0 mph NNW9.7 kmh NNW -- 30.22 in1023.4 mb 0.00 in0.0 mm 0.00 in0.0 mm 0.00 in0.0 mm
08:08 AM 77.5°F25.3°C 38.9°F3.8°C 25% 8.0 mph NNW12.9 kmh NNW -- 30.22 in1023.4 mb 0.00 in0.0 mm 0.00 in0.0 mm 0.00 in0.0 mm
08:09 AM 77.5°F25.3°C 38.9°F3.8°C 25% 10.0 mph NW16.1 kmh NW -- 30.23 in1023.7 mb 0.00 in0.0 mm 0.00 in0.0 mm 0.00 in0.0 mm
08:10 AM 77.8°F25.4°C 39.1°F3.9°C 25% 11.0 mph 17.7 kmh -- 30.23 in1023.7 mb 0.00 in0.0 mm 0.00 in0.0 mm 0.00 in0.0 mm
08:11 AM 77.8°F25.4°C 39.1°F3.9°C 25% 10.0 mph 16.1 kmh -- 30.22 in1023.4 mb 0.00 in0.0 mm 0.00 in0.0 mm 0.00 in0.0 mm
08:12 AM 77.8°F25.4°C 39.1°F3.9°C 25% 11.0 mph 17.7 kmh -- 30.22 in1023.4 mb 0.00 in0.0 mm 0.00 in0.0 mm 0.00 in0.0 mm
08:13 AM 78.1°F25.6°C 39.4°F4.1°C 25% 9.0 mph 14.5 kmh -- 30.22 in1023.4 mb 0.00 in0.0 mm 0.00 in0.0 mm 0.00 in0.0 mm
08:14 AM 78.1°F25.6°C 39.4°F4.1°C 25% 11.0 mph NW17.7 kmh NW -- 30.22 in1023.4 mb 0.00 in0.0 mm 0.00 in0.0 mm 0.00 in0.0 mm
08:15 AM 78.3°F25.7°C 39.6°F4.2°C 25% 9.0 mph NNW14.5 kmh NNW -- 30.22 in1023.4 mb 0.00 in0.0 mm 0.00 in0.0 mm 0.00 in0.0 mm
08:16 AM 78.4°F25.8°C 39.7°F4.3°C 25% 8.0 mph NNW12.9 kmh NNW -- 30.22 in1023.4 mb 0.00 in0.0 mm 0.00 in0.0 mm 0.00 in0.0 mm
08:17 AM 78.4°F25.8°C 39.7°F4.3°C 25% 9.0 mph 14.5 kmh -- 30.23 in1023.7 mb 0.00 in0.0 mm 0.00 in0.0 mm 0.00 in0.0 mm
08:18 AM 78.4°F25.8°C 39.7°F4.3°C 25% 7.0 mph 11.3 kmh -- 30.22 in1023.4 mb 0.00 in0.0 mm 0.00 in0.0 mm 0.00 in0.0 mm
08:19 AM 78.8°F26.0°C 39.0°F3.9°C 24% 9.0 mph NNW14.5 kmh NNW -- 30.22 in1023.4 mb 0.00 in0.0 mm 0.00 in0.0 mm 0.00 in0.0 mm
08:20 AM 78.8°F26.0°C 40.0°F4.4°C 25% 6.0 mph NNW9.7 kmh NNW -- 30.22 in1023.4 mb 0.00 in0.0 mm 0.00 in0.0 mm 0.00 in0.0 mm
08:21 AM 78.8°F26.0°C 40.0°F4.4°C 25% 10.0 mph NNW16.1 kmh NNW -- 30.23 in1023.7 mb 0.00 in0.0 mm 0.00 in0.0 mm 0.00 in0.0 mm
08:22 AM 79.1°F26.2°C 39.3°F4.1°C 24% 11.0 mph 17.7 kmh -- 30.23 in1023.7 mb 0.00 in0.0 mm 0.00 in0.0 mm 0.00 in0.0 mm
08:23 AM 79.1°F26.2°C 39.3°F4.1°C 24% 10.0 mph NNW16.1 kmh NNW -- 30.22 in1023.4 mb 0.00 in0.0 mm 0.00 in0.0 mm 0.00 in0.0 mm
08:24 AM 79.1°F26.2°C 39.3°F4.1°C 24% 11.0 mph NW17.7 kmh NW -- 30.22 in1023.4 mb 0.00 in0.0 mm 0.00 in0.0 mm 0.00 in0.0 mm
08:25 AM 79.1°F26.2°C 39.3°F4.1°C 24% 6.0 mph NW9.7 kmh NW -- 30.23 in1023.7 mb 0.00 in0.0 mm 0.00 in0.0 mm 0.00 in0.0 mm
08:26 AM 79.1°F26.2°C 39.3°F4.1°C 24% 10.0 mph 16.1 kmh -- 30.23 in1023.7 mb 0.00 in0.0 mm 0.00 in0.0 mm 0.00 in0.0 mm
08:27 AM 79.4°F26.3°C 39.4°F4.1°C 24% 10.0 mph 16.1 kmh -- 30.24 in1024.0 mb 0.00 in0.0 mm 0.00 in0.0 mm 0.00 in0.0 mm
08:28 AM 79.4°F26.3°C 39.4°F4.1°C 24% 10.0 mph NNW16.1 kmh NNW -- 30.23 in1023.7 mb 0.00 in0.0 mm 0.00 in0.0 mm 0.00 in0.0 mm
08:29 AM 79.4°F26.3°C 39.4°F4.1°C 24% 8.0 mph NNW12.9 kmh NNW -- 30.23 in1023.7 mb 0.00 in0.0 mm 0.00 in0.0 mm 0.00 in0.0 mm
08:30 AM 79.6°F26.4°C 39.6°F4.2°C 24% 9.0 mph NNW14.5 kmh NNW -- 30.24 in1024.0 mb 0.00 in0.0 mm 0.00 in0.0 mm 0.00 in0.0 mm
08:31 AM 79.9°F26.6°C 39.9°F4.4°C 24% 10.0 mph NNW16.1 kmh NNW -- 30.23 in1023.7 mb 0.00 in0.0 mm 0.00 in0.0 mm 0.00 in0.0 mm
08:32 AM 79.9°F26.6°C 39.9°F4.4°C 24% 12.0 mph 19.3 kmh -- 30.22 in1023.4 mb 0.00 in0.0 mm 0.00 in0.0 mm 0.00 in0.0 mm
08:33 AM 80.1°F26.7°C 40.1°F4.5°C 24% 8.0 mph 12.9 kmh -- 30.22 in1023.4 mb 0.00 in0.0 mm 0.00 in0.0 mm 0.00 in0.0 mm
08:34 AM 80.1°F26.7°C 40.1°F4.5°C 24% 12.0 mph 19.3 kmh -- 30.23 in1023.7 mb 0.00 in0.0 mm 0.00 in0.0 mm 0.00 in0.0 mm
08:35 AM 80.1°F26.7°C 40.1°F4.5°C 24% 8.0 mph NW12.9 kmh NW -- 30.23 in1023.7 mb 0.00 in0.0 mm 0.00 in0.0 mm 0.00 in0.0 mm
08:36 AM 80.1°F26.7°C 40.1°F4.5°C 24% 11.0 mph 17.7 kmh -- 30.23 in1023.7 mb 0.00 in0.0 mm 0.00 in0.0 mm 0.00 in0.0 mm
08:37 AM 80.1°F26.7°C 40.1°F4.5°C 24% 9.0 mph NW14.5 kmh NW -- 30.23 in1023.7 mb 0.00 in0.0 mm 0.00 in0.0 mm 0.00 in0.0 mm
08:38 AM 80.1°F26.7°C 40.1°F4.5°C 24% 9.0 mph 14.5 kmh -- 30.23 in1023.7 mb 0.00 in0.0 mm 0.00 in0.0 mm 0.00 in0.0 mm
08:39 AM 80.1°F26.7°C 40.1°F4.5°C 24% 11.0 mph 17.7 kmh -- 30.22 in1023.4 mb 0.00 in0.0 mm 0.00 in0.0 mm 0.00 in0.0 mm
08:40 AM 80.1°F26.7°C 40.1°F4.5°C 24% 13.0 mph NNW20.9 kmh NNW -- 30.22 in1023.4 mb 0.00 in0.0 mm 0.00 in0.0 mm 0.00 in0.0 mm
08:41 AM 80.1°F26.7°C 40.1°F4.5°C 24% 9.0 mph 14.5 kmh -- 30.22 in1023.4 mb 0.00 in0.0 mm 0.00 in0.0 mm 0.00 in0.0 mm
08:42 AM 80.1°F26.7°C 41.1°F5.1°C 25% 9.0 mph NNW14.5 kmh NNW -- 30.23 in1023.7 mb 0.00 in0.0 mm 0.00 in0.0 mm 0.00 in0.0 mm
08:43 AM 80.3°F26.8°C 40.2°F4.6°C 24% 14.0 mph 22.5 kmh -- 30.23 in1023.7 mb 0.00 in0.0 mm 0.00 in0.0 mm 0.00 in0.0 mm
08:44 AM 80.3°F26.8°C 40.2°F4.6°C 24% 12.0 mph 19.3 kmh -- 30.22 in1023.4 mb 0.00 in0.0 mm 0.00 in0.0 mm 0.00 in0.0 mm
08:45 AM 80.3°F26.8°C 40.2°F4.6°C 24% 9.0 mph 14.5 kmh -- 30.22 in1023.4 mb 0.00 in0.0 mm 0.00 in0.0 mm 0.00 in0.0 mm
08:46 AM 80.5°F26.9°C 40.4°F4.7°C 24% 11.0 mph WNW17.7 kmh WNW -- 30.22 in1023.4 mb 0.00 in0.0 mm 0.00 in0.0 mm 0.00 in0.0 mm
08:47 AM 80.5°F26.9°C 40.4°F4.7°C 24% 9.0 mph 14.5 kmh -- 30.23 in1023.7 mb 0.00 in0.0 mm 0.00 in0.0 mm 0.00 in0.0 mm
08:48 AM 80.7°F27.1°C 40.7°F4.8°C 24% 10.0 mph NW16.1 kmh NW -- 30.23 in1023.7 mb 0.00 in0.0 mm 0.00 in0.0 mm 0.00 in0.0 mm
08:49 AM 80.7°F27.1°C 40.7°F4.8°C 24% 8.0 mph NW12.9 kmh NW -- 30.22 in1023.4 mb 0.00 in0.0 mm 0.00 in0.0 mm 0.00 in0.0 mm
08:50 AM 81.0°F27.2°C 40.8°F4.9°C 24% 10.0 mph NNW16.1 kmh NNW -- 30.22 in1023.4 mb 0.00 in0.0 mm 0.00 in0.0 mm 0.00 in0.0 mm
08:51 AM 81.0°F27.2°C 40.8°F4.9°C 24% 9.0 mph NNE14.5 kmh NNE -- 30.23 in1023.7 mb 0.00 in0.0 mm 0.00 in0.0 mm 0.00 in0.0 mm
08:52 AM 81.0°F27.2°C 40.8°F4.9°C 24% 10.0 mph W16.1 kmh W -- 30.23 in1023.7 mb 0.00 in0.0 mm 0.00 in0.0 mm 0.00 in0.0 mm
08:53 AM 81.0°F27.2°C 40.8°F4.9°C 24% 6.0 mph NNW9.7 kmh NNW -- 30.22 in1023.4 mb 0.00 in0.0 mm 0.00 in0.0 mm 0.00 in0.0 mm
08:54 AM 81.3°F27.4°C 41.1°F5.1°C 24% 11.0 mph NNE17.7 kmh NNE -- 30.22 in1023.4 mb 0.00 in0.0 mm 0.00 in0.0 mm 0.00 in0.0 mm
08:55 AM 81.3°F27.4°C 41.1°F5.1°C 24% 9.0 mph NNW14.5 kmh NNW -- 30.22 in1023.4 mb 0.00 in0.0 mm 0.00 in0.0 mm 0.00 in0.0 mm
08:56 AM 81.3°F27.4°C 41.1°F5.1°C 24% 7.0 mph NNE11.3 kmh NNE -- 30.23 in1023.7 mb 0.00 in0.0 mm 0.00 in0.0 mm 0.00 in0.0 mm
08:57 AM 81.3°F27.4°C 41.1°F5.1°C 24% 7.0 mph NNW11.3 kmh NNW -- 30.23 in1023.7 mb 0.00 in0.0 mm 0.00 in0.0 mm 0.00 in0.0 mm
08:58 AM 81.4°F27.4°C 41.1°F5.1°C 24% 8.0 mph NW12.9 kmh NW -- 30.22 in1023.4 mb 0.00 in0.0 mm 0.00 in0.0 mm 0.00 in0.0 mm
08:59 AM 81.7°F27.6°C 41.4°F5.2°C 24% 12.0 mph 19.3 kmh -- 30.22 in1023.4 mb 0.00 in0.0 mm 0.00 in0.0 mm 0.00 in0.0 mm
09:00 AM 81.7°F27.6°C 41.4°F5.2°C 24% 10.0 mph NNW16.1 kmh NNW -- 30.22 in1023.4 mb 0.00 in0.0 mm 0.00 in0.0 mm 0.00 in0.0 mm
09:01 AM 81.9°F27.7°C 41.6°F5.3°C 24% 11.0 mph NNW17.7 kmh NNW -- 30.22 in1023.4 mb 0.00 in0.0 mm 0.00 in0.0 mm 0.00 in0.0 mm
09:02 AM 81.9°F27.7°C 41.6°F5.3°C 24% 13.0 mph NW20.9 kmh NW -- 30.21 in1023.0 mb 0.00 in0.0 mm 0.00 in0.0 mm 0.00 in0.0 mm
09:03 AM 81.9°F27.7°C 39.4°F4.1°C 22% 11.0 mph NNW17.7 kmh NNW -- 30.22 in1023.4 mb 0.00 in0.0 mm 0.00 in0.0 mm 0.00 in0.0 mm
09:04 AM 81.9°F27.7°C 39.4°F4.1°C 22% 10.0 mph WNW16.1 kmh WNW -- 30.22 in1023.4 mb 0.00 in0.0 mm 0.00 in0.0 mm 0.00 in0.0 mm
09:05 AM 81.9°F27.7°C 39.4°F4.1°C 22% 8.0 mph NNW12.9 kmh NNW -- 30.22 in1023.4 mb 0.00 in0.0 mm 0.00 in0.0 mm 0.00 in0.0 mm
09:06 AM 81.9°F27.7°C 39.4°F4.1°C 22% 10.0 mph NNW16.1 kmh NNW -- 30.22 in1023.4 mb 0.00 in0.0 mm 0.00 in0.0 mm 0.00 in0.0 mm
09:07 AM 81.9°F27.7°C 39.4°F4.1°C 22% 8.0 mph NW12.9 kmh NW -- 30.23 in1023.7 mb 0.00 in0.0 mm 0.00 in0.0 mm 0.00 in0.0 mm
09:08 AM 82.1°F27.8°C 39.5°F4.2°C 22% 8.0 mph NNW12.9 kmh NNW -- 30.23 in1023.7 mb 0.00 in0.0 mm 0.00 in0.0 mm 0.00 in0.0 mm
09:09 AM 82.3°F27.9°C 39.7°F4.3°C 22% 8.0 mph NNW12.9 kmh NNW -- 30.23 in1023.7 mb 0.00 in0.0 mm 0.00 in0.0 mm 0.00 in0.0 mm
09:10 AM 82.6°F28.1°C 40.0°F4.4°C 22% 12.0 mph 19.3 kmh -- 30.23 in1023.7 mb 0.00 in0.0 mm 0.00 in0.0 mm 0.00 in0.0 mm
09:11 AM 82.6°F28.1°C 40.0°F4.4°C 22% 11.0 mph 17.7 kmh -- 30.22 in1023.4 mb 0.00 in0.0 mm 0.00 in0.0 mm 0.00 in0.0 mm
09:12 AM 82.3°F27.9°C 39.7°F4.3°C 22% 14.0 mph NW22.5 kmh NW -- 30.23 in1023.7 mb 0.00 in0.0 mm 0.00 in0.0 mm 0.00 in0.0 mm
09:13 AM 82.3°F27.9°C 39.7°F4.3°C 22% 11.0 mph ENE17.7 kmh ENE -- 30.24 in1024.0 mb 0.00 in0.0 mm 0.00 in0.0 mm 0.00 in0.0 mm
09:14 AM 82.3°F27.9°C 39.7°F4.3°C 22% 12.0 mph 19.3 kmh -- 30.22 in1023.4 mb 0.00 in0.0 mm 0.00 in0.0 mm 0.00 in0.0 mm
09:15 AM 82.3°F27.9°C 39.7°F4.3°C 22% 11.0 mph NNW17.7 kmh NNW -- 30.22 in1023.4 mb 0.00 in0.0 mm 0.00 in0.0 mm 0.00 in0.0 mm
09:16 AM 82.6°F28.1°C 40.0°F4.4°C 22% 9.0 mph NW14.5 kmh NW -- 30.22 in1023.4 mb 0.00 in0.0 mm 0.00 in0.0 mm 0.00 in0.0 mm
09:17 AM 82.8°F28.2°C 40.1°F4.5°C 22% 11.0 mph NNW17.7 kmh NNW -- 30.24 in1024.0 mb 0.00 in0.0 mm 0.00 in0.0 mm 0.00 in0.0 mm
09:18 AM 82.8°F28.2°C 40.1°F4.5°C 22% 10.0 mph NNE16.1 kmh NNE -- 30.24 in1024.0 mb 0.00 in0.0 mm 0.00 in0.0 mm 0.00 in0.0 mm
09:19 AM 82.8°F28.2°C 40.1°F4.5°C 22% 9.0 mph NW14.5 kmh NW -- 30.22 in1023.4 mb 0.00 in0.0 mm 0.00 in0.0 mm 0.00 in0.0 mm
09:20 AM 82.8°F28.2°C 40.1°F4.5°C 22% 10.0 mph NNE16.1 kmh NNE -- 30.22 in1023.4 mb 0.00 in0.0 mm 0.00 in0.0 mm 0.00 in0.0 mm
09:21 AM 82.8°F28.2°C 40.1°F4.5°C 22% 12.0 mph NNW19.3 kmh NNW -- 30.22 in1023.4 mb 0.00 in0.0 mm 0.00 in0.0 mm 0.00 in0.0 mm
09:22 AM 82.8°F28.2°C 40.1°F4.5°C 22% 9.0 mph NNW14.5 kmh NNW -- 30.24 in1024.0 mb 0.00 in0.0 mm 0.00 in0.0 mm 0.00 in0.0 mm
09:23 AM 82.8°F28.2°C 40.1°F4.5°C 22% 12.0 mph 19.3 kmh -- 30.23 in1023.7 mb 0.00 in0.0 mm 0.00 in0.0 mm 0.00 in0.0 mm
09:24 AM 82.8°F28.2°C 40.1°F4.5°C 22% 13.0 mph NNW20.9 kmh NNW -- 30.23 in1023.7 mb 0.00 in0.0 mm 0.00 in0.0 mm 0.00 in0.0 mm
09:25 AM 82.8°F28.2°C 40.1°F4.5°C 22% 13.0 mph NW20.9 kmh NW -- 30.23 in1023.7 mb 0.00 in0.0 mm 0.00 in0.0 mm 0.00 in0.0 mm
09:26 AM 82.8°F28.2°C 40.1°F4.5°C 22% 7.0 mph WNW11.3 kmh WNW -- 30.24 in1024.0 mb 0.00 in0.0 mm 0.00 in0.0 mm 0.00 in0.0 mm
09:27 AM 82.8°F28.2°C 40.1°F4.5°C 22% 14.0 mph NW22.5 kmh NW -- 30.23 in1023.7 mb 0.00 in0.0 mm 0.00 in0.0 mm 0.00 in0.0 mm
09:28 AM 83.0°F28.3°C 40.3°F4.6°C 22% 13.0 mph NNE20.9 kmh NNE -- 30.23 in1023.7 mb 0.00 in0.0 mm 0.00 in0.0 mm 0.00 in0.0 mm
09:29 AM 83.0°F28.3°C 40.3°F4.6°C 22% 9.0 mph NNW14.5 kmh NNW -- 30.23 in1023.7 mb 0.00 in0.0 mm 0.00 in0.0 mm 0.00 in0.0 mm
09:30 AM 83.2°F28.4°C 40.4°F4.7°C 22% 12.0 mph NW19.3 kmh NW -- 30.24 in1024.0 mb 0.00 in0.0 mm 0.00 in0.0 mm 0.00 in0.0 mm
09:31 AM 83.2°F28.4°C 40.4°F4.7°C 22% 10.0 mph NNW16.1 kmh NNW -- 30.22 in1023.4 mb 0.00 in0.0 mm 0.00 in0.0 mm 0.00 in0.0 mm
09:32 AM 83.2°F28.4°C 40.4°F4.7°C 22% 10.0 mph NW16.1 kmh NW -- 30.22 in1023.4 mb 0.00 in0.0 mm 0.00 in0.0 mm 0.00 in0.0 mm
09:33 AM 83.6°F28.7°C 40.9°F4.9°C 22% 10.0 mph NNW16.1 kmh NNW -- 30.24 in1024.0 mb 0.00 in0.0 mm 0.00 in0.0 mm 0.00 in0.0 mm
09:34 AM 83.6°F28.7°C 40.9°F4.9°C 22% 15.0 mph NNW24.1 kmh NNW -- 30.24 in1024.0 mb 0.00 in0.0 mm 0.00 in0.0 mm 0.00 in0.0 mm
09:35 AM 83.6°F28.7°C 40.9°F4.9°C 22% 16.0 mph NNW25.7 kmh NNW -- 30.24 in1024.0 mb 0.00 in0.0 mm 0.00 in0.0 mm 0.00 in0.0 mm
09:36 AM 83.5°F28.6°C 40.7°F4.8°C 22% 16.0 mph NNW25.7 kmh NNW -- 30.23 in1023.7 mb 0.00 in0.0 mm 0.00 in0.0 mm 0.00 in0.0 mm
09:37 AM 83.5°F28.6°C 40.7°F4.8°C 22% 11.0 mph 17.7 kmh -- 30.22 in1023.4 mb 0.00 in0.0 mm 0.00 in0.0 mm 0.00 in0.0 mm
09:38 AM 83.5°F28.6°C 40.7°F4.8°C 22% 8.0 mph NW12.9 kmh NW -- 30.23 in1023.7 mb 0.00 in0.0 mm 0.00 in0.0 mm 0.00 in0.0 mm
09:39 AM 83.6°F28.7°C 40.9°F4.9°C 22% 12.0 mph NW19.3 kmh NW -- 30.23 in1023.7 mb 0.00 in0.0 mm 0.00 in0.0 mm 0.00 in0.0 mm
09:40 AM 83.5°F28.6°C 40.7°F4.8°C 22% 10.0 mph 16.1 kmh -- 30.23 in1023.7 mb 0.00 in0.0 mm 0.00 in0.0 mm 0.00 in0.0 mm
09:41 AM 83.6°F28.7°C 40.9°F4.9°C 22% 12.0 mph NE19.3 kmh NE -- 30.23 in1023.7 mb 0.00 in0.0 mm 0.00 in0.0 mm 0.00 in0.0 mm
09:42 AM 83.8°F28.8°C 41.0°F5.0°C 22% 9.0 mph NW14.5 kmh NW -- 30.23 in1023.7 mb 0.00 in0.0 mm 0.00 in0.0 mm 0.00 in0.0 mm
09:43 AM 83.9°F28.8°C 41.0°F5.0°C 22% 8.0 mph 12.9 kmh -- 30.23 in1023.7 mb 0.00 in0.0 mm 0.00 in0.0 mm 0.00 in0.0 mm
09:44 AM 83.9°F28.8°C 41.0°F5.0°C 22% 6.0 mph W9.7 kmh W -- 30.22 in1023.4 mb 0.00 in0.0 mm 0.00 in0.0 mm 0.00 in0.0 mm
09:45 AM 84.6°F29.2°C 41.6°F5.3°C 22% 11.0 mph NNE17.7 kmh NNE -- 30.23 in1023.7 mb 0.00 in0.0 mm 0.00 in0.0 mm 0.00 in0.0 mm
09:46 AM 84.6°F29.2°C 41.6°F5.3°C 22% 11.0 mph NNW17.7 kmh NNW -- 30.23 in1023.7 mb 0.00 in0.0 mm 0.00 in0.0 mm 0.00 in0.0 mm
09:47 AM 84.4°F29.1°C 41.5°F5.3°C 22% 13.0 mph NNW20.9 kmh NNW -- 30.24 in1024.0 mb 0.00 in0.0 mm 0.00 in0.0 mm 0.00 in0.0 mm
09:48 AM 84.2°F29.0°C 41.3°F5.2°C 22% 11.0 mph WNW17.7 kmh WNW -- 30.23 in1023.7 mb 0.00 in0.0 mm 0.00 in0.0 mm 0.00 in0.0 mm
09:49 AM 84.2°F29.0°C 41.3°F5.2°C 22% 8.0 mph WNW12.9 kmh WNW -- 30.23 in1023.7 mb 0.00 in0.0 mm 0.00 in0.0 mm 0.00 in0.0 mm
09:50 AM 84.6°F29.2°C 41.6°F5.3°C 22% 11.0 mph NNW17.7 kmh NNW -- 30.24 in1024.0 mb 0.00 in0.0 mm 0.00 in0.0 mm 0.00 in0.0 mm
09:51 AM 84.6°F29.2°C 41.6°F5.3°C 22% 9.0 mph WNW14.5 kmh WNW -- 30.24 in1024.0 mb 0.00 in0.0 mm 0.00 in0.0 mm 0.00 in0.0 mm
09:52 AM 84.6°F29.2°C 41.6°F5.3°C 22% 7.0 mph 11.3 kmh -- 30.23 in1023.7 mb 0.00 in0.0 mm 0.00 in0.0 mm 0.00 in0.0 mm
09:53 AM 84.6°F29.2°C 41.6°F5.3°C 22% 11.0 mph NNW17.7 kmh NNW -- 30.23 in1023.7 mb 0.00 in0.0 mm 0.00 in0.0 mm 0.00 in0.0 mm
09:54 AM 84.8°F29.3°C 41.8°F5.4°C 22% 15.0 mph 24.1 kmh -- 30.23 in1023.7 mb 0.00 in0.0 mm 0.00 in0.0 mm 0.00 in0.0 mm
09:55 AM 84.8°F29.3°C 41.8°F5.4°C 22% 13.0 mph 20.9 kmh -- 30.24 in1024.0 mb 0.00 in0.0 mm 0.00 in0.0 mm 0.00 in0.0 mm
09:56 AM 84.8°F29.3°C 41.8°F5.4°C 22% 7.0 mph NNE11.3 kmh NNE -- 30.24 in1024.0 mb 0.00 in0.0 mm 0.00 in0.0 mm 0.00 in0.0 mm
09:57 AM 84.8°F29.3°C 41.8°F5.4°C 22% 10.0 mph 16.1 kmh -- 30.23 in1023.7 mb 0.00 in0.0 mm 0.00 in0.0 mm 0.00 in0.0 mm
09:58 AM 84.8°F29.3°C 41.8°F5.4°C 22% 12.0 mph 19.3 kmh -- 30.23 in1023.7 mb 0.00 in0.0 mm 0.00 in0.0 mm 0.00 in0.0 mm
09:59 AM 84.8°F29.3°C 41.8°F5.4°C 22% 8.0 mph 12.9 kmh -- 30.24 in1024.0 mb 0.00 in0.0 mm 0.00 in0.0 mm 0.00 in0.0 mm
10:00 AM 84.8°F29.3°C 41.8°F5.4°C 22% 11.0 mph 17.7 kmh -- 30.24 in1024.0 mb 0.00 in0.0 mm 0.00 in0.0 mm 0.00 in0.0 mm
10:01 AM 84.8°F29.3°C 41.8°F5.4°C 22% 13.0 mph NNW20.9 kmh NNW -- 30.25 in1024.4 mb 0.00 in0.0 mm 0.00 in0.0 mm 0.00 in0.0 mm
10:02 AM 84.8°F29.3°C 41.8°F5.4°C 22% 11.0 mph 17.7 kmh -- 30.24 in1024.0 mb 0.00 in0.0 mm 0.00 in0.0 mm 0.00 in0.0 mm
10:03 AM 84.6°F29.2°C 41.6°F5.3°C 22% 11.0 mph NNW17.7 kmh NNW -- 30.24 in1024.0 mb 0.00 in0.0 mm 0.00 in0.0 mm 0.00 in0.0 mm
10:04 AM 84.4°F29.1°C 41.5°F5.3°C 22% 15.0 mph NNE24.1 kmh NNE -- 30.24 in1024.0 mb 0.00 in0.0 mm 0.00 in0.0 mm 0.00 in0.0 mm
10:05 AM 83.8°F28.8°C 41.0°F5.0°C 22% 9.0 mph 14.5 kmh -- 30.23 in1023.7 mb 0.00 in0.0 mm 0.00 in0.0 mm 0.00 in0.0 mm
10:06 AM 83.9°F28.8°C 41.0°F5.0°C 22% 15.0 mph 24.1 kmh -- 30.24 in1024.0 mb 0.00 in0.0 mm 0.00 in0.0 mm 0.00 in0.0 mm
10:07 AM 84.2°F29.0°C 41.3°F5.2°C 22% 9.0 mph NNW14.5 kmh NNW -- 30.24 in1024.0 mb 0.00 in0.0 mm 0.00 in0.0 mm 0.00 in0.0 mm
10:08 AM 84.6°F29.2°C 41.6°F5.3°C 22% 6.0 mph 9.7 kmh -- 30.24 in1024.0 mb 0.00 in0.0 mm 0.00 in0.0 mm 0.00 in0.0 mm
10:09 AM 84.6°F29.2°C 41.6°F5.3°C 22% 7.0 mph NW11.3 kmh NW -- 30.23 in1023.7 mb 0.00 in0.0 mm 0.00 in0.0 mm 0.00 in0.0 mm
10:10 AM 85.3°F29.6°C 42.2°F5.7°C 22% 10.0 mph NNW16.1 kmh NNW -- 30.23 in1023.7 mb 0.00 in0.0 mm 0.00 in0.0 mm 0.00 in0.0 mm
10:11 AM 85.3°F29.6°C 42.2°F5.7°C 22% 15.0 mph NW24.1 kmh NW -- 30.25 in1024.4 mb 0.00 in0.0 mm 0.00 in0.0 mm 0.00 in0.0 mm
10:12 AM 84.6°F29.2°C 41.6°F5.3°C 22% 8.0 mph 12.9 kmh -- 30.24 in1024.0 mb 0.00 in0.0 mm 0.00 in0.0 mm 0.00 in0.0 mm
10:13 AM 84.2°F29.0°C 41.3°F5.2°C 22% 11.0 mph NNW17.7 kmh NNW -- 30.23 in1023.7 mb 0.00 in0.0 mm 0.00 in0.0 mm 0.00 in0.0 mm
10:14 AM 83.9°F28.8°C 41.0°F5.0°C 22% 11.0 mph NNW17.7 kmh NNW -- 30.23 in1023.7 mb 0.00 in0.0 mm 0.00 in0.0 mm 0.00 in0.0 mm
10:15 AM 83.9°F28.8°C 41.0°F5.0°C 22% 9.0 mph NNW14.5 kmh NNW -- 30.23 in1023.7 mb 0.00 in0.0 mm 0.00 in0.0 mm 0.00 in0.0 mm
10:16 AM 83.9°F28.8°C 41.0°F5.0°C 22% 12.0 mph NNW19.3 kmh NNW -- 30.24 in1024.0 mb 0.00 in0.0 mm 0.00 in0.0 mm 0.00 in0.0 mm
10:17 AM 84.2°F29.0°C 41.3°F5.2°C 22% 11.0 mph NNW17.7 kmh NNW -- 30.24 in1024.0 mb 0.00 in0.0 mm 0.00 in0.0 mm 0.00 in0.0 mm
10:18 AM 84.4°F29.1°C 41.5°F5.3°C 22% 10.0 mph NNW16.1 kmh NNW -- 30.23 in1023.7 mb 0.00 in0.0 mm 0.00 in0.0 mm 0.00 in0.0 mm
10:19 AM 84.6°F29.2°C 41.6°F5.3°C 22% 7.0 mph NNW11.3 kmh NNW -- 30.23 in1023.7 mb 0.00 in0.0 mm 0.00 in0.0 mm 0.00 in0.0 mm
10:20 AM 85.1°F29.5°C 42.1°F5.6°C 22% 10.0 mph NNE16.1 kmh NNE -- 30.23 in1023.7 mb 0.00 in0.0 mm 0.00 in0.0 mm 0.00 in0.0 mm
10:21 AM 85.1°F29.5°C 42.1°F5.6°C 22% 6.0 mph NNE9.7 kmh NNE -- 30.23 in1023.7 mb 0.00 in0.0 mm 0.00 in0.0 mm 0.00 in0.0 mm
10:22 AM 84.6°F29.2°C 41.6°F5.3°C 22% 11.0 mph NNE17.7 kmh NNE -- 30.23 in1023.7 mb 0.00 in0.0 mm 0.00 in0.0 mm 0.00 in0.0 mm
10:23 AM 84.6°F29.2°C 41.6°F5.3°C 22% 11.0 mph NNW17.7 kmh NNW -- 30.24 in1024.0 mb 0.00 in0.0 mm 0.00 in0.0 mm 0.00 in0.0 mm
10:24 AM 84.2°F29.0°C 41.3°F5.2°C 22% 10.0 mph NNW16.1 kmh NNW -- 30.24 in1024.0 mb 0.00 in0.0 mm 0.00 in0.0 mm 0.00 in0.0 mm
10:25 AM 83.8°F28.8°C 43.3°F6.3°C 24% 9.0 mph NNW14.5 kmh NNW -- 30.23 in1023.7 mb 0.00 in0.0 mm 0.00 in0.0 mm 0.00 in0.0 mm
10:26 AM 83.6°F28.7°C 43.1°F6.2°C 24% 6.0 mph NNW9.7 kmh NNW -- 30.23 in1023.7 mb 0.00 in0.0 mm 0.00 in0.0 mm 0.00 in0.0 mm
10:27 AM 83.5°F28.6°C 43.0°F6.1°C 24% 10.0 mph NNW16.1 kmh NNW -- 30.25 in1024.4 mb 0.00 in0.0 mm 0.00 in0.0 mm 0.00 in0.0 mm
10:28 AM 83.5°F28.6°C 43.0°F6.1°C 24% 10.0 mph NNE16.1 kmh NNE -- 30.25 in1024.4 mb 0.00 in0.0 mm 0.00 in0.0 mm 0.00 in0.0 mm
10:29 AM 83.0°F28.3°C 42.5°F5.8°C 24% 8.0 mph NNW12.9 kmh NNW -- 30.24 in1024.0 mb 0.00 in0.0 mm 0.00 in0.0 mm 0.00 in0.0 mm
10:30 AM 82.8°F28.2°C 42.4°F5.8°C 24% 8.0 mph NNW12.9 kmh NNW -- 30.23 in1023.7 mb 0.00 in0.0 mm 0.00 in0.0 mm 0.00 in0.0 mm
10:31 AM 82.8°F28.2°C 42.4°F5.8°C 24% 11.0 mph NW17.7 kmh NW -- 30.23 in1023.7 mb 0.00 in0.0 mm 0.00 in0.0 mm 0.00 in0.0 mm
10:32 AM 83.6°F28.7°C 43.1°F6.2°C 24% 6.0 mph NNE9.7 kmh NNE -- 30.25 in1024.4 mb 0.00 in0.0 mm 0.00 in0.0 mm 0.00 in0.0 mm
10:33 AM 84.2°F29.0°C 43.6°F6.4°C 24% 8.0 mph 12.9 kmh -- 30.24 in1024.0 mb 0.00 in0.0 mm 0.00 in0.0 mm 0.00 in0.0 mm
10:34 AM 84.6°F29.2°C 43.9°F6.6°C 24% 4.0 mph W6.4 kmh W -- 30.24 in1024.0 mb 0.00 in0.0 mm 0.00 in0.0 mm 0.00 in0.0 mm
10:35 AM 85.5°F29.7°C 44.7°F7.1°C 24% 7.0 mph NNW11.3 kmh NNW -- 30.24 in1024.0 mb 0.00 in0.0 mm 0.00 in0.0 mm 0.00 in0.0 mm
10:36 AM 86.1°F30.1°C 45.3°F7.4°C 24% 5.0 mph W8.0 kmh W -- 30.24 in1024.0 mb 0.00 in0.0 mm 0.00 in0.0 mm 0.00 in0.0 mm
10:37 AM 86.4°F30.2°C 45.4°F7.4°C 24% 6.0 mph NNE9.7 kmh NNE -- 30.25 in1024.4 mb 0.00 in0.0 mm 0.00 in0.0 mm 0.00 in0.0 mm
10:38 AM 86.9°F30.5°C 43.6°F6.4°C 22% 10.0 mph NNE16.1 kmh NNE -- 30.25 in1024.4 mb 0.00 in0.0 mm 0.00 in0.0 mm 0.00 in0.0 mm
10:39 AM 86.7°F30.4°C 43.5°F6.4°C 22% 11.0 mph NNW17.7 kmh NNW -- 30.24 in1024.0 mb 0.00 in0.0 mm 0.00 in0.0 mm 0.00 in0.0 mm
10:40 AM 86.7°F30.4°C 43.5°F6.4°C 22% 8.0 mph NNW12.9 kmh NNW -- 30.24 in1024.0 mb 0.00 in0.0 mm 0.00 in0.0 mm 0.00 in0.0 mm
10:41 AM 86.9°F30.5°C 43.6°F6.4°C 22% 9.0 mph NW14.5 kmh NW -- 30.25 in1024.4 mb 0.00 in0.0 mm 0.00 in0.0 mm 0.00 in0.0 mm
10:42 AM 87.1°F30.6°C 43.8°F6.6°C 22% 13.0 mph NNW20.9 kmh NNW -- 30.25 in1024.4 mb 0.00 in0.0 mm 0.00 in0.0 mm 0.00 in0.0 mm
10:43 AM 87.1°F30.6°C 43.8°F6.6°C 22% 9.0 mph NNW14.5 kmh NNW -- 30.25 in1024.4 mb 0.00 in0.0 mm 0.00 in0.0 mm 0.00 in0.0 mm
10:44 AM 87.3°F30.7°C 43.9°F6.6°C 22% 7.0 mph NNW11.3 kmh NNW -- 30.24 in1024.0 mb 0.00 in0.0 mm 0.00 in0.0 mm 0.00 in0.0 mm
10:45 AM 87.3°F30.7°C 43.9°F6.6°C 22% 4.0 mph NW6.4 kmh NW -- 30.24 in1024.0 mb 0.00 in0.0 mm 0.00 in0.0 mm 0.00 in0.0 mm
10:46 AM 87.6°F30.9°C 44.2°F6.8°C 22% 6.0 mph NW9.7 kmh NW -- 30.25 in1024.4 mb 0.00 in0.0 mm 0.00 in0.0 mm 0.00 in0.0 mm
10:47 AM 87.6°F30.9°C 44.2°F6.8°C 22% 11.0 mph NNW17.7 kmh NNW -- 30.25 in1024.4 mb 0.00 in0.0 mm 0.00 in0.0 mm 0.00 in0.0 mm
10:48 AM 87.3°F30.7°C 43.9°F6.6°C 22% 9.0 mph 14.5 kmh -- 30.25 in1024.4 mb 0.00 in0.0 mm 0.00 in0.0 mm 0.00 in0.0 mm
10:49 AM 86.9°F30.5°C 43.6°F6.4°C 22% 10.0 mph 16.1 kmh -- 30.25 in1024.4 mb 0.00 in0.0 mm 0.00 in0.0 mm 0.00 in0.0 mm
10:50 AM 86.4°F30.2°C 43.2°F6.2°C 22% 11.0 mph NNW17.7 kmh NNW -- 30.24 in1024.0 mb 0.00 in0.0 mm 0.00 in0.0 mm 0.00 in0.0 mm
10:51 AM 86.4°F30.2°C 43.2°F6.2°C 22% 8.0 mph NNW12.9 kmh NNW -- 30.24 in1024.0 mb 0.00 in0.0 mm 0.00 in0.0 mm 0.00 in0.0 mm
10:52 AM 86.1°F30.1°C 43.0°F6.1°C 22% 9.0 mph NNW14.5 kmh NNW -- 30.24 in1024.0 mb 0.00 in0.0 mm 0.00 in0.0 mm 0.00 in0.0 mm
10:53 AM 86.0°F30.0°C 42.9°F6.1°C 22% 12.0 mph NNW19.3 kmh NNW -- 30.24 in1024.0 mb 0.00 in0.0 mm 0.00 in0.0 mm 0.00 in0.0 mm
10:54 AM 85.7°F29.8°C 42.6°F5.9°C 22% 9.0 mph 14.5 kmh -- 30.24 in1024.0 mb 0.00 in0.0 mm 0.00 in0.0 mm 0.00 in0.0 mm
10:55 AM 86.1°F30.1°C 43.0°F6.1°C 22% 9.0 mph NW14.5 kmh NW -- 30.24 in1024.0 mb 0.00 in0.0 mm 0.00 in0.0 mm 0.00 in0.0 mm
10:56 AM 86.4°F30.2°C 43.2°F6.2°C 22% 9.0 mph NW14.5 kmh NW -- 30.25 in1024.4 mb 0.00 in0.0 mm 0.00 in0.0 mm 0.00 in0.0 mm
10:57 AM 86.7°F30.4°C 43.5°F6.4°C 22% 12.0 mph NNW19.3 kmh NNW -- 30.25 in1024.4 mb 0.00 in0.0 mm 0.00 in0.0 mm 0.00 in0.0 mm
10:58 AM 86.7°F30.4°C 43.5°F6.4°C 22% 8.0 mph 12.9 kmh -- 30.25 in1024.4 mb 0.00 in0.0 mm 0.00 in0.0 mm 0.00 in0.0 mm
10:59 AM 86.7°F30.4°C 43.5°F6.4°C 22% 5.0 mph NNE8.0 kmh NNE -- 30.25 in1024.4 mb 0.00 in0.0 mm 0.00 in0.0 mm 0.00 in0.0 mm
11:00 AM 86.9°F30.5°C 43.6°F6.4°C 22% 9.0 mph NNE14.5 kmh NNE -- 30.25 in1024.4 mb 0.00 in0.0 mm 0.00 in0.0 mm 0.00 in0.0 mm
11:01 AM 87.1°F30.6°C 43.8°F6.6°C 22% 7.0 mph NE11.3 kmh NE -- 30.25 in1024.4 mb 0.00 in0.0 mm 0.00 in0.0 mm 0.00 in0.0 mm
11:02 AM 87.3°F30.7°C 43.9°F6.6°C 22% 7.0 mph NNW11.3 kmh NNW -- 30.25 in1024.4 mb 0.00 in0.0 mm 0.00 in0.0 mm 0.00 in0.0 mm
11:03 AM 87.3°F30.7°C 43.9°F6.6°C 22% 9.0 mph NNE14.5 kmh NNE -- 30.25 in1024.4 mb 0.00 in0.0 mm 0.00 in0.0 mm 0.00 in0.0 mm
11:04 AM 87.6°F30.9°C 44.2°F6.8°C 22% 7.0 mph NNW11.3 kmh NNW -- 30.25 in1024.4 mb 0.00 in0.0 mm 0.00 in0.0 mm 0.00 in0.0 mm
11:05 AM 88.1°F31.2°C 44.7°F7.1°C 22% 10.0 mph NNW16.1 kmh NNW -- 30.25 in1024.4 mb 0.00 in0.0 mm 0.00 in0.0 mm 0.00 in0.0 mm
11:06 AM 88.1°F31.2°C 42.2°F5.7°C 20% 4.0 mph 6.4 kmh -- 30.25 in1024.4 mb 0.00 in0.0 mm 0.00 in0.0 mm 0.00 in0.0 mm
11:07 AM 88.0°F31.1°C 44.5°F6.9°C 22% 7.0 mph NNE11.3 kmh NNE -- 30.25 in1024.4 mb 0.00 in0.0 mm 0.00 in0.0 mm 0.00 in0.0 mm
11:08 AM 88.2°F31.2°C 44.7°F7.1°C 22% 5.0 mph NNE8.0 kmh NNE -- 30.24 in1024.0 mb 0.00 in0.0 mm 0.00 in0.0 mm 0.00 in0.0 mm
11:09 AM 88.9°F31.6°C 45.3°F7.4°C 22% 4.0 mph E6.4 kmh E -- 30.24 in1024.0 mb 0.00 in0.0 mm 0.00 in0.0 mm 0.00 in0.0 mm
11:10 AM 89.4°F31.9°C 45.7°F7.6°C 22% 7.0 mph NNE11.3 kmh NNE -- 30.25 in1024.4 mb 0.00 in0.0 mm 0.00 in0.0 mm 0.00 in0.0 mm
11:11 AM 89.4°F31.9°C 43.3°F6.3°C 20% 7.0 mph NNE11.3 kmh NNE -- 30.25 in1024.4 mb 0.00 in0.0 mm 0.00 in0.0 mm 0.00 in0.0 mm
11:12 AM 89.4°F31.9°C 43.3°F6.3°C 20% 8.0 mph NW12.9 kmh NW -- 30.25 in1024.4 mb 0.00 in0.0 mm 0.00 in0.0 mm 0.00 in0.0 mm
11:13 AM 89.4°F31.9°C 43.3°F6.3°C 20% 7.0 mph 11.3 kmh -- 30.25 in1024.4 mb 0.00 in0.0 mm 0.00 in0.0 mm 0.00 in0.0 mm
11:14 AM 89.0°F31.7°C 43.0°F6.1°C 20% 6.0 mph NNE9.7 kmh NNE -- 30.25 in1024.4 mb 0.00 in0.0 mm 0.00 in0.0 mm 0.00 in0.0 mm
11:15 AM 88.9°F31.6°C 42.8°F6.0°C 20% 7.0 mph 11.3 kmh -- 30.26 in1024.7 mb 0.00 in0.0 mm 0.00 in0.0 mm 0.00 in0.0 mm
11:16 AM 89.0°F31.7°C 43.0°F6.1°C 20% 6.0 mph NNW9.7 kmh NNW -- 30.26 in1024.7 mb 0.00 in0.0 mm 0.00 in0.0 mm 0.00 in0.0 mm
11:17 AM 89.0°F31.7°C 43.0°F6.1°C 20% 5.0 mph NNW8.0 kmh NNW -- 30.25 in1024.4 mb 0.00 in0.0 mm 0.00 in0.0 mm 0.00 in0.0 mm
11:18 AM 89.0°F31.7°C 43.0°F6.1°C 20% 3.0 mph 4.8 kmh -- 30.25 in1024.4 mb 0.00 in0.0 mm 0.00 in0.0 mm 0.00 in0.0 mm
11:19 AM 88.9°F31.6°C 42.8°F6.0°C 20% 3.0 mph ENE4.8 kmh ENE -- 30.25 in1024.4 mb 0.00 in0.0 mm 0.00 in0.0 mm 0.00 in0.0 mm
11:20 AM 88.9°F31.6°C 42.8°F6.0°C 20% 7.0 mph ESE11.3 kmh ESE -- 30.25 in1024.4 mb 0.00 in0.0 mm 0.00 in0.0 mm 0.00 in0.0 mm
11:21 AM 90.0°F32.2°C 46.2°F7.9°C 22% 7.0 mph NNE11.3 kmh NNE -- 30.25 in1024.4 mb 0.00 in0.0 mm 0.00 in0.0 mm 0.00 in0.0 mm
11:22 AM 90.1°F32.3°C 43.9°F6.6°C 20% 10.0 mph NNW16.1 kmh NNW -- 30.25 in1024.4 mb 0.00 in0.0 mm 0.00 in0.0 mm 0.00 in0.0 mm
11:23 AM 89.6°F32.0°C 43.4°F6.3°C 20% 4.0 mph NNE6.4 kmh NNE -- 30.25 in1024.4 mb 0.00 in0.0 mm 0.00 in0.0 mm 0.00 in0.0 mm
11:24 AM 89.6°F32.0°C 45.9°F7.7°C 22% 8.0 mph NNE12.9 kmh NNE -- 30.25 in1024.4 mb 0.00 in0.0 mm 0.00 in0.0 mm 0.00 in0.0 mm
11:25 AM 89.8°F32.1°C 46.1°F7.8°C 22% 7.0 mph ESE11.3 kmh ESE -- 30.25 in1024.4 mb 0.00 in0.0 mm 0.00 in0.0 mm 0.00 in0.0 mm
11:26 AM 90.1°F32.3°C 46.4°F8.0°C 22% 6.0 mph E9.7 kmh E -- 30.25 in1024.4 mb 0.00 in0.0 mm 0.00 in0.0 mm 0.00 in0.0 mm
11:27 AM 90.0°F32.2°C 46.2°F7.9°C 22% 7.0 mph NE11.3 kmh NE -- 30.25 in1024.4 mb 0.00 in0.0 mm 0.00 in0.0 mm 0.00 in0.0 mm
11:29 AM 90.1°F32.3°C 43.9°F6.6°C 20% 6.0 mph E9.7 kmh E -- 30.25 in1024.4 mb 0.00 in0.0 mm 0.00 in0.0 mm 0.00 in0.0 mm
11:30 AM 89.8°F32.1°C 43.6°F6.4°C 20% 5.0 mph NE8.0 kmh NE -- 30.25 in1024.4 mb 0.00 in0.0 mm 0.00 in0.0 mm 0.00 in0.0 mm
11:31 AM 89.6°F32.0°C 43.4°F6.3°C 20% 5.0 mph NE8.0 kmh NE -- 30.24 in1024.0 mb 0.00 in0.0 mm 0.00 in0.0 mm 0.00 in0.0 mm
11:32 AM 90.0°F32.2°C 43.7°F6.5°C 20% 12.0 mph ENE19.3 kmh ENE -- 30.24 in1024.0 mb 0.00 in0.0 mm 0.00 in0.0 mm 0.00 in0.0 mm
11:33 AM 90.0°F32.2°C 43.7°F6.5°C 20% 7.0 mph E11.3 kmh E -- 30.25 in1024.4 mb 0.00 in0.0 mm 0.00 in0.0 mm 0.00 in0.0 mm
11:34 AM 90.3°F32.4°C 44.0°F6.7°C 20% 9.0 mph NE14.5 kmh NE -- 30.25 in1024.4 mb 0.00 in0.0 mm 0.00 in0.0 mm 0.00 in0.0 mm
11:35 AM 90.3°F32.4°C 44.0°F6.7°C 20% 7.0 mph NNE11.3 kmh NNE -- 30.25 in1024.4 mb 0.00 in0.0 mm 0.00 in0.0 mm 0.00 in0.0 mm
11:36 AM 90.1°F32.3°C 43.9°F6.6°C 20% 8.0 mph ESE12.9 kmh ESE -- 30.25 in1024.4 mb 0.00 in0.0 mm 0.00 in0.0 mm 0.00 in0.0 mm
11:37 AM 90.0°F32.2°C 46.2°F7.9°C 22% 10.0 mph NNE16.1 kmh NNE -- 30.25 in1024.4 mb 0.00 in0.0 mm 0.00 in0.0 mm 0.00 in0.0 mm
11:38 AM 90.0°F32.2°C 46.2°F7.9°C 22% 7.0 mph NW11.3 kmh NW -- 30.25 in1024.4 mb 0.00 in0.0 mm 0.00 in0.0 mm 0.00 in0.0 mm
11:39 AM 89.6°F32.0°C 45.9°F7.7°C 22% 8.0 mph NW12.9 kmh NW -- 30.25 in1024.4 mb 0.00 in0.0 mm 0.00 in0.0 mm 0.00 in0.0 mm
11:40 AM 89.0°F31.7°C 45.4°F7.4°C 22% 6.0 mph NNW9.7 kmh NNW -- 30.24 in1024.0 mb 0.00 in0.0 mm 0.00 in0.0 mm 0.00 in0.0 mm
11:41 AM 88.9°F31.6°C 45.3°F7.4°C 22% 6.0 mph E9.7 kmh E -- 30.24 in1024.0 mb 0.00 in0.0 mm 0.00 in0.0 mm 0.00 in0.0 mm
11:42 AM 88.6°F31.4°C 45.0°F7.2°C 22% 7.0 mph NE11.3 kmh NE -- 30.25 in1024.4 mb 0.00 in0.0 mm 0.00 in0.0 mm 0.00 in0.0 mm
11:43 AM 88.1°F31.2°C 44.7°F7.1°C 22% 9.0 mph NE14.5 kmh NE -- 30.25 in1024.4 mb 0.00 in0.0 mm 0.00 in0.0 mm 0.00 in0.0 mm
11:44 AM 88.1°F31.2°C 42.2°F5.7°C 20% 6.0 mph 9.7 kmh -- 30.25 in1024.4 mb 0.00 in0.0 mm 0.00 in0.0 mm 0.00 in0.0 mm
11:45 AM 88.0°F31.1°C 42.1°F5.6°C 20% 6.0 mph NE9.7 kmh NE -- 30.24 in1024.0 mb 0.00 in0.0 mm 0.00 in0.0 mm 0.00 in0.0 mm
11:46 AM 88.9°F31.6°C 42.8°F6.0°C 20% 7.0 mph NNW11.3 kmh NNW -- 30.24 in1024.0 mb 0.00 in0.0 mm 0.00 in0.0 mm 0.00 in0.0 mm
11:47 AM 89.0°F31.7°C 43.0°F6.1°C 20% 5.0 mph E8.0 kmh E -- 30.25 in1024.4 mb 0.00 in0.0 mm 0.00 in0.0 mm 0.00 in0.0 mm
11:48 AM 89.0°F31.7°C 43.0°F6.1°C 20% 3.0 mph ENE4.8 kmh ENE -- 30.25 in1024.4 mb 0.00 in0.0 mm 0.00 in0.0 mm 0.00 in0.0 mm
11:49 AM 88.5°F31.4°C 42.5°F5.8°C 20% 7.0 mph ENE11.3 kmh ENE -- 30.25 in1024.4 mb 0.00 in0.0 mm 0.00 in0.0 mm 0.00 in0.0 mm
11:50 AM 88.1°F31.2°C 42.2°F5.7°C 20% 8.0 mph ENE12.9 kmh ENE -- 30.25 in1024.4 mb 0.00 in0.0 mm 0.00 in0.0 mm 0.00 in0.0 mm
11:51 AM 87.8°F31.0°C 41.9°F5.5°C 20% 6.0 mph NE9.7 kmh NE -- 30.25 in1024.4 mb 0.00 in0.0 mm 0.00 in0.0 mm 0.00 in0.0 mm
11:52 AM 86.7°F30.4°C 43.5°F6.4°C 22% 4.0 mph NNE6.4 kmh NNE -- 30.25 in1024.4 mb 0.00 in0.0 mm 0.00 in0.0 mm 0.00 in0.0 mm
11:53 AM 86.4°F30.2°C 43.2°F6.2°C 22% 6.0 mph NE9.7 kmh NE -- 30.24 in1024.0 mb 0.00 in0.0 mm 0.00 in0.0 mm 0.00 in0.0 mm
11:54 AM 86.1°F30.1°C 43.0°F6.1°C 22% 10.0 mph NNE16.1 kmh NNE -- 30.25 in1024.4 mb 0.00 in0.0 mm 0.00 in0.0 mm 0.00 in0.0 mm
11:55 AM 85.7°F29.8°C 42.6°F5.9°C 22% 5.0 mph 8.0 kmh -- 30.25 in1024.4 mb 0.00 in0.0 mm 0.00 in0.0 mm 0.00 in0.0 mm
11:56 AM 85.5°F29.7°C 42.4°F5.8°C 22% 8.0 mph NW12.9 kmh NW -- 30.24 in1024.0 mb 0.00 in0.0 mm 0.00 in0.0 mm 0.00 in0.0 mm
11:57 AM 85.5°F29.7°C 42.4°F5.8°C 22% 5.0 mph NNE8.0 kmh NNE -- 30.23 in1023.7 mb 0.00 in0.0 mm 0.00 in0.0 mm 0.00 in0.0 mm
11:58 AM 86.1°F30.1°C 43.0°F6.1°C 22% 4.0 mph ENE6.4 kmh ENE -- 30.23 in1023.7 mb 0.00 in0.0 mm 0.00 in0.0 mm 0.00 in0.0 mm
11:59 AM 86.4°F30.2°C 43.2°F6.2°C 22% 6.0 mph E9.7 kmh E -- 30.25 in1024.4 mb 0.00 in0.0 mm 0.00 in0.0 mm 0.00 in0.0 mm
12:00 PM 87.3°F30.7°C 43.9°F6.6°C 22% 5.0 mph 8.0 kmh -- 30.25 in1024.4 mb 0.00 in0.0 mm 0.00 in0.0 mm 0.00 in0.0 mm
12:01 PM 88.2°F31.2°C 44.7°F7.1°C 22% 9.0 mph NNE14.5 kmh NNE -- 30.23 in1023.7 mb 0.00 in0.0 mm 0.00 in0.0 mm 0.00 in0.0 mm
12:02 PM 88.2°F31.2°C 44.7°F7.1°C 22% 4.0 mph NNE6.4 kmh NNE -- 30.23 in1023.7 mb 0.00 in0.0 mm 0.00 in0.0 mm 0.00 in0.0 mm
12:03 PM 88.1°F31.2°C 44.7°F7.1°C 22% 2.0 mph NW3.2 kmh NW -- 30.24 in1024.0 mb 0.00 in0.0 mm 0.00 in0.0 mm 0.00 in0.0 mm
12:04 PM 89.0°F31.7°C 45.4°F7.4°C 22% 4.0 mph 6.4 kmh -- 30.24 in1024.0 mb 0.00 in0.0 mm 0.00 in0.0 mm 0.00 in0.0 mm
12:05 PM 89.4°F31.9°C 45.7°F7.6°C 22% 6.0 mph NNE9.7 kmh NNE -- 30.24 in1024.0 mb 0.00 in0.0 mm 0.00 in0.0 mm 0.00 in0.0 mm
12:06 PM 89.8°F32.1°C 46.1°F7.8°C 22% 9.0 mph NW14.5 kmh NW -- 30.24 in1024.0 mb 0.00 in0.0 mm 0.00 in0.0 mm 0.00 in0.0 mm
12:07 PM 89.8°F32.1°C 43.6°F6.4°C 20% 12.0 mph 19.3 kmh -- 30.24 in1024.0 mb 0.00 in0.0 mm 0.00 in0.0 mm 0.00 in0.0 mm
12:08 PM 89.6°F32.0°C 43.4°F6.3°C 20% 7.0 mph NNW11.3 kmh NNW -- 30.24 in1024.0 mb 0.00 in0.0 mm 0.00 in0.0 mm 0.00 in0.0 mm
12:09 PM 89.2°F31.8°C 43.1°F6.2°C 20% 7.0 mph NW11.3 kmh NW -- 30.24 in1024.0 mb 0.00 in0.0 mm 0.00 in0.0 mm 0.00 in0.0 mm
12:10 PM 89.0°F31.7°C 43.0°F6.1°C 20% 5.0 mph NNE8.0 kmh NNE -- 30.24 in1024.0 mb 0.00 in0.0 mm 0.00 in0.0 mm 0.00 in0.0 mm
12:11 PM 88.2°F31.2°C 42.2°F5.7°C 20% 3.0 mph NE4.8 kmh NE -- 30.25 in1024.4 mb 0.00 in0.0 mm 0.00 in0.0 mm 0.00 in0.0 mm
12:12 PM 88.2°F31.2°C 44.7°F7.1°C 22% 7.0 mph NE11.3 kmh NE -- 30.25 in1024.4 mb 0.00 in0.0 mm 0.00 in0.0 mm 0.00 in0.0 mm
12:13 PM 88.2°F31.2°C 44.7°F7.1°C 22% 6.0 mph E9.7 kmh E -- 30.24 in1024.0 mb 0.00 in0.0 mm 0.00 in0.0 mm 0.00 in0.0 mm
12:14 PM 87.6°F30.9°C 46.5°F8.1°C 24% 5.0 mph NE8.0 kmh NE -- 30.24 in1024.0 mb 0.00 in0.0 mm 0.00 in0.0 mm 0.00 in0.0 mm
12:15 PM 86.9°F30.5°C 45.9°F7.7°C 24% 4.0 mph ENE6.4 kmh ENE -- 30.24 in1024.0 mb 0.00 in0.0 mm 0.00 in0.0 mm 0.00 in0.0 mm
12:16 PM 86.4°F30.2°C 45.4°F7.4°C 24% 6.0 mph NE9.7 kmh NE -- 30.24 in1024.0 mb 0.00 in0.0 mm 0.00 in0.0 mm 0.00 in0.0 mm
12:17 PM 86.0°F30.0°C 45.1°F7.3°C 24% 4.0 mph E6.4 kmh E -- 30.24 in1024.0 mb 0.00 in0.0 mm 0.00 in0.0 mm 0.00 in0.0 mm
12:18 PM 86.0°F30.0°C 45.1°F7.3°C 24% 4.0 mph ESE6.4 kmh ESE -- 30.24 in1024.0 mb 0.00 in0.0 mm 0.00 in0.0 mm 0.00 in0.0 mm
12:19 PM 86.0°F30.0°C 45.1°F7.3°C 24% 9.0 mph 14.5 kmh -- 30.24 in1024.0 mb 0.00 in0.0 mm 0.00 in0.0 mm 0.00 in0.0 mm
12:20 PM 86.0°F30.0°C 46.2°F7.9°C 25% 6.0 mph 9.7 kmh -- 30.24 in1024.0 mb 0.00 in0.0 mm 0.00 in0.0 mm 0.00 in0.0 mm
12:21 PM 86.1°F30.1°C 46.3°F7.9°C 25% 7.0 mph ESE11.3 kmh ESE -- 30.24 in1024.0 mb 0.00 in0.0 mm 0.00 in0.0 mm 0.00 in0.0 mm
12:22 PM 86.1°F30.1°C 45.3°F7.4°C 24% 9.0 mph NNE14.5 kmh NNE -- 30.23 in1023.7 mb 0.00 in0.0 mm 0.00 in0.0 mm 0.00 in0.0 mm
12:23 PM 86.1°F30.1°C 45.3°F7.4°C 24% 9.0 mph NE14.5 kmh NE -- 30.23 in1023.7 mb 0.00 in0.0 mm 0.00 in0.0 mm 0.00 in0.0 mm
12:24 PM 86.0°F30.0°C 45.1°F7.3°C 24% 8.0 mph NE12.9 kmh NE -- 30.24 in1024.0 mb 0.00 in0.0 mm 0.00 in0.0 mm 0.00 in0.0 mm
12:25 PM 85.7°F29.8°C 44.8°F7.1°C 24% 4.0 mph E6.4 kmh E -- 30.24 in1024.0 mb 0.00 in0.0 mm 0.00 in0.0 mm 0.00 in0.0 mm
12:26 PM 86.1°F30.1°C 45.3°F7.4°C 24% 5.0 mph NE8.0 kmh NE -- 30.24 in1024.0 mb 0.00 in0.0 mm 0.00 in0.0 mm 0.00 in0.0 mm
12:27 PM 86.7°F30.4°C 43.5°F6.4°C 22% 7.0 mph E11.3 kmh E -- 30.23 in1023.7 mb 0.00 in0.0 mm 0.00 in0.0 mm 0.00 in0.0 mm
12:28 PM 87.6°F30.9°C 44.2°F6.8°C 22% 10.0 mph E16.1 kmh E -- 30.24 in1024.0 mb 0.00 in0.0 mm 0.00 in0.0 mm 0.00 in0.0 mm
12:29 PM 88.0°F31.1°C 44.5°F6.9°C 22% 11.0 mph E17.7 kmh E -- 30.24 in1024.0 mb 0.00 in0.0 mm 0.00 in0.0 mm 0.00 in0.0 mm
12:30 PM 88.1°F31.2°C 44.7°F7.1°C 22% 5.0 mph ESE8.0 kmh ESE -- 30.23 in1023.7 mb 0.00 in0.0 mm 0.00 in0.0 mm 0.00 in0.0 mm
12:31 PM 88.9°F31.6°C 42.8°F6.0°C 20% 6.0 mph E9.7 kmh E -- 30.23 in1023.7 mb 0.00 in0.0 mm 0.00 in0.0 mm 0.00 in0.0 mm
12:32 PM 88.5°F31.4°C 42.5°F5.8°C 20% 3.0 mph ESE4.8 kmh ESE -- 30.24 in1024.0 mb 0.00 in0.0 mm 0.00 in0.0 mm 0.00 in0.0 mm
12:33 PM 88.1°F31.2°C 44.7°F7.1°C 22% 6.0 mph E9.7 kmh E -- 30.24 in1024.0 mb 0.00 in0.0 mm 0.00 in0.0 mm 0.00 in0.0 mm
12:34 PM 88.0°F31.1°C 44.5°F6.9°C 22% 6.0 mph NNE9.7 kmh NNE -- 30.23 in1023.7 mb 0.00 in0.0 mm 0.00 in0.0 mm 0.00 in0.0 mm
12:35 PM 87.1°F30.6°C 46.0°F7.8°C 24% 4.0 mph 6.4 kmh -- 30.23 in1023.7 mb 0.00 in0.0 mm 0.00 in0.0 mm 0.00 in0.0 mm
12:36 PM 86.9°F30.5°C 45.9°F7.7°C 24% 12.0 mph E19.3 kmh E -- 30.23 in1023.7 mb 0.00 in0.0 mm 0.00 in0.0 mm 0.00 in0.0 mm
12:37 PM 86.4°F30.2°C 45.4°F7.4°C 24% 6.0 mph E9.7 kmh E -- 30.24 in1024.0 mb 0.00 in0.0 mm 0.00 in0.0 mm 0.00 in0.0 mm
12:38 PM 85.7°F29.8°C 44.8°F7.1°C 24% 3.0 mph 4.8 kmh -- 30.24 in1024.0 mb 0.00 in0.0 mm 0.00 in0.0 mm 0.00 in0.0 mm
12:39 PM 85.7°F29.8°C 44.8°F7.1°C 24% 6.0 mph NNE9.7 kmh NNE -- 30.23 in1023.7 mb 0.00 in0.0 mm 0.00 in0.0 mm 0.00 in0.0 mm
12:40 PM 86.1°F30.1°C 45.3°F7.4°C 24% 8.0 mph 12.9 kmh -- 30.23 in1023.7 mb 0.00 in0.0 mm 0.00 in0.0 mm 0.00 in0.0 mm
12:41 PM 86.1°F30.1°C 45.3°F7.4°C 24% 8.0 mph NNE12.9 kmh NNE -- 30.23 in1023.7 mb 0.00 in0.0 mm 0.00 in0.0 mm 0.00 in0.0 mm
12:42 PM 86.0°F30.0°C 42.9°F6.1°C 22% 4.0 mph NNE6.4 kmh NNE -- 30.23 in1023.7 mb 0.00 in0.0 mm 0.00 in0.0 mm 0.00 in0.0 mm
12:43 PM 85.5°F29.7°C 42.4°F5.8°C 22% 4.0 mph ENE6.4 kmh ENE -- 30.23 in1023.7 mb 0.00 in0.0 mm 0.00 in0.0 mm 0.00 in0.0 mm
12:44 PM 85.5°F29.7°C 42.4°F5.8°C 22% 6.0 mph ENE9.7 kmh ENE -- 30.23 in1023.7 mb 0.00 in0.0 mm 0.00 in0.0 mm 0.00 in0.0 mm
12:45 PM 85.5°F29.7°C 42.4°F5.8°C 22% 5.0 mph E8.0 kmh E -- 30.23 in1023.7 mb 0.00 in0.0 mm 0.00 in0.0 mm 0.00 in0.0 mm
12:46 PM 85.1°F29.5°C 42.1°F5.6°C 22% 6.0 mph NNW9.7 kmh NNW -- 30.23 in1023.7 mb 0.00 in0.0 mm 0.00 in0.0 mm 0.00 in0.0 mm
12:47 PM 84.8°F29.3°C 41.8°F5.4°C 22% 4.0 mph 6.4 kmh -- 30.23 in1023.7 mb 0.00 in0.0 mm 0.00 in0.0 mm 0.00 in0.0 mm
12:48 PM 84.6°F29.2°C 43.9°F6.6°C 24% 8.0 mph NNW12.9 kmh NNW -- 30.24 in1024.0 mb 0.00 in0.0 mm 0.00 in0.0 mm 0.00 in0.0 mm
12:49 PM 84.6°F29.2°C 43.9°F6.6°C 24% 7.0 mph NE11.3 kmh NE -- 30.24 in1024.0 mb 0.00 in0.0 mm 0.00 in0.0 mm 0.00 in0.0 mm
12:51 PM 84.6°F29.2°C 43.9°F6.6°C 24% 7.0 mph ENE11.3 kmh ENE -- 30.23 in1023.7 mb 0.00 in0.0 mm 0.00 in0.0 mm 0.00 in0.0 mm
12:52 PM 84.4°F29.1°C 43.7°F6.5°C 24% 6.0 mph NE9.7 kmh NE -- 30.23 in1023.7 mb 0.00 in0.0 mm 0.00 in0.0 mm 0.00 in0.0 mm
12:53 PM 84.2°F29.0°C 43.6°F6.4°C 24% 4.0 mph NE6.4 kmh NE -- 30.24 in1024.0 mb 0.00 in0.0 mm 0.00 in0.0 mm 0.00 in0.0 mm
12:54 PM 83.8°F28.8°C 44.3°F6.8°C 25% 4.0 mph NE6.4 kmh NE -- 30.24 in1024.0 mb 0.00 in0.0 mm 0.00 in0.0 mm 0.00 in0.0 mm
12:55 PM 83.8°F28.8°C 44.3°F6.8°C 25% 7.0 mph E11.3 kmh E -- 30.23 in1023.7 mb 0.00 in0.0 mm 0.00 in0.0 mm 0.00 in0.0 mm
12:56 PM 83.8°F28.8°C 43.3°F6.3°C 24% 5.0 mph E8.0 kmh E -- 30.23 in1023.7 mb 0.00 in0.0 mm 0.00 in0.0 mm 0.00 in0.0 mm
12:57 PM 83.8°F28.8°C 43.3°F6.3°C 24% 5.0 mph NNE8.0 kmh NNE -- 30.23 in1023.7 mb 0.00 in0.0 mm 0.00 in0.0 mm 0.00 in0.0 mm
12:58 PM 83.8°F28.8°C 43.3°F6.3°C 24% 5.0 mph NNE8.0 kmh NNE -- 30.24 in1024.0 mb 0.00 in0.0 mm 0.00 in0.0 mm 0.00 in0.0 mm
12:59 PM 83.8°F28.8°C 43.3°F6.3°C 24% 5.0 mph NNW8.0 kmh NNW -- 30.23 in1023.7 mb 0.00 in0.0 mm 0.00 in0.0 mm 0.00 in0.0 mm
01:00 PM 83.9°F28.8°C 43.3°F6.3°C 24% 7.0 mph NNE11.3 kmh NNE -- 30.23 in1023.7 mb 0.00 in0.0 mm 0.00 in0.0 mm 0.00 in0.0 mm
01:01 PM 84.2°F29.0°C 41.3°F5.2°C 22% 5.0 mph NNE8.0 kmh NNE -- 30.23 in1023.7 mb 0.00 in0.0 mm 0.00 in0.0 mm 0.00 in0.0 mm
01:02 PM 84.8°F29.3°C 41.8°F5.4°C 22% 6.0 mph NNE9.7 kmh NNE -- 30.24 in1024.0 mb 0.00 in0.0 mm 0.00 in0.0 mm 0.00 in0.0 mm
01:03 PM 86.0°F30.0°C 42.9°F6.1°C 22% 5.0 mph NNE8.0 kmh NNE -- 30.24 in1024.0 mb 0.00 in0.0 mm 0.00 in0.0 mm 0.00 in0.0 mm
01:04 PM 86.4°F30.2°C 43.2°F6.2°C 22% 6.0 mph NNE9.7 kmh NNE -- 30.24 in1024.0 mb 0.00 in0.0 mm 0.00 in0.0 mm 0.00 in0.0 mm
01:05 PM 87.6°F30.9°C 44.2°F6.8°C 22% 6.0 mph NE9.7 kmh NE -- 30.24 in1024.0 mb 0.00 in0.0 mm 0.00 in0.0 mm 0.00 in0.0 mm
01:06 PM 88.5°F31.4°C 45.0°F7.2°C 22% 8.0 mph NE12.9 kmh NE -- 30.24 in1024.0 mb 0.00 in0.0 mm 0.00 in0.0 mm 0.00 in0.0 mm
01:07 PM 88.6°F31.4°C 45.0°F7.2°C 22% 6.0 mph NNE9.7 kmh NNE -- 30.23 in1023.7 mb 0.00 in0.0 mm 0.00 in0.0 mm 0.00 in0.0 mm
01:08 PM 88.6°F31.4°C 42.5°F5.8°C 20% 6.0 mph NNE9.7 kmh NNE -- 30.23 in1023.7 mb 0.00 in0.0 mm 0.00 in0.0 mm 0.00 in0.0 mm
01:09 PM 88.9°F31.6°C 42.8°F6.0°C 20% 7.0 mph NNE11.3 kmh NNE -- 30.24 in1024.0 mb 0.00 in0.0 mm 0.00 in0.0 mm 0.00 in0.0 mm
01:10 PM 88.5°F31.4°C 42.5°F5.8°C 20% 7.0 mph 11.3 kmh -- 30.24 in1024.0 mb 0.00 in0.0 mm 0.00 in0.0 mm 0.00 in0.0 mm
01:11 PM 87.8°F31.0°C 41.9°F5.5°C 20% 4.0 mph NW6.4 kmh NW -- 30.24 in1024.0 mb 0.00 in0.0 mm 0.00 in0.0 mm 0.00 in0.0 mm
01:12 PM 87.8°F31.0°C 41.9°F5.5°C 20% 6.0 mph W9.7 kmh W -- 30.22 in1023.4 mb 0.00 in0.0 mm 0.00 in0.0 mm 0.00 in0.0 mm
01:13 PM 88.0°F31.1°C 42.1°F5.6°C 20% 7.0 mph W11.3 kmh W -- 30.22 in1023.4 mb 0.00 in0.0 mm 0.00 in0.0 mm 0.00 in0.0 mm
01:14 PM 87.8°F31.0°C 44.4°F6.9°C 22% 5.0 mph W8.0 kmh W -- 30.23 in1023.7 mb 0.00 in0.0 mm 0.00 in0.0 mm 0.00 in0.0 mm
01:15 PM 86.9°F30.5°C 43.6°F6.4°C 22% 5.0 mph W8.0 kmh W -- 30.23 in1023.7 mb 0.00 in0.0 mm 0.00 in0.0 mm 0.00 in0.0 mm
01:16 PM 86.1°F30.1°C 43.0°F6.1°C 22% 5.0 mph E8.0 kmh E -- 30.22 in1023.4 mb 0.00 in0.0 mm 0.00 in0.0 mm 0.00 in0.0 mm
01:17 PM 86.0°F30.0°C 45.1°F7.3°C 24% 4.0 mph ENE6.4 kmh ENE -- 30.23 in1023.7 mb 0.00 in0.0 mm 0.00 in0.0 mm 0.00 in0.0 mm
01:18 PM 85.5°F29.7°C 45.7°F7.6°C 25% 5.0 mph ESE8.0 kmh ESE -- 30.23 in1023.7 mb 0.00 in0.0 mm 0.00 in0.0 mm 0.00 in0.0 mm
01:19 PM 85.5°F29.7°C 45.7°F7.6°C 25% 5.0 mph E8.0 kmh E -- 30.23 in1023.7 mb 0.00 in0.0 mm 0.00 in0.0 mm 0.00 in0.0 mm
01:20 PM 85.7°F29.8°C 45.9°F7.7°C 25% 9.0 mph ESE14.5 kmh ESE -- 30.23 in1023.7 mb 0.00 in0.0 mm 0.00 in0.0 mm 0.00 in0.0 mm
01:21 PM 86.0°F30.0°C 46.2°F7.9°C 25% 5.0 mph NE8.0 kmh NE -- 30.23 in1023.7 mb 0.00 in0.0 mm 0.00 in0.0 mm 0.00 in0.0 mm
01:22 PM 86.0°F30.0°C 46.2°F7.9°C 25% 4.0 mph 6.4 kmh -- 30.23 in1023.7 mb 0.00 in0.0 mm 0.00 in0.0 mm 0.00 in0.0 mm
01:23 PM 85.7°F29.8°C 45.9°F7.7°C 25% 7.0 mph NE11.3 kmh NE -- 30.23 in1023.7 mb 0.00 in0.0 mm 0.00 in0.0 mm 0.00 in0.0 mm
01:24 PM 85.7°F29.8°C 45.9°F7.7°C 25% 4.0 mph ESE6.4 kmh ESE -- 30.23 in1023.7 mb 0.00 in0.0 mm 0.00 in0.0 mm 0.00 in0.0 mm
01:25 PM 85.7°F29.8°C 45.9°F7.7°C 25% 5.0 mph E8.0 kmh E -- 30.23 in1023.7 mb 0.00 in0.0 mm 0.00 in0.0 mm 0.00 in0.0 mm
01:26 PM 85.7°F29.8°C 45.9°F7.7°C 25% 4.0 mph E6.4 kmh E -- 30.23 in1023.7 mb 0.00 in0.0 mm 0.00 in0.0 mm 0.00 in0.0 mm
01:27 PM 86.0°F30.0°C 46.2°F7.9°C 25% 7.0 mph NE11.3 kmh NE -- 30.24 in1024.0 mb 0.00 in0.0 mm 0.00 in0.0 mm 0.00 in0.0 mm
01:28 PM 85.5°F29.7°C 47.8°F8.8°C 27% 6.0 mph NNE9.7 kmh NNE -- 30.23 in1023.7 mb 0.00 in0.0 mm 0.00 in0.0 mm 0.00 in0.0 mm
01:29 PM 85.5°F29.7°C 47.8°F8.8°C 27% 7.0 mph ENE11.3 kmh ENE -- 30.23 in1023.7 mb 0.00 in0.0 mm 0.00 in0.0 mm 0.00 in0.0 mm
01:30 PM 85.5°F29.7°C 47.8°F8.8°C 27% 10.0 mph E16.1 kmh E -- 30.23 in1023.7 mb 0.00 in0.0 mm 0.00 in0.0 mm 0.00 in0.0 mm
01:31 PM 85.5°F29.7°C 47.8°F8.8°C 27% 8.0 mph NE12.9 kmh NE -- 30.24 in1024.0 mb 0.00 in0.0 mm 0.00 in0.0 mm 0.00 in0.0 mm
01:32 PM 85.3°F29.6°C 45.6°F7.6°C 25% 5.0 mph E8.0 kmh E -- 30.24 in1024.0 mb 0.00 in0.0 mm 0.00 in0.0 mm 0.00 in0.0 mm
01:33 PM 85.1°F29.5°C 45.4°F7.4°C 25% 7.0 mph E11.3 kmh E -- 30.23 in1023.7 mb 0.00 in0.0 mm 0.00 in0.0 mm 0.00 in0.0 mm
01:34 PM 85.1°F29.5°C 45.4°F7.4°C 25% 9.0 mph ENE14.5 kmh ENE -- 30.23 in1023.7 mb 0.00 in0.0 mm 0.00 in0.0 mm 0.00 in0.0 mm
01:35 PM 85.1°F29.5°C 45.4°F7.4°C 25% 7.0 mph E11.3 kmh E -- 30.23 in1023.7 mb 0.00 in0.0 mm 0.00 in0.0 mm 0.00 in0.0 mm
01:36 PM 85.1°F29.5°C 45.4°F7.4°C 25% 5.0 mph ENE8.0 kmh ENE -- 30.23 in1023.7 mb 0.00 in0.0 mm 0.00 in0.0 mm 0.00 in0.0 mm
01:37 PM 84.6°F29.2°C 45.0°F7.2°C 25% 3.0 mph E4.8 kmh E -- 30.23 in1023.7 mb 0.00 in0.0 mm 0.00 in0.0 mm 0.00 in0.0 mm
01:38 PM 84.4°F29.1°C 46.8°F8.2°C 27% 1.0 mph ESE1.6 kmh ESE -- 30.23 in1023.7 mb 0.00 in0.0 mm 0.00 in0.0 mm 0.00 in0.0 mm
01:39 PM 84.6°F29.2°C 47.0°F8.3°C 27% 3.0 mph SE4.8 kmh SE -- 30.23 in1023.7 mb 0.00 in0.0 mm 0.00 in0.0 mm 0.00 in0.0 mm
01:40 PM 86.0°F30.0°C 46.2°F7.9°C 25% 4.0 mph ENE6.4 kmh ENE -- 30.23 in1023.7 mb 0.00 in0.0 mm 0.00 in0.0 mm 0.00 in0.0 mm
01:41 PM 86.4°F30.2°C 46.5°F8.1°C 25% 4.0 mph ENE6.4 kmh ENE -- 30.23 in1023.7 mb 0.00 in0.0 mm 0.00 in0.0 mm 0.00 in0.0 mm
01:42 PM 86.4°F30.2°C 46.5°F8.1°C 25% 2.0 mph NE3.2 kmh NE -- 30.23 in1023.7 mb 0.00 in0.0 mm 0.00 in0.0 mm 0.00 in0.0 mm
01:43 PM 86.9°F30.5°C 47.0°F8.3°C 25% 2.0 mph ESE3.2 kmh ESE -- 30.23 in1023.7 mb 0.00 in0.0 mm 0.00 in0.0 mm 0.00 in0.0 mm
01:44 PM 86.7°F30.4°C 46.8°F8.2°C 25% 4.0 mph ESE6.4 kmh ESE -- 30.22 in1023.4 mb 0.00 in0.0 mm 0.00 in0.0 mm 0.00 in0.0 mm
01:45 PM 87.3°F30.7°C 47.3°F8.5°C 25% 7.0 mph E11.3 kmh E -- 30.24 in1024.0 mb 0.00 in0.0 mm 0.00 in0.0 mm 0.00 in0.0 mm
01:46 PM 87.8°F31.0°C 46.7°F8.2°C 24% 10.0 mph E16.1 kmh E -- 30.22 in1023.4 mb 0.00 in0.0 mm 0.00 in0.0 mm 0.00 in0.0 mm
01:47 PM 87.8°F31.0°C 46.7°F8.2°C 24% 6.0 mph E9.7 kmh E -- 30.23 in1023.7 mb 0.00 in0.0 mm 0.00 in0.0 mm 0.00 in0.0 mm
01:48 PM 87.1°F30.6°C 46.0°F7.8°C 24% 4.0 mph ESE6.4 kmh ESE -- 30.24 in1024.0 mb 0.00 in0.0 mm 0.00 in0.0 mm 0.00 in0.0 mm
01:49 PM 87.3°F30.7°C 46.2°F7.9°C 24% 6.0 mph ENE9.7 kmh ENE -- 30.24 in1024.0 mb 0.00 in0.0 mm 0.00 in0.0 mm 0.00 in0.0 mm
01:50 PM 87.3°F30.7°C 46.2°F7.9°C 24% 3.0 mph SE4.8 kmh SE -- 30.22 in1023.4 mb 0.00 in0.0 mm 0.00 in0.0 mm 0.00 in0.0 mm
01:51 PM 87.3°F30.7°C 46.2°F7.9°C 24% 7.0 mph E11.3 kmh E -- 30.23 in1023.7 mb 0.00 in0.0 mm 0.00 in0.0 mm 0.00 in0.0 mm
01:52 PM 88.2°F31.2°C 47.0°F8.3°C 24% 5.0 mph E8.0 kmh E -- 30.22 in1023.4 mb 0.00 in0.0 mm 0.00 in0.0 mm 0.00 in0.0 mm
01:53 PM 88.2°F31.2°C 47.0°F8.3°C 24% 4.0 mph E6.4 kmh E -- 30.23 in1023.7 mb 0.00 in0.0 mm 0.00 in0.0 mm 0.00 in0.0 mm
01:54 PM 87.1°F30.6°C 46.0°F7.8°C 24% 2.0 mph NE3.2 kmh NE -- 30.23 in1023.7 mb 0.00 in0.0 mm 0.00 in0.0 mm 0.00 in0.0 mm
01:55 PM 86.7°F30.4°C 45.7°F7.6°C 24% 3.0 mph ENE4.8 kmh ENE -- 30.22 in1023.4 mb 0.00 in0.0 mm 0.00 in0.0 mm 0.00 in0.0 mm
01:56 PM 86.4°F30.2°C 45.4°F7.4°C 24% 7.0 mph ENE11.3 kmh ENE -- 30.22 in1023.4 mb 0.00 in0.0 mm 0.00 in0.0 mm 0.00 in0.0 mm
01:57 PM 86.9°F30.5°C 45.9°F7.7°C 24% 5.0 mph NE8.0 kmh NE -- 30.22 in1023.4 mb 0.00 in0.0 mm 0.00 in0.0 mm 0.00 in0.0 mm
01:58 PM 86.7°F30.4°C 45.7°F7.6°C 24% 5.0 mph E8.0 kmh E -- 30.23 in1023.7 mb 0.00 in0.0 mm 0.00 in0.0 mm 0.00 in0.0 mm
01:59 PM 86.4°F30.2°C 43.2°F6.2°C 22% 4.0 mph NNW6.4 kmh NNW -- 30.22 in1023.4 mb 0.00 in0.0 mm 0.00 in0.0 mm 0.00 in0.0 mm
02:00 PM 86.4°F30.2°C 45.4°F7.4°C 24% 5.0 mph NNE8.0 kmh NNE -- 30.23 in1023.7 mb 0.00 in0.0 mm 0.00 in0.0 mm 0.00 in0.0 mm
02:01 PM 86.7°F30.4°C 45.7°F7.6°C 24% 7.0 mph NNE11.3 kmh NNE -- 30.22 in1023.4 mb 0.00 in0.0 mm 0.00 in0.0 mm 0.00 in0.0 mm
02:02 PM 87.3°F30.7°C 46.2°F7.9°C 24% 10.0 mph ENE16.1 kmh ENE -- 30.22 in1023.4 mb 0.00 in0.0 mm 0.00 in0.0 mm 0.00 in0.0 mm
02:03 PM 88.6°F31.4°C 47.3°F8.5°C 24% 7.0 mph NE11.3 kmh NE -- 30.22 in1023.4 mb 0.00 in0.0 mm 0.00 in0.0 mm 0.00 in0.0 mm
02:04 PM 89.2°F31.8°C 47.9°F8.8°C 24% 8.0 mph ESE12.9 kmh ESE -- 30.23 in1023.7 mb 0.00 in0.0 mm 0.00 in0.0 mm 0.00 in0.0 mm
02:05 PM 90.0°F32.2°C 46.2°F7.9°C 22% 6.0 mph ENE9.7 kmh ENE -- 30.23 in1023.7 mb 0.00 in0.0 mm 0.00 in0.0 mm 0.00 in0.0 mm
02:06 PM 90.5°F32.5°C 46.7°F8.2°C 22% 10.0 mph ESE16.1 kmh ESE -- 30.23 in1023.7 mb 0.00 in0.0 mm 0.00 in0.0 mm 0.00 in0.0 mm
02:07 PM 90.6°F32.6°C 46.8°F8.2°C 22% 7.0 mph E11.3 kmh E -- 30.22 in1023.4 mb 0.00 in0.0 mm 0.00 in0.0 mm 0.00 in0.0 mm
02:08 PM 90.6°F32.6°C 46.8°F8.2°C 22% 7.0 mph ESE11.3 kmh ESE -- 30.22 in1023.4 mb 0.00 in0.0 mm 0.00 in0.0 mm 0.00 in0.0 mm
02:09 PM 90.1°F32.3°C 46.4°F8.0°C 22% 8.0 mph ESE12.9 kmh ESE -- 30.23 in1023.7 mb 0.00 in0.0 mm 0.00 in0.0 mm 0.00 in0.0 mm
02:10 PM 90.0°F32.2°C 46.2°F7.9°C 22% 9.0 mph ESE14.5 kmh ESE -- 30.23 in1023.7 mb 0.00 in0.0 mm 0.00 in0.0 mm 0.00 in0.0 mm
02:11 PM 90.1°F32.3°C 46.4°F8.0°C 22% 8.0 mph ESE12.9 kmh ESE -- 30.22 in1023.4 mb 0.00 in0.0 mm 0.00 in0.0 mm 0.00 in0.0 mm
02:12 PM 90.3°F32.4°C 46.5°F8.1°C 22% 6.0 mph ESE9.7 kmh ESE -- 30.22 in1023.4 mb 0.00 in0.0 mm 0.00 in0.0 mm 0.00 in0.0 mm
02:13 PM 90.5°F32.5°C 46.7°F8.2°C 22% 8.0 mph SE12.9 kmh SE -- 30.22 in1023.4 mb 0.00 in0.0 mm 0.00 in0.0 mm 0.00 in0.0 mm
02:14 PM 90.1°F32.3°C 46.4°F8.0°C 22% 8.0 mph ESE12.9 kmh ESE -- 30.23 in1023.7 mb 0.00 in0.0 mm 0.00 in0.0 mm 0.00 in0.0 mm
02:15 PM 89.6°F32.0°C 45.9°F7.7°C 22% 5.0 mph ESE8.0 kmh ESE -- 30.22 in1023.4 mb 0.00 in0.0 mm 0.00 in0.0 mm 0.00 in0.0 mm
02:16 PM 89.0°F31.7°C 45.4°F7.4°C 22% 7.0 mph ENE11.3 kmh ENE -- 30.22 in1023.4 mb 0.00 in0.0 mm 0.00 in0.0 mm 0.00 in0.0 mm
02:17 PM 88.6°F31.4°C 45.0°F7.2°C 22% 8.0 mph ESE12.9 kmh ESE -- 30.22 in1023.4 mb 0.00 in0.0 mm 0.00 in0.0 mm 0.00 in0.0 mm
02:18 PM 88.2°F31.2°C 44.7°F7.1°C 22% 9.0 mph NE14.5 kmh NE -- 30.22 in1023.4 mb 0.00 in0.0 mm 0.00 in0.0 mm 0.00 in0.0 mm
02:19 PM 87.8°F31.0°C 44.4°F6.9°C 22% 4.0 mph E6.4 kmh E -- 30.22 in1023.4 mb 0.00 in0.0 mm 0.00 in0.0 mm 0.00 in0.0 mm
02:20 PM 87.3°F30.7°C 43.9°F6.6°C 22% 8.0 mph ESE12.9 kmh ESE -- 30.22 in1023.4 mb 0.00 in0.0 mm 0.00 in0.0 mm 0.00 in0.0 mm
02:21 PM 87.1°F30.6°C 43.8°F6.6°C 22% 9.0 mph SE14.5 kmh SE -- 30.22 in1023.4 mb 0.00 in0.0 mm 0.00 in0.0 mm 0.00 in0.0 mm
02:22 PM 86.7°F30.4°C 43.5°F6.4°C 22% 10.0 mph ESE16.1 kmh ESE -- 30.22 in1023.4 mb 0.00 in0.0 mm 0.00 in0.0 mm 0.00 in0.0 mm
02:23 PM 86.4°F30.2°C 43.2°F6.2°C 22% 8.0 mph ESE12.9 kmh ESE -- 30.22 in1023.4 mb 0.00 in0.0 mm 0.00 in0.0 mm 0.00 in0.0 mm
02:24 PM 86.1°F30.1°C 43.0°F6.1°C 22% 5.0 mph ESE8.0 kmh ESE -- 30.22 in1023.4 mb 0.00 in0.0 mm 0.00 in0.0 mm 0.00 in0.0 mm
02:25 PM 85.7°F29.8°C 42.6°F5.9°C 22% 4.0 mph E6.4 kmh E -- 30.22 in1023.4 mb 0.00 in0.0 mm 0.00 in0.0 mm 0.00 in0.0 mm
02:26 PM 85.5°F29.7°C 42.4°F5.8°C 22% 6.0 mph ESE9.7 kmh ESE -- 30.22 in1023.4 mb 0.00 in0.0 mm 0.00 in0.0 mm 0.00 in0.0 mm
02:27 PM 85.5°F29.7°C 44.7°F7.1°C 24% 6.0 mph ESE9.7 kmh ESE -- 30.23 in1023.7 mb 0.00 in0.0 mm 0.00 in0.0 mm 0.00 in0.0 mm
02:28 PM 85.5°F29.7°C 44.7°F7.1°C 24% 6.0 mph NE9.7 kmh NE -- 30.21 in1023.0 mb 0.00 in0.0 mm 0.00 in0.0 mm 0.00 in0.0 mm
02:29 PM 85.5°F29.7°C 44.7°F7.1°C 24% 8.0 mph NE12.9 kmh NE -- 30.22 in1023.4 mb 0.00 in0.0 mm 0.00 in0.0 mm 0.00 in0.0 mm
02:30 PM 85.7°F29.8°C 44.8°F7.1°C 24% 4.0 mph E6.4 kmh E -- 30.23 in1023.7 mb 0.00 in0.0 mm 0.00 in0.0 mm 0.00 in0.0 mm
02:31 PM 85.5°F29.7°C 44.7°F7.1°C 24% 2.0 mph E3.2 kmh E -- 30.23 in1023.7 mb 0.00 in0.0 mm 0.00 in0.0 mm 0.00 in0.0 mm
02:32 PM 85.5°F29.7°C 44.7°F7.1°C 24% 3.0 mph NNW4.8 kmh NNW -- 30.21 in1023.0 mb 0.00 in0.0 mm 0.00 in0.0 mm 0.00 in0.0 mm
02:33 PM 85.7°F29.8°C 44.8°F7.1°C 24% 3.0 mph NW4.8 kmh NW -- 30.22 in1023.4 mb 0.00 in0.0 mm 0.00 in0.0 mm 0.00 in0.0 mm
02:34 PM 85.7°F29.8°C 44.8°F7.1°C 24% 3.0 mph NNE4.8 kmh NNE -- 30.21 in1023.0 mb 0.00 in0.0 mm 0.00 in0.0 mm 0.00 in0.0 mm
02:35 PM 85.7°F29.8°C 44.8°F7.1°C 24% 3.0 mph NNE4.8 kmh NNE -- 30.22 in1023.4 mb 0.00 in0.0 mm 0.00 in0.0 mm 0.00 in0.0 mm
02:36 PM 85.5°F29.7°C 44.7°F7.1°C 24% 4.0 mph NNE6.4 kmh NNE -- 30.22 in1023.4 mb 0.00 in0.0 mm 0.00 in0.0 mm 0.00 in0.0 mm
02:37 PM 85.5°F29.7°C 42.4°F5.8°C 22% 2.0 mph NNE3.2 kmh NNE -- 30.22 in1023.4 mb 0.00 in0.0 mm 0.00 in0.0 mm 0.00 in0.0 mm
02:39 PM 85.7°F29.8°C 42.6°F5.9°C 22% 2.0 mph NE3.2 kmh NE -- 30.22 in1023.4 mb 0.00 in0.0 mm 0.00 in0.0 mm 0.00 in0.0 mm
02:40 PM 85.7°F29.8°C 42.6°F5.9°C 22% 2.0 mph NW3.2 kmh NW -- 30.22 in1023.4 mb 0.00 in0.0 mm 0.00 in0.0 mm 0.00 in0.0 mm
02:41 PM 85.7°F29.8°C 42.6°F5.9°C 22% 3.0 mph ESE4.8 kmh ESE -- 30.21 in1023.0 mb 0.00 in0.0 mm 0.00 in0.0 mm 0.00 in0.0 mm
02:42 PM 85.5°F29.7°C 44.7°F7.1°C 24% 2.0 mph SE3.2 kmh SE -- 30.22 in1023.4 mb 0.00 in0.0 mm 0.00 in0.0 mm 0.00 in0.0 mm
02:43 PM 85.3°F29.6°C 44.5°F6.9°C 24% 6.0 mph ESE9.7 kmh ESE -- 30.21 in1023.0 mb 0.00 in0.0 mm 0.00 in0.0 mm 0.00 in0.0 mm
02:44 PM 85.5°F29.7°C 42.4°F5.8°C 22% 3.0 mph E4.8 kmh E -- 30.21 in1023.0 mb 0.00 in0.0 mm 0.00 in0.0 mm 0.00 in0.0 mm
02:45 PM 85.5°F29.7°C 42.4°F5.8°C 22% 7.0 mph ESE11.3 kmh ESE -- 30.21 in1023.0 mb 0.00 in0.0 mm 0.00 in0.0 mm 0.00 in0.0 mm
02:46 PM 85.5°F29.7°C 42.4°F5.8°C 22% 5.0 mph ESE8.0 kmh ESE -- 30.22 in1023.4 mb 0.00 in0.0 mm 0.00 in0.0 mm 0.00 in0.0 mm
02:47 PM 85.5°F29.7°C 42.4°F5.8°C 22% 6.0 mph ESE9.7 kmh ESE -- 30.22 in1023.4 mb 0.00 in0.0 mm 0.00 in0.0 mm 0.00 in0.0 mm
02:48 PM 86.4°F30.2°C 45.4°F7.4°C 24% 6.0 mph NE9.7 kmh NE -- 30.22 in1023.4 mb 0.00 in0.0 mm 0.00 in0.0 mm 0.00 in0.0 mm
02:49 PM 86.4°F30.2°C 45.4°F7.4°C 24% 5.0 mph ESE8.0 kmh ESE -- 30.22 in1023.4 mb 0.00 in0.0 mm 0.00 in0.0 mm 0.00 in0.0 mm
02:50 PM 87.1°F30.6°C 47.1°F8.4°C 25% 7.0 mph E11.3 kmh E -- 30.21 in1023.0 mb 0.00 in0.0 mm 0.00 in0.0 mm 0.00 in0.0 mm
02:51 PM 87.3°F30.7°C 46.2°F7.9°C 24% 5.0 mph ESE8.0 kmh ESE -- 30.20 in1022.7 mb 0.00 in0.0 mm 0.00 in0.0 mm 0.00 in0.0 mm
02:52 PM 87.8°F31.0°C 46.7°F8.2°C 24% 6.0 mph NE9.7 kmh NE -- 30.20 in1022.7 mb 0.00 in0.0 mm 0.00 in0.0 mm 0.00 in0.0 mm
02:53 PM 88.2°F31.2°C 44.7°F7.1°C 22% 8.0 mph E12.9 kmh E -- 30.21 in1023.0 mb 0.00 in0.0 mm 0.00 in0.0 mm 0.00 in0.0 mm
02:54 PM 88.6°F31.4°C 45.0°F7.2°C 22% 6.0 mph NNE9.7 kmh NNE -- 30.20 in1022.7 mb 0.00 in0.0 mm 0.00 in0.0 mm 0.00 in0.0 mm
02:55 PM 89.2°F31.8°C 45.6°F7.6°C 22% 8.0 mph NE12.9 kmh NE -- 30.22 in1023.4 mb 0.00 in0.0 mm 0.00 in0.0 mm 0.00 in0.0 mm
02:56 PM 89.6°F32.0°C 45.9°F7.7°C 22% 7.0 mph 11.3 kmh -- 30.20 in1022.7 mb 0.00 in0.0 mm 0.00 in0.0 mm 0.00 in0.0 mm
02:57 PM 89.6°F32.0°C 45.9°F7.7°C 22% 7.0 mph E11.3 kmh E -- 30.21 in1023.0 mb 0.00 in0.0 mm 0.00 in0.0 mm 0.00 in0.0 mm
02:58 PM 90.0°F32.2°C 43.7°F6.5°C 20% 6.0 mph ESE9.7 kmh ESE -- 30.20 in1022.7 mb 0.00 in0.0 mm 0.00 in0.0 mm 0.00 in0.0 mm
02:59 PM 90.1°F32.3°C 43.9°F6.6°C 20% 6.0 mph NE9.7 kmh NE -- 30.21 in1023.0 mb 0.00 in0.0 mm 0.00 in0.0 mm 0.00 in0.0 mm
03:00 PM 90.3°F32.4°C 44.0°F6.7°C 20% 5.0 mph NNE8.0 kmh NNE -- 30.20 in1022.7 mb 0.00 in0.0 mm 0.00 in0.0 mm 0.00 in0.0 mm
03:01 PM 90.3°F32.4°C 44.0°F6.7°C 20% 5.0 mph NE8.0 kmh NE -- 30.19 in1022.4 mb 0.00 in0.0 mm 0.00 in0.0 mm 0.00 in0.0 mm
03:02 PM 90.3°F32.4°C 44.0°F6.7°C 20% 4.0 mph NW6.4 kmh NW -- 30.19 in1022.4 mb 0.00 in0.0 mm 0.00 in0.0 mm 0.00 in0.0 mm
03:03 PM 90.5°F32.5°C 44.2°F6.8°C 20% 7.0 mph NNE11.3 kmh NNE -- 30.21 in1023.0 mb 0.00 in0.0 mm 0.00 in0.0 mm 0.00 in0.0 mm
03:04 PM 90.5°F32.5°C 44.2°F6.8°C 20% 3.0 mph 4.8 kmh -- 30.20 in1022.7 mb 0.00 in0.0 mm 0.00 in0.0 mm 0.00 in0.0 mm
03:05 PM 90.6°F32.6°C 44.3°F6.8°C 20% 3.0 mph NE4.8 kmh NE -- 30.21 in1023.0 mb 0.00 in0.0 mm 0.00 in0.0 mm 0.00 in0.0 mm
03:06 PM 90.9°F32.7°C 44.5°F6.9°C 20% 7.0 mph 11.3 kmh -- 30.19 in1022.4 mb 0.00 in0.0 mm 0.00 in0.0 mm 0.00 in0.0 mm
03:07 PM 91.1°F32.8°C 44.6°F7.0°C 20% 7.0 mph NNE11.3 kmh NNE -- 30.21 in1023.0 mb 0.00 in0.0 mm 0.00 in0.0 mm 0.00 in0.0 mm
03:08 PM 91.4°F33.0°C 44.9°F7.2°C 20% 6.0 mph NNE9.7 kmh NNE -- 30.21 in1023.0 mb 0.00 in0.0 mm 0.00 in0.0 mm 0.00 in0.0 mm
03:09 PM 91.4°F33.0°C 44.9°F7.2°C 20% 8.0 mph NNE12.9 kmh NNE -- 30.21 in1023.0 mb 0.00 in0.0 mm 0.00 in0.0 mm 0.00 in0.0 mm
03:10 PM 91.9°F33.3°C 47.9°F8.8°C 22% 10.0 mph NE16.1 kmh NE -- 30.19 in1022.4 mb 0.00 in0.0 mm 0.00 in0.0 mm 0.00 in0.0 mm
03:11 PM 91.9°F33.3°C 47.9°F8.8°C 22% 5.0 mph ESE8.0 kmh ESE -- 30.20 in1022.7 mb 0.00 in0.0 mm 0.00 in0.0 mm 0.00 in0.0 mm
03:12 PM 91.9°F33.3°C 47.9°F8.8°C 22% 6.0 mph ESE9.7 kmh ESE -- 30.19 in1022.4 mb 0.00 in0.0 mm 0.00 in0.0 mm 0.00 in0.0 mm
03:13 PM 91.9°F33.3°C 47.9°F8.8°C 22% 5.0 mph ESE8.0 kmh ESE -- 30.20 in1022.7 mb 0.00 in0.0 mm 0.00 in0.0 mm 0.00 in0.0 mm
03:14 PM 91.9°F33.3°C 47.9°F8.8°C 22% 6.0 mph ENE9.7 kmh ENE -- 30.19 in1022.4 mb 0.00 in0.0 mm 0.00 in0.0 mm 0.00 in0.0 mm
03:15 PM 92.3°F33.5°C 48.2°F9.0°C 22% 7.0 mph NE11.3 kmh NE -- 30.19 in1022.4 mb 0.00 in0.0 mm 0.00 in0.0 mm 0.00 in0.0 mm
03:16 PM 92.6°F33.7°C 48.5°F9.2°C 22% 5.0 mph ENE8.0 kmh ENE -- 30.19 in1022.4 mb 0.00 in0.0 mm 0.00 in0.0 mm 0.00 in0.0 mm
03:17 PM 92.6°F33.7°C 48.5°F9.2°C 22% 7.0 mph NE11.3 kmh NE -- 30.20 in1022.7 mb 0.00 in0.0 mm 0.00 in0.0 mm 0.00 in0.0 mm
03:18 PM 93.0°F33.9°C 48.8°F9.3°C 22% 10.0 mph ESE16.1 kmh ESE -- 30.19 in1022.4 mb 0.00 in0.0 mm 0.00 in0.0 mm 0.00 in0.0 mm
03:19 PM 93.0°F33.9°C 46.3°F7.9°C 20% 9.0 mph E14.5 kmh E -- 30.20 in1022.7 mb 0.00 in0.0 mm 0.00 in0.0 mm 0.00 in0.0 mm
03:20 PM 92.6°F33.7°C 48.5°F9.2°C 22% 9.0 mph ESE14.5 kmh ESE -- 30.19 in1022.4 mb 0.00 in0.0 mm 0.00 in0.0 mm 0.00 in0.0 mm
03:21 PM 92.6°F33.7°C 48.5°F9.2°C 22% 11.0 mph ESE17.7 kmh ESE -- 30.19 in1022.4 mb 0.00 in0.0 mm 0.00 in0.0 mm 0.00 in0.0 mm
03:22 PM 92.3°F33.5°C 48.2°F9.0°C 22% 7.0 mph E11.3 kmh E -- 30.19 in1022.4 mb 0.00 in0.0 mm 0.00 in0.0 mm 0.00 in0.0 mm
03:23 PM 92.5°F33.6°C 48.3°F9.1°C 22% 9.0 mph E14.5 kmh E -- 30.19 in1022.4 mb 0.00 in0.0 mm 0.00 in0.0 mm 0.00 in0.0 mm
03:24 PM 92.5°F33.6°C 48.3°F9.1°C 22% 12.0 mph E19.3 kmh E -- 30.20 in1022.7 mb 0.00 in0.0 mm 0.00 in0.0 mm 0.00 in0.0 mm
03:25 PM 92.3°F33.5°C 48.2°F9.0°C 22% 9.0 mph E14.5 kmh E -- 30.19 in1022.4 mb 0.00 in0.0 mm 0.00 in0.0 mm 0.00 in0.0 mm
03:26 PM 92.1°F33.4°C 45.5°F7.5°C 20% 7.0 mph NE11.3 kmh NE -- 30.20 in1022.7 mb 0.00 in0.0 mm 0.00 in0.0 mm 0.00 in0.0 mm
03:27 PM 92.1°F33.4°C 45.5°F7.5°C 20% 7.0 mph ESE11.3 kmh ESE -- 30.19 in1022.4 mb 0.00 in0.0 mm 0.00 in0.0 mm 0.00 in0.0 mm
03:28 PM 91.8°F33.2°C 45.2°F7.3°C 20% 8.0 mph ESE12.9 kmh ESE -- 30.20 in1022.7 mb 0.00 in0.0 mm 0.00 in0.0 mm 0.00 in0.0 mm
03:29 PM 91.5°F33.1°C 45.1°F7.3°C 20% 7.0 mph NNE11.3 kmh NNE -- 30.19 in1022.4 mb 0.00 in0.0 mm 0.00 in0.0 mm 0.00 in0.0 mm
03:30 PM 91.5°F33.1°C 47.6°F8.7°C 22% 11.0 mph ESE17.7 kmh ESE -- 30.20 in1022.7 mb 0.00 in0.0 mm 0.00 in0.0 mm 0.00 in0.0 mm
03:31 PM 91.5°F33.1°C 47.6°F8.7°C 22% 8.0 mph ESE12.9 kmh ESE -- 30.19 in1022.4 mb 0.00 in0.0 mm 0.00 in0.0 mm 0.00 in0.0 mm
03:32 PM 91.8°F33.2°C 47.7°F8.7°C 22% 8.0 mph SE12.9 kmh SE -- 30.20 in1022.7 mb 0.00 in0.0 mm 0.00 in0.0 mm 0.00 in0.0 mm
03:33 PM 91.5°F33.1°C 45.1°F7.3°C 20% 8.0 mph ESE12.9 kmh ESE -- 30.19 in1022.4 mb 0.00 in0.0 mm 0.00 in0.0 mm 0.00 in0.0 mm
03:34 PM 91.4°F33.0°C 44.9°F7.2°C 20% 6.0 mph ESE9.7 kmh ESE -- 30.20 in1022.7 mb 0.00 in0.0 mm 0.00 in0.0 mm 0.00 in0.0 mm
03:35 PM 91.5°F33.1°C 45.1°F7.3°C 20% 6.0 mph E9.7 kmh E -- 30.19 in1022.4 mb 0.00 in0.0 mm 0.00 in0.0 mm 0.00 in0.0 mm
03:36 PM 91.5°F33.1°C 45.1°F7.3°C 20% 4.0 mph ENE6.4 kmh ENE -- 30.20 in1022.7 mb 0.00 in0.0 mm 0.00 in0.0 mm 0.00 in0.0 mm
03:37 PM 91.5°F33.1°C 47.6°F8.7°C 22% 9.0 mph SE14.5 kmh SE -- 30.19 in1022.4 mb 0.00 in0.0 mm 0.00 in0.0 mm 0.00 in0.0 mm
03:38 PM 91.8°F33.2°C 45.2°F7.3°C 20% 12.0 mph ESE19.3 kmh ESE -- 30.20 in1022.7 mb 0.00 in0.0 mm 0.00 in0.0 mm 0.00 in0.0 mm
03:39 PM 91.8°F33.2°C 45.2°F7.3°C 20% 9.0 mph ESE14.5 kmh ESE -- 30.19 in1022.4 mb 0.00 in0.0 mm 0.00 in0.0 mm 0.00 in0.0 mm
03:40 PM 91.5°F33.1°C 47.6°F8.7°C 22% 11.0 mph ESE17.7 kmh ESE -- 30.20 in1022.7 mb 0.00 in0.0 mm 0.00 in0.0 mm 0.00 in0.0 mm
03:41 PM 91.5°F33.1°C 47.6°F8.7°C 22% 8.0 mph E12.9 kmh E -- 30.19 in1022.4 mb 0.00 in0.0 mm 0.00 in0.0 mm 0.00 in0.0 mm
03:42 PM 89.8°F32.1°C 46.1°F7.8°C 22% 6.0 mph ESE9.7 kmh ESE -- 30.20 in1022.7 mb 0.00 in0.0 mm 0.00 in0.0 mm 0.00 in0.0 mm
03:43 PM 89.6°F32.0°C 45.9°F7.7°C 22% 8.0 mph E12.9 kmh E -- 30.19 in1022.4 mb 0.00 in0.0 mm 0.00 in0.0 mm 0.00 in0.0 mm
03:44 PM 89.4°F31.9°C 45.7°F7.6°C 22% 10.0 mph NE16.1 kmh NE -- 30.20 in1022.7 mb 0.00 in0.0 mm 0.00 in0.0 mm 0.00 in0.0 mm
03:45 PM 89.0°F31.7°C 45.4°F7.4°C 22% 5.0 mph NE8.0 kmh NE -- 30.19 in1022.4 mb 0.00 in0.0 mm 0.00 in0.0 mm 0.00 in0.0 mm
03:46 PM 88.5°F31.4°C 45.0°F7.2°C 22% 4.0 mph ESE6.4 kmh ESE -- 30.20 in1022.7 mb 0.00 in0.0 mm 0.00 in0.0 mm 0.00 in0.0 mm
03:47 PM 88.1°F31.2°C 44.7°F7.1°C 22% 9.0 mph ESE14.5 kmh ESE -- 30.20 in1022.7 mb 0.00 in0.0 mm 0.00 in0.0 mm 0.00 in0.0 mm
03:48 PM 88.0°F31.1°C 44.5°F6.9°C 22% 6.0 mph ESE9.7 kmh ESE -- 30.19 in1022.4 mb 0.00 in0.0 mm 0.00 in0.0 mm 0.00 in0.0 mm
03:49 PM 87.6°F30.9°C 44.2°F6.8°C 22% 6.0 mph SE9.7 kmh SE -- 30.20 in1022.7 mb 0.00 in0.0 mm 0.00 in0.0 mm 0.00 in0.0 mm
03:50 PM 87.3°F30.7°C 43.9°F6.6°C 22% 6.0 mph ESE9.7 kmh ESE -- 30.19 in1022.4 mb 0.00 in0.0 mm 0.00 in0.0 mm 0.00 in0.0 mm
03:51 PM 87.3°F30.7°C 43.9°F6.6°C 22% 7.0 mph ESE11.3 kmh ESE -- 30.20 in1022.7 mb 0.00 in0.0 mm 0.00 in0.0 mm 0.00 in0.0 mm
03:52 PM 88.1°F31.2°C 44.7°F7.1°C 22% 8.0 mph NE12.9 kmh NE -- 30.20 in1022.7 mb 0.00 in0.0 mm 0.00 in0.0 mm 0.00 in0.0 mm
03:53 PM 88.1°F31.2°C 44.7°F7.1°C 22% 8.0 mph ESE12.9 kmh ESE -- 30.19 in1022.4 mb 0.00 in0.0 mm 0.00 in0.0 mm 0.00 in0.0 mm
03:54 PM 88.1°F31.2°C 44.7°F7.1°C 22% 9.0 mph E14.5 kmh E -- 30.20 in1022.7 mb 0.00 in0.0 mm 0.00 in0.0 mm 0.00 in0.0 mm
03:55 PM 88.0°F31.1°C 44.5°F6.9°C 22% 8.0 mph E12.9 kmh E -- 30.18 in1022.0 mb 0.00 in0.0 mm 0.00 in0.0 mm 0.00 in0.0 mm
03:56 PM 87.3°F30.7°C 43.9°F6.6°C 22% 3.0 mph E4.8 kmh E -- 30.20 in1022.7 mb 0.00 in0.0 mm 0.00 in0.0 mm 0.00 in0.0 mm
03:57 PM 86.4°F30.2°C 45.4°F7.4°C 24% 4.0 mph SSE6.4 kmh SSE -- 30.18 in1022.0 mb 0.00 in0.0 mm 0.00 in0.0 mm 0.00 in0.0 mm
03:58 PM 85.7°F29.8°C 44.8°F7.1°C 24% 1.0 mph SE1.6 kmh SE -- 30.19 in1022.4 mb 0.00 in0.0 mm 0.00 in0.0 mm 0.00 in0.0 mm
03:59 PM 85.5°F29.7°C 44.7°F7.1°C 24% 2.0 mph ESE3.2 kmh ESE -- 30.18 in1022.0 mb 0.00 in0.0 mm 0.00 in0.0 mm 0.00 in0.0 mm
04:00 PM 85.5°F29.7°C 45.7°F7.6°C 25% 4.0 mph ESE6.4 kmh ESE -- 30.19 in1022.4 mb 0.00 in0.0 mm 0.00 in0.0 mm 0.00 in0.0 mm
04:01 PM 86.0°F30.0°C 46.2°F7.9°C 25% 11.0 mph E17.7 kmh E -- 30.18 in1022.0 mb 0.00 in0.0 mm 0.00 in0.0 mm 0.00 in0.0 mm
04:02 PM 86.4°F30.2°C 46.5°F8.1°C 25% 7.0 mph ESE11.3 kmh ESE -- 30.19 in1022.4 mb 0.00 in0.0 mm 0.00 in0.0 mm 0.00 in0.0 mm
04:03 PM 86.1°F30.1°C 45.3°F7.4°C 24% 6.0 mph SE9.7 kmh SE -- 30.18 in1022.0 mb 0.00 in0.0 mm 0.00 in0.0 mm 0.00 in0.0 mm
04:04 PM 85.7°F29.8°C 44.8°F7.1°C 24% 10.0 mph ESE16.1 kmh ESE -- 30.18 in1022.0 mb 0.00 in0.0 mm 0.00 in0.0 mm 0.00 in0.0 mm
04:05 PM 85.7°F29.8°C 44.8°F7.1°C 24% 6.0 mph E9.7 kmh E -- 30.19 in1022.4 mb 0.00 in0.0 mm 0.00 in0.0 mm 0.00 in0.0 mm
04:06 PM 85.5°F29.7°C 44.7°F7.1°C 24% 3.0 mph ESE4.8 kmh ESE -- 30.18 in1022.0 mb 0.00 in0.0 mm 0.00 in0.0 mm 0.00 in0.0 mm
04:07 PM 85.5°F29.7°C 44.7°F7.1°C 24% 5.0 mph ESE8.0 kmh ESE -- 30.19 in1022.4 mb 0.00 in0.0 mm 0.00 in0.0 mm 0.00 in0.0 mm
04:08 PM 85.5°F29.7°C 44.7°F7.1°C 24% 10.0 mph SE16.1 kmh SE -- 30.18 in1022.0 mb 0.00 in0.0 mm 0.00 in0.0 mm 0.00 in0.0 mm
04:09 PM 85.5°F29.7°C 44.7°F7.1°C 24% 8.0 mph ESE12.9 kmh ESE -- 30.19 in1022.4 mb 0.00 in0.0 mm 0.00 in0.0 mm 0.00 in0.0 mm
04:10 PM 85.3°F29.6°C 44.5°F6.9°C 24% 8.0 mph ESE12.9 kmh ESE -- 30.18 in1022.0 mb 0.00 in0.0 mm 0.00 in0.0 mm 0.00 in0.0 mm
04:11 PM 85.1°F29.5°C 44.4°F6.9°C 24% 7.0 mph ESE11.3 kmh ESE -- 30.18 in1022.0 mb 0.00 in0.0 mm 0.00 in0.0 mm 0.00 in0.0 mm
04:12 PM 84.6°F29.2°C 43.9°F6.6°C 24% 12.0 mph SSE19.3 kmh SSE -- 30.19 in1022.4 mb 0.00 in0.0 mm 0.00 in0.0 mm 0.00 in0.0 mm
04:13 PM 84.6°F29.2°C 43.9°F6.6°C 24% 5.0 mph ESE8.0 kmh ESE -- 30.19 in1022.4 mb 0.00 in0.0 mm 0.00 in0.0 mm 0.00 in0.0 mm
04:14 PM 84.4°F29.1°C 43.7°F6.5°C 24% 8.0 mph SE12.9 kmh SE -- 30.18 in1022.0 mb 0.00 in0.0 mm 0.00 in0.0 mm 0.00 in0.0 mm
04:15 PM 84.2°F29.0°C 43.6°F6.4°C 24% 6.0 mph SE9.7 kmh SE -- 30.18 in1022.0 mb 0.00 in0.0 mm 0.00 in0.0 mm 0.00 in0.0 mm
04:16 PM 83.9°F28.8°C 43.3°F6.3°C 24% 7.0 mph SE11.3 kmh SE -- 30.19 in1022.4 mb 0.00 in0.0 mm 0.00 in0.0 mm 0.00 in0.0 mm
04:17 PM 83.8°F28.8°C 43.3°F6.3°C 24% 5.0 mph ESE8.0 kmh ESE -- 30.19 in1022.4 mb 0.00 in0.0 mm 0.00 in0.0 mm 0.00 in0.0 mm
04:18 PM 83.8°F28.8°C 44.3°F6.8°C 25% 5.0 mph ESE8.0 kmh ESE -- 30.18 in1022.0 mb 0.00 in0.0 mm 0.00 in0.0 mm 0.00 in0.0 mm
04:19 PM 83.9°F28.8°C 44.3°F6.8°C 25% 10.0 mph ESE16.1 kmh ESE -- 30.18 in1022.0 mb 0.00 in0.0 mm 0.00 in0.0 mm 0.00 in0.0 mm
04:20 PM 84.2°F29.0°C 44.7°F7.1°C 25% 8.0 mph ESE12.9 kmh ESE -- 30.19 in1022.4 mb 0.00 in0.0 mm 0.00 in0.0 mm 0.00 in0.0 mm
04:21 PM 84.2°F29.0°C 44.7°F7.1°C 25% 8.0 mph ESE12.9 kmh ESE -- 30.18 in1022.0 mb 0.00 in0.0 mm 0.00 in0.0 mm 0.00 in0.0 mm
04:22 PM 84.2°F29.0°C 44.7°F7.1°C 25% 6.0 mph ESE9.7 kmh ESE -- 30.18 in1022.0 mb 0.00 in0.0 mm 0.00 in0.0 mm 0.00 in0.0 mm
04:23 PM 83.9°F28.8°C 44.3°F6.8°C 25% 7.0 mph ESE11.3 kmh ESE -- 30.19 in1022.4 mb 0.00 in0.0 mm 0.00 in0.0 mm 0.00 in0.0 mm
04:24 PM 83.9°F28.8°C 44.3°F6.8°C 25% 5.0 mph ESE8.0 kmh ESE -- 30.19 in1022.4 mb 0.00 in0.0 mm 0.00 in0.0 mm 0.00 in0.0 mm
04:25 PM 83.9°F28.8°C 44.3°F6.8°C 25% 6.0 mph ESE9.7 kmh ESE -- 30.19 in1022.4 mb 0.00 in0.0 mm 0.00 in0.0 mm 0.00 in0.0 mm
04:26 PM 83.9°F28.8°C 44.3°F6.8°C 25% 5.0 mph ESE8.0 kmh ESE -- 30.18 in1022.0 mb 0.00 in0.0 mm 0.00 in0.0 mm 0.00 in0.0 mm
04:27 PM 83.8°F28.8°C 44.3°F6.8°C 25% 5.0 mph ESE8.0 kmh ESE -- 30.18 in1022.0 mb 0.00 in0.0 mm 0.00 in0.0 mm 0.00 in0.0 mm
04:28 PM 83.8°F28.8°C 44.3°F6.8°C 25% 5.0 mph ESE8.0 kmh ESE -- 30.17 in1021.7 mb 0.00 in0.0 mm 0.00 in0.0 mm 0.00 in0.0 mm
04:29 PM 83.6°F28.7°C 44.2°F6.8°C 25% 5.0 mph ESE8.0 kmh ESE -- 30.19 in1022.4 mb 0.00 in0.0 mm 0.00 in0.0 mm 0.00 in0.0 mm
04:30 PM 83.6°F28.7°C 44.2°F6.8°C 25% 7.0 mph ESE11.3 kmh ESE -- 30.17 in1021.7 mb 0.00 in0.0 mm 0.00 in0.0 mm 0.00 in0.0 mm
04:31 PM 83.6°F28.7°C 44.2°F6.8°C 25% 8.0 mph ESE12.9 kmh ESE -- 30.17 in1021.7 mb 0.00 in0.0 mm 0.00 in0.0 mm 0.00 in0.0 mm
04:32 PM 83.8°F28.8°C 43.3°F6.3°C 24% 8.0 mph ESE12.9 kmh ESE -- 30.17 in1021.7 mb 0.00 in0.0 mm 0.00 in0.0 mm 0.00 in0.0 mm
04:33 PM 83.8°F28.8°C 43.3°F6.3°C 24% 6.0 mph ESE9.7 kmh ESE -- 30.18 in1022.0 mb 0.00 in0.0 mm 0.00 in0.0 mm 0.00 in0.0 mm
04:34 PM 83.8°F28.8°C 43.3°F6.3°C 24% 8.0 mph ESE12.9 kmh ESE -- 30.18 in1022.0 mb 0.00 in0.0 mm 0.00 in0.0 mm 0.00 in0.0 mm
04:35 PM 83.6°F28.7°C 44.2°F6.8°C 25% 7.0 mph ESE11.3 kmh ESE -- 30.17 in1021.7 mb 0.00 in0.0 mm 0.00 in0.0 mm 0.00 in0.0 mm
04:36 PM 83.8°F28.8°C 44.3°F6.8°C 25% 7.0 mph SE11.3 kmh SE -- 30.18 in1022.0 mb 0.00 in0.0 mm 0.00 in0.0 mm 0.00 in0.0 mm
04:37 PM 83.8°F28.8°C 43.3°F6.3°C 24% 7.0 mph ESE11.3 kmh ESE -- 30.18 in1022.0 mb 0.00 in0.0 mm 0.00 in0.0 mm 0.00 in0.0 mm
04:38 PM 83.8°F28.8°C 43.3°F6.3°C 24% 5.0 mph ESE8.0 kmh ESE -- 30.17 in1021.7 mb 0.00 in0.0 mm 0.00 in0.0 mm 0.00 in0.0 mm
04:39 PM 83.8°F28.8°C 43.3°F6.3°C 24% 4.0 mph ENE6.4 kmh ENE -- 30.17 in1021.7 mb 0.00 in0.0 mm 0.00 in0.0 mm 0.00 in0.0 mm
04:40 PM 83.8°F28.8°C 43.3°F6.3°C 24% 4.0 mph ESE6.4 kmh ESE -- 30.18 in1022.0 mb 0.00 in0.0 mm 0.00 in0.0 mm 0.00 in0.0 mm
04:42 PM 83.8°F28.8°C 44.3°F6.8°C 25% 4.0 mph ESE6.4 kmh ESE -- 30.17 in1021.7 mb 0.00 in0.0 mm 0.00 in0.0 mm 0.00 in0.0 mm
04:43 PM 83.8°F28.8°C 44.3°F6.8°C 25% 6.0 mph SE9.7 kmh SE -- 30.18 in1022.0 mb 0.00 in0.0 mm 0.00 in0.0 mm 0.00 in0.0 mm
04:44 PM 83.6°F28.7°C 44.2°F6.8°C 25% 5.0 mph ESE8.0 kmh ESE -- 30.18 in1022.0 mb 0.00 in0.0 mm 0.00 in0.0 mm 0.00 in0.0 mm
04:45 PM 83.5°F28.6°C 44.0°F6.7°C 25% 6.0 mph SE9.7 kmh SE -- 30.19 in1022.4 mb 0.00 in0.0 mm 0.00 in0.0 mm 0.00 in0.0 mm
04:46 PM 83.5°F28.6°C 44.0°F6.7°C 25% 6.0 mph SSE9.7 kmh SSE -- 30.18 in1022.0 mb 0.00 in0.0 mm 0.00 in0.0 mm 0.00 in0.0 mm
04:47 PM 83.5°F28.6°C 43.0°F6.1°C 24% 7.0 mph ESE11.3 kmh ESE -- 30.18 in1022.0 mb 0.00 in0.0 mm 0.00 in0.0 mm 0.00 in0.0 mm
04:48 PM 83.5°F28.6°C 44.0°F6.7°C 25% 6.0 mph ESE9.7 kmh ESE -- 30.18 in1022.0 mb 0.00 in0.0 mm 0.00 in0.0 mm 0.00 in0.0 mm
04:49 PM 83.5°F28.6°C 44.0°F6.7°C 25% 6.0 mph SSE9.7 kmh SSE -- 30.19 in1022.4 mb 0.00 in0.0 mm 0.00 in0.0 mm 0.00 in0.0 mm
04:50 PM 83.5°F28.6°C 44.0°F6.7°C 25% 6.0 mph ESE9.7 kmh ESE -- 30.18 in1022.0 mb 0.00 in0.0 mm 0.00 in0.0 mm 0.00 in0.0 mm
04:51 PM 83.5°F28.6°C 43.0°F6.1°C 24% 6.0 mph ESE9.7 kmh ESE -- 30.18 in1022.0 mb 0.00 in0.0 mm 0.00 in0.0 mm 0.00 in0.0 mm
04:52 PM 83.5°F28.6°C 43.0°F6.1°C 24% 3.0 mph ESE4.8 kmh ESE -- 30.18 in1022.0 mb 0.00 in0.0 mm 0.00 in0.0 mm 0.00 in0.0 mm
04:53 PM 83.2°F28.4°C 43.7°F6.5°C 25% 4.0 mph SE6.4 kmh SE -- 30.18 in1022.0 mb 0.00 in0.0 mm 0.00 in0.0 mm 0.00 in0.0 mm
04:54 PM 83.2°F28.4°C 43.7°F6.5°C 25% 5.0 mph ESE8.0 kmh ESE -- 30.18 in1022.0 mb 0.00 in0.0 mm 0.00 in0.0 mm 0.00 in0.0 mm
04:55 PM 83.2°F28.4°C 43.7°F6.5°C 25% 4.0 mph SSE6.4 kmh SSE -- 30.17 in1021.7 mb 0.00 in0.0 mm 0.00 in0.0 mm 0.00 in0.0 mm
04:56 PM 83.2°F28.4°C 43.7°F6.5°C 25% 4.0 mph ESE6.4 kmh ESE -- 30.18 in1022.0 mb 0.00 in0.0 mm 0.00 in0.0 mm 0.00 in0.0 mm
04:57 PM 83.2°F28.4°C 43.7°F6.5°C 25% 5.0 mph SE8.0 kmh SE -- 30.18 in1022.0 mb 0.00 in0.0 mm 0.00 in0.0 mm 0.00 in0.0 mm
04:58 PM 83.2°F28.4°C 43.7°F6.5°C 25% 5.0 mph SSE8.0 kmh SSE -- 30.18 in1022.0 mb 0.00 in0.0 mm 0.00 in0.0 mm 0.00 in0.0 mm
04:59 PM 83.2°F28.4°C 43.7°F6.5°C 25% 3.0 mph ESE4.8 kmh ESE -- 30.17 in1021.7 mb 0.00 in0.0 mm 0.00 in0.0 mm 0.00 in0.0 mm
05:00 PM 83.2°F28.4°C 43.7°F6.5°C 25% 5.0 mph SSE8.0 kmh SSE -- 30.17 in1021.7 mb 0.00 in0.0 mm 0.00 in0.0 mm 0.00 in0.0 mm
05:02 PM 83.2°F28.4°C 43.7°F6.5°C 25% 5.0 mph SE8.0 kmh SE -- 30.18 in1022.0 mb 0.00 in0.0 mm 0.00 in0.0 mm 0.00 in0.0 mm
05:03 PM 83.2°F28.4°C 43.7°F6.5°C 25% 5.0 mph SSE8.0 kmh SSE -- 30.18 in1022.0 mb 0.00 in0.0 mm 0.00 in0.0 mm 0.00 in0.0 mm
05:04 PM 83.2°F28.4°C 43.7°F6.5°C 25% 4.0 mph E6.4 kmh E -- 30.18 in1022.0 mb 0.00 in0.0 mm 0.00 in0.0 mm 0.00 in0.0 mm
05:05 PM 83.0°F28.3°C 43.6°F6.4°C 25% 3.0 mph ESE4.8 kmh ESE -- 30.17 in1021.7 mb 0.00 in0.0 mm 0.00 in0.0 mm 0.00 in0.0 mm
05:06 PM 83.0°F28.3°C 43.6°F6.4°C 25% 5.0 mph SSE8.0 kmh SSE -- 30.18 in1022.0 mb 0.00 in0.0 mm 0.00 in0.0 mm 0.00 in0.0 mm
05:07 PM 83.0°F28.3°C 43.6°F6.4°C 25% 5.0 mph ESE8.0 kmh ESE -- 30.17 in1021.7 mb 0.00 in0.0 mm 0.00 in0.0 mm 0.00 in0.0 mm
05:08 PM 83.2°F28.4°C 43.7°F6.5°C 25% 6.0 mph SSE9.7 kmh SSE -- 30.18 in1022.0 mb 0.00 in0.0 mm 0.00 in0.0 mm 0.00 in0.0 mm
05:09 PM 83.2°F28.4°C 43.7°F6.5°C 25% 5.0 mph SE8.0 kmh SE -- 30.17 in1021.7 mb 0.00 in0.0 mm 0.00 in0.0 mm 0.00 in0.0 mm
05:10 PM 83.0°F28.3°C 43.6°F6.4°C 25% 4.0 mph SE6.4 kmh SE -- 30.18 in1022.0 mb 0.00 in0.0 mm 0.00 in0.0 mm 0.00 in0.0 mm
05:11 PM 83.0°F28.3°C 43.6°F6.4°C 25% 6.0 mph SE9.7 kmh SE -- 30.18 in1022.0 mb 0.00 in0.0 mm 0.00 in0.0 mm 0.00 in0.0 mm
05:12 PM 83.0°F28.3°C 43.6°F6.4°C 25% 5.0 mph SE8.0 kmh SE -- 30.17 in1021.7 mb 0.00 in0.0 mm 0.00 in0.0 mm 0.00 in0.0 mm
05:13 PM 83.2°F28.4°C 42.7°F5.9°C 24% 4.0 mph SE6.4 kmh SE -- 30.18 in1022.0 mb 0.00 in0.0 mm 0.00 in0.0 mm 0.00 in0.0 mm
05:14 PM 83.2°F28.4°C 42.7°F5.9°C 24% 5.0 mph ESE8.0 kmh ESE -- 30.17 in1021.7 mb 0.00 in0.0 mm 0.00 in0.0 mm 0.00 in0.0 mm
05:15 PM 83.2°F28.4°C 42.7°F5.9°C 24% 5.0 mph SE8.0 kmh SE -- 30.19 in1022.4 mb 0.00 in0.0 mm 0.00 in0.0 mm 0.00 in0.0 mm
05:16 PM 83.0°F28.3°C 43.6°F6.4°C 25% 4.0 mph ESE6.4 kmh ESE -- 30.17 in1021.7 mb 0.00 in0.0 mm 0.00 in0.0 mm 0.00 in0.0 mm
05:17 PM 83.0°F28.3°C 43.6°F6.4°C 25% 5.0 mph SE8.0 kmh SE -- 30.18 in1022.0 mb 0.00 in0.0 mm 0.00 in0.0 mm 0.00 in0.0 mm
05:18 PM 83.0°F28.3°C 42.5°F5.8°C 24% 4.0 mph SSE6.4 kmh SSE -- 30.17 in1021.7 mb 0.00 in0.0 mm 0.00 in0.0 mm 0.00 in0.0 mm
05:19 PM 83.0°F28.3°C 43.6°F6.4°C 25% 4.0 mph SE6.4 kmh SE -- 30.19 in1022.4 mb 0.00 in0.0 mm 0.00 in0.0 mm 0.00 in0.0 mm
05:20 PM 83.0°F28.3°C 43.6°F6.4°C 25% 4.0 mph SSE6.4 kmh SSE -- 30.17 in1021.7 mb 0.00 in0.0 mm 0.00 in0.0 mm 0.00 in0.0 mm
05:21 PM 83.0°F28.3°C 43.6°F6.4°C 25% 4.0 mph SSE6.4 kmh SSE -- 30.19 in1022.4 mb 0.00 in0.0 mm 0.00 in0.0 mm 0.00 in0.0 mm
05:22 PM 83.0°F28.3°C 42.5°F5.8°C 24% 4.0 mph S6.4 kmh S -- 30.18 in1022.0 mb 0.00 in0.0 mm 0.00 in0.0 mm 0.00 in0.0 mm
05:23 PM 83.0°F28.3°C 42.5°F5.8°C 24% 5.0 mph S8.0 kmh S -- 30.19 in1022.4 mb 0.00 in0.0 mm 0.00 in0.0 mm 0.00 in0.0 mm
05:24 PM 83.0°F28.3°C 42.5°F5.8°C 24% 3.0 mph SE4.8 kmh SE -- 30.17 in1021.7 mb 0.00 in0.0 mm 0.00 in0.0 mm 0.00 in0.0 mm
05:25 PM 83.0°F28.3°C 43.6°F6.4°C 25% 4.0 mph ESE6.4 kmh ESE -- 30.19 in1022.4 mb 0.00 in0.0 mm 0.00 in0.0 mm 0.00 in0.0 mm
05:26 PM 83.2°F28.4°C 43.7°F6.5°C 25% 4.0 mph SE6.4 kmh SE -- 30.18 in1022.0 mb 0.00 in0.0 mm 0.00 in0.0 mm 0.00 in0.0 mm
05:27 PM 83.0°F28.3°C 43.6°F6.4°C 25% 4.0 mph SSE6.4 kmh SSE -- 30.18 in1022.0 mb 0.00 in0.0 mm 0.00 in0.0 mm 0.00 in0.0 mm
05:28 PM 83.0°F28.3°C 43.6°F6.4°C 25% 4.0 mph SE6.4 kmh SE -- 30.19 in1022.4 mb 0.00 in0.0 mm 0.00 in0.0 mm 0.00 in0.0 mm
05:29 PM 83.0°F28.3°C 43.6°F6.4°C 25% 5.0 mph SE8.0 kmh SE -- 30.18 in1022.0 mb 0.00 in0.0 mm 0.00 in0.0 mm 0.00 in0.0 mm
05:30 PM 83.0°F28.3°C 42.5°F5.8°C 24% 4.0 mph SE6.4 kmh SE -- 30.19 in1022.4 mb 0.00 in0.0 mm 0.00 in0.0 mm 0.00 in0.0 mm
05:31 PM 83.0°F28.3°C 43.6°F6.4°C 25% 2.0 mph ESE3.2 kmh ESE -- 30.17 in1021.7 mb 0.00 in0.0 mm 0.00 in0.0 mm 0.00 in0.0 mm
05:32 PM 82.8°F28.2°C 43.4°F6.3°C 25% 3.0 mph ESE4.8 kmh ESE -- 30.19 in1022.4 mb 0.00 in0.0 mm 0.00 in0.0 mm 0.00 in0.0 mm
05:33 PM 82.8°F28.2°C 43.4°F6.3°C 25% 3.0 mph ESE4.8 kmh ESE -- 30.18 in1022.0 mb 0.00 in0.0 mm 0.00 in0.0 mm 0.00 in0.0 mm
05:34 PM 82.8°F28.2°C 43.4°F6.3°C 25% 2.0 mph ESE3.2 kmh ESE -- 30.19 in1022.4 mb 0.00 in0.0 mm 0.00 in0.0 mm 0.00 in0.0 mm
05:35 PM 82.8°F28.2°C 43.4°F6.3°C 25% 2.0 mph SSE3.2 kmh SSE -- 30.17 in1021.7 mb 0.00 in0.0 mm 0.00 in0.0 mm 0.00 in0.0 mm
05:36 PM 82.8°F28.2°C 43.4°F6.3°C 25% 2.0 mph SE3.2 kmh SE -- 30.19 in1022.4 mb 0.00 in0.0 mm 0.00 in0.0 mm 0.00 in0.0 mm
05:37 PM 82.8°F28.2°C 43.4°F6.3°C 25% 2.0 mph ESE3.2 kmh ESE -- 30.18 in1022.0 mb 0.00 in0.0 mm 0.00 in0.0 mm 0.00 in0.0 mm
05:38 PM 82.8°F28.2°C 43.4°F6.3°C 25% 2.0 mph SE3.2 kmh SE -- 30.18 in1022.0 mb 0.00 in0.0 mm 0.00 in0.0 mm 0.00 in0.0 mm
05:39 PM 82.8°F28.2°C 43.4°F6.3°C 25% 3.0 mph SSE4.8 kmh SSE -- 30.17 in1021.7 mb 0.00 in0.0 mm 0.00 in0.0 mm 0.00 in0.0 mm
05:40 PM 82.8°F28.2°C 43.4°F6.3°C 25% 2.0 mph SE3.2 kmh SE -- 30.18 in1022.0 mb 0.00 in0.0 mm 0.00 in0.0 mm 0.00 in0.0 mm
05:42 PM 82.8°F28.2°C 43.4°F6.3°C 25% 3.0 mph SE4.8 kmh SE -- 30.18 in1022.0 mb 0.00 in0.0 mm 0.00 in0.0 mm 0.00 in0.0 mm
05:43 PM 82.8°F28.2°C 43.4°F6.3°C 25% 2.0 mph SE3.2 kmh SE -- 30.18 in1022.0 mb 0.00 in0.0 mm 0.00 in0.0 mm 0.00 in0.0 mm
05:44 PM 82.8°F28.2°C 43.4°F6.3°C 25% 1.0 mph SE1.6 kmh SE -- 30.18 in1022.0 mb 0.00 in0.0 mm 0.00 in0.0 mm 0.00 in0.0 mm
05:45 PM 82.8°F28.2°C 43.4°F6.3°C 25% 4.0 mph ESE6.4 kmh ESE -- 30.18 in1022.0 mb 0.00 in0.0 mm 0.00 in0.0 mm 0.00 in0.0 mm
05:46 PM 82.8°F28.2°C 43.4°F6.3°C 25% 3.0 mph SE4.8 kmh SE -- 30.18 in1022.0 mb 0.00 in0.0 mm 0.00 in0.0 mm 0.00 in0.0 mm
05:47 PM 82.8°F28.2°C 43.4°F6.3°C 25% 3.0 mph ESE4.8 kmh ESE -- 30.19 in1022.4 mb 0.00 in0.0 mm 0.00 in0.0 mm 0.00 in0.0 mm
05:48 PM 82.8°F28.2°C 43.4°F6.3°C 25% 4.0 mph ESE6.4 kmh ESE -- 30.17 in1021.7 mb 0.00 in0.0 mm 0.00 in0.0 mm 0.00 in0.0 mm
05:49 PM 82.8°F28.2°C 43.4°F6.3°C 25% 3.0 mph ESE4.8 kmh ESE -- 30.19 in1022.4 mb 0.00 in0.0 mm 0.00 in0.0 mm 0.00 in0.0 mm
05:50 PM 82.8°F28.2°C 43.4°F6.3°C 25% 3.0 mph SE4.8 kmh SE -- 30.18 in1022.0 mb 0.00 in0.0 mm 0.00 in0.0 mm 0.00 in0.0 mm
05:51 PM 82.8°F28.2°C 43.4°F6.3°C 25% 3.0 mph ESE4.8 kmh ESE -- 30.19 in1022.4 mb 0.00 in0.0 mm 0.00 in0.0 mm 0.00 in0.0 mm
05:52 PM 82.8°F28.2°C 43.4°F6.3°C 25% 2.0 mph ESE3.2 kmh ESE -- 30.17 in1021.7 mb 0.00 in0.0 mm 0.00 in0.0 mm 0.00 in0.0 mm
05:53 PM 83.0°F28.3°C 43.6°F6.4°C 25% 2.0 mph ESE3.2 kmh ESE -- 30.19 in1022.4 mb 0.00 in0.0 mm 0.00 in0.0 mm 0.00 in0.0 mm
05:54 PM 83.2°F28.4°C 43.7°F6.5°C 25% 2.0 mph SE3.2 kmh SE -- 30.18 in1022.0 mb 0.00 in0.0 mm 0.00 in0.0 mm 0.00 in0.0 mm
05:55 PM 83.5°F28.6°C 46.0°F7.8°C 27% 2.0 mph ESE3.2 kmh ESE -- 30.19 in1022.4 mb 0.00 in0.0 mm 0.00 in0.0 mm 0.00 in0.0 mm
05:56 PM 83.8°F28.8°C 44.3°F6.8°C 25% 2.0 mph ESE3.2 kmh ESE -- 30.18 in1022.0 mb 0.00 in0.0 mm 0.00 in0.0 mm 0.00 in0.0 mm
05:57 PM 83.9°F28.8°C 44.3°F6.8°C 25% 3.0 mph SE4.8 kmh SE -- 30.19 in1022.4 mb 0.00 in0.0 mm 0.00 in0.0 mm 0.00 in0.0 mm
05:58 PM 84.6°F29.2°C 43.9°F6.6°C 24% 4.0 mph SE6.4 kmh SE -- 30.18 in1022.0 mb 0.00 in0.0 mm 0.00 in0.0 mm 0.00 in0.0 mm
05:59 PM 84.6°F29.2°C 43.9°F6.6°C 24% 3.0 mph SSE4.8 kmh SSE -- 30.19 in1022.4 mb 0.00 in0.0 mm 0.00 in0.0 mm 0.00 in0.0 mm
06:00 PM 84.6°F29.2°C 43.9°F6.6°C 24% 3.0 mph SE4.8 kmh SE -- 30.19 in1022.4 mb 0.00 in0.0 mm 0.00 in0.0 mm 0.00 in0.0 mm
06:01 PM 84.6°F29.2°C 45.0°F7.2°C 25% 3.0 mph ESE4.8 kmh ESE -- 30.18 in1022.0 mb 0.00 in0.0 mm 0.00 in0.0 mm 0.00 in0.0 mm
06:02 PM 85.1°F29.5°C 45.4°F7.4°C 25% 3.0 mph ESE4.8 kmh ESE -- 30.19 in1022.4 mb 0.00 in0.0 mm 0.00 in0.0 mm 0.00 in0.0 mm
06:03 PM 85.1°F29.5°C 45.4°F7.4°C 25% 3.0 mph ESE4.8 kmh ESE -- 30.18 in1022.0 mb 0.00 in0.0 mm 0.00 in0.0 mm 0.00 in0.0 mm
06:04 PM 85.3°F29.6°C 44.5°F6.9°C 24% 4.0 mph SE6.4 kmh SE -- 30.19 in1022.4 mb 0.00 in0.0 mm 0.00 in0.0 mm 0.00 in0.0 mm
06:05 PM 85.3°F29.6°C 42.2°F5.7°C 22% 4.0 mph SE6.4 kmh SE -- 30.18 in1022.0 mb 0.00 in0.0 mm 0.00 in0.0 mm 0.00 in0.0 mm
06:06 PM 85.3°F29.6°C 42.2°F5.7°C 22% 5.0 mph ESE8.0 kmh ESE -- 30.19 in1022.4 mb 0.00 in0.0 mm 0.00 in0.0 mm 0.00 in0.0 mm
06:07 PM 85.5°F29.7°C 42.4°F5.8°C 22% 5.0 mph ESE8.0 kmh ESE -- 30.17 in1021.7 mb 0.00 in0.0 mm 0.00 in0.0 mm 0.00 in0.0 mm
06:08 PM 85.5°F29.7°C 42.4°F5.8°C 22% 5.0 mph ESE8.0 kmh ESE -- 30.19 in1022.4 mb 0.00 in0.0 mm 0.00 in0.0 mm 0.00 in0.0 mm
06:09 PM 85.5°F29.7°C 42.4°F5.8°C 22% 4.0 mph ESE6.4 kmh ESE -- 30.18 in1022.0 mb 0.00 in0.0 mm 0.00 in0.0 mm 0.00 in0.0 mm
06:10 PM 85.5°F29.7°C 42.4°F5.8°C 22% 3.0 mph ESE4.8 kmh ESE -- 30.19 in1022.4 mb 0.00 in0.0 mm 0.00 in0.0 mm 0.00 in0.0 mm
06:12 PM 85.5°F29.7°C 42.4°F5.8°C 22% 4.0 mph ESE6.4 kmh ESE -- 30.18 in1022.0 mb 0.00 in0.0 mm 0.00 in0.0 mm 0.00 in0.0 mm
06:13 PM 85.3°F29.6°C 44.5°F6.9°C 24% 3.0 mph SE4.8 kmh SE -- 30.17 in1021.7 mb 0.00 in0.0 mm 0.00 in0.0 mm 0.00 in0.0 mm
06:14 PM 85.1°F29.5°C 44.4°F6.9°C 24% 3.0 mph ESE4.8 kmh ESE -- 30.18 in1022.0 mb 0.00 in0.0 mm 0.00 in0.0 mm 0.00 in0.0 mm
06:15 PM 84.6°F29.2°C 41.6°F5.3°C 22% 4.0 mph ESE6.4 kmh ESE -- 30.18 in1022.0 mb 0.00 in0.0 mm 0.00 in0.0 mm 0.00 in0.0 mm
06:16 PM 84.6°F29.2°C 41.6°F5.3°C 22% 3.0 mph SE4.8 kmh SE -- 30.17 in1021.7 mb 0.00 in0.0 mm 0.00 in0.0 mm 0.00 in0.0 mm
06:17 PM 84.2°F29.0°C 41.3°F5.2°C 22% 4.0 mph SE6.4 kmh SE -- 30.18 in1022.0 mb 0.00 in0.0 mm 0.00 in0.0 mm 0.00 in0.0 mm
06:18 PM 83.9°F28.8°C 43.3°F6.3°C 24% 3.0 mph ESE4.8 kmh ESE -- 30.17 in1021.7 mb 0.00 in0.0 mm 0.00 in0.0 mm 0.00 in0.0 mm
06:19 PM 83.9°F28.8°C 43.3°F6.3°C 24% 3.0 mph ESE4.8 kmh ESE -- 30.18 in1022.0 mb 0.00 in0.0 mm 0.00 in0.0 mm 0.00 in0.0 mm
06:20 PM 83.6°F28.7°C 43.1°F6.2°C 24% 3.0 mph ESE4.8 kmh ESE -- 30.17 in1021.7 mb 0.00 in0.0 mm 0.00 in0.0 mm 0.00 in0.0 mm
06:21 PM 83.5°F28.6°C 43.0°F6.1°C 24% 2.0 mph ESE3.2 kmh ESE -- 30.18 in1022.0 mb 0.00 in0.0 mm 0.00 in0.0 mm 0.00 in0.0 mm
06:22 PM 83.0°F28.3°C 43.6°F6.4°C 25% 2.0 mph ESE3.2 kmh ESE -- 30.17 in1021.7 mb 0.00 in0.0 mm 0.00 in0.0 mm 0.00 in0.0 mm
06:23 PM 83.0°F28.3°C 42.5°F5.8°C 24% 3.0 mph ESE4.8 kmh ESE -- 30.18 in1022.0 mb 0.00 in0.0 mm 0.00 in0.0 mm 0.00 in0.0 mm
06:24 PM 83.2°F28.4°C 42.7°F5.9°C 24% 2.0 mph ESE3.2 kmh ESE -- 30.17 in1021.7 mb 0.00 in0.0 mm 0.00 in0.0 mm 0.00 in0.0 mm
06:25 PM 83.2°F28.4°C 42.7°F5.9°C 24% 3.0 mph ESE4.8 kmh ESE -- 30.19 in1022.4 mb 0.00 in0.0 mm 0.00 in0.0 mm 0.00 in0.0 mm
06:26 PM 83.2°F28.4°C 42.7°F5.9°C 24% 2.0 mph ESE3.2 kmh ESE -- 30.17 in1021.7 mb 0.00 in0.0 mm 0.00 in0.0 mm 0.00 in0.0 mm
06:27 PM 83.2°F28.4°C 42.7°F5.9°C 24% 2.0 mph ESE3.2 kmh ESE -- 30.18 in1022.0 mb 0.00 in0.0 mm 0.00 in0.0 mm 0.00 in0.0 mm
06:28 PM 83.5°F28.6°C 43.0°F6.1°C 24% 3.0 mph ESE4.8 kmh ESE -- 30.17 in1021.7 mb 0.00 in0.0 mm 0.00 in0.0 mm 0.00 in0.0 mm
06:29 PM 83.5°F28.6°C 40.7°F4.8°C 22% 3.0 mph ESE4.8 kmh ESE -- 30.18 in1022.0 mb 0.00 in0.0 mm 0.00 in0.0 mm 0.00 in0.0 mm
06:31 PM 83.0°F28.3°C 40.3°F4.6°C 22% 2.0 mph ESE3.2 kmh ESE -- 30.18 in1022.0 mb 0.00 in0.0 mm 0.00 in0.0 mm 0.00 in0.0 mm
06:32 PM 82.8°F28.2°C 42.4°F5.8°C 24% 1.0 mph ESE1.6 kmh ESE -- 30.18 in1022.0 mb 0.00 in0.0 mm 0.00 in0.0 mm 0.00 in0.0 mm
06:33 PM 83.0°F28.3°C 42.5°F5.8°C 24% 2.0 mph ESE3.2 kmh ESE -- 30.17 in1021.7 mb 0.00 in0.0 mm 0.00 in0.0 mm 0.00 in0.0 mm
06:34 PM 83.0°F28.3°C 42.5°F5.8°C 24% 2.0 mph ESE3.2 kmh ESE -- 30.18 in1022.0 mb 0.00 in0.0 mm 0.00 in0.0 mm 0.00 in0.0 mm
06:35 PM 83.0°F28.3°C 42.5°F5.8°C 24% 2.0 mph E3.2 kmh E -- 30.16 in1021.3 mb 0.00 in0.0 mm 0.00 in0.0 mm 0.00 in0.0 mm
06:36 PM 83.0°F28.3°C 42.5°F5.8°C 24% 2.0 mph ENE3.2 kmh ENE -- 30.18 in1022.0 mb 0.00 in0.0 mm 0.00 in0.0 mm 0.00 in0.0 mm
06:37 PM 83.0°F28.3°C 42.5°F5.8°C 24% 1.0 mph ESE1.6 kmh ESE -- 30.16 in1021.3 mb 0.00 in0.0 mm 0.00 in0.0 mm 0.00 in0.0 mm
06:38 PM 83.2°F28.4°C 42.7°F5.9°C 24% 1.0 mph ESE1.6 kmh ESE -- 30.18 in1022.0 mb 0.00 in0.0 mm 0.00 in0.0 mm 0.00 in0.0 mm
06:39 PM 83.2°F28.4°C 42.7°F5.9°C 24% 2.0 mph E3.2 kmh E -- 30.16 in1021.3 mb 0.00 in0.0 mm 0.00 in0.0 mm 0.00 in0.0 mm
06:40 PM 83.5°F28.6°C 43.0°F6.1°C 24% 2.0 mph ESE3.2 kmh ESE -- 30.18 in1022.0 mb 0.00 in0.0 mm 0.00 in0.0 mm 0.00 in0.0 mm
06:41 PM 83.5°F28.6°C 43.0°F6.1°C 24% 2.0 mph E3.2 kmh E -- 30.17 in1021.7 mb 0.00 in0.0 mm 0.00 in0.0 mm 0.00 in0.0 mm
06:42 PM 83.5°F28.6°C 43.0°F6.1°C 24% 1.0 mph ESE1.6 kmh ESE -- 30.17 in1021.7 mb 0.00 in0.0 mm 0.00 in0.0 mm 0.00 in0.0 mm
06:43 PM 83.5°F28.6°C 43.0°F6.1°C 24% 1.0 mph ESE1.6 kmh ESE -- 30.16 in1021.3 mb 0.00 in0.0 mm 0.00 in0.0 mm 0.00 in0.0 mm
06:44 PM 83.5°F28.6°C 43.0°F6.1°C 24% 2.0 mph ESE3.2 kmh ESE -- 30.17 in1021.7 mb 0.00 in0.0 mm 0.00 in0.0 mm 0.00 in0.0 mm
06:45 PM 83.5°F28.6°C 43.0°F6.1°C 24% Calm Calm -- 30.16 in1021.3 mb 0.00 in0.0 mm 0.00 in0.0 mm 0.00 in0.0 mm
06:46 PM 83.5°F28.6°C 43.0°F6.1°C 24% Calm Calm -- 30.17 in1021.7 mb 0.00 in0.0 mm 0.00 in0.0 mm 0.00 in0.0 mm
06:48 PM 83.2°F28.4°C 42.7°F5.9°C 24% Calm Calm -- 30.17 in1021.7 mb 0.00 in0.0 mm 0.00 in0.0 mm 0.00 in0.0 mm
06:49 PM 83.2°F28.4°C 42.7°F5.9°C 24% Calm Calm -- 30.16 in1021.3 mb 0.00 in0.0 mm 0.00 in0.0 mm 0.00 in0.0 mm
06:50 PM 83.0°F28.3°C 42.5°F5.8°C 24% Calm Calm -- 30.17 in1021.7 mb 0.00 in0.0 mm 0.00 in0.0 mm 0.00 in0.0 mm
06:51 PM 82.8°F28.2°C 42.4°F5.8°C 24% Calm Calm -- 30.17 in1021.7 mb 0.00 in0.0 mm 0.00 in0.0 mm 0.00 in0.0 mm
06:53 PM 82.8°F28.2°C 42.4°F5.8°C 24% Calm Calm -- 30.18 in1022.0 mb 0.00 in0.0 mm 0.00 in0.0 mm 0.00 in0.0 mm
06:54 PM 82.8°F28.2°C 42.4°F5.8°C 24% Calm Calm -- 30.17 in1021.7 mb 0.00 in0.0 mm 0.00 in0.0 mm 0.00 in0.0 mm
06:55 PM 82.8°F28.2°C 42.4°F5.8°C 24% Calm Calm -- 30.18 in1022.0 mb 0.00 in0.0 mm 0.00 in0.0 mm 0.00 in0.0 mm
06:56 PM 82.6°F28.1°C 42.2°F5.7°C 24% Calm Calm -- 30.16 in1021.3 mb 0.00 in0.0 mm 0.00 in0.0 mm 0.00 in0.0 mm
06:57 PM 82.6°F28.1°C 42.2°F5.7°C 24% Calm Calm -- 30.18 in1022.0 mb 0.00 in0.0 mm 0.00 in0.0 mm 0.00 in0.0 mm
06:58 PM 82.6°F28.1°C 42.2°F5.7°C 24% Calm Calm -- 30.17 in1021.7 mb 0.00 in0.0 mm 0.00 in0.0 mm 0.00 in0.0 mm
06:59 PM 82.3°F27.9°C 41.9°F5.5°C 24% Calm Calm -- 30.17 in1021.7 mb 0.00 in0.0 mm 0.00 in0.0 mm 0.00 in0.0 mm
07:02 PM 82.1°F27.8°C 42.8°F6.0°C 25% Calm Calm -- 30.17 in1021.7 mb 0.00 in0.0 mm 0.00 in0.0 mm 0.00 in0.0 mm
07:04 PM 81.9°F27.7°C 42.6°F5.9°C 25% Calm Calm -- 30.17 in1021.7 mb 0.00 in0.0 mm 0.00 in0.0 mm 0.00 in0.0 mm
07:07 PM 81.7°F27.6°C 42.5°F5.8°C 25% Calm Calm -- 30.17 in1021.7 mb 0.00 in0.0 mm 0.00 in0.0 mm 0.00 in0.0 mm
07:08 PM 81.7°F27.6°C 42.5°F5.8°C 25% Calm Calm -- 30.17 in1021.7 mb 0.00 in0.0 mm 0.00 in0.0 mm 0.00 in0.0 mm
07:09 PM 81.3°F27.4°C 42.2°F5.7°C 25% Calm Calm -- 30.17 in1021.7 mb 0.00 in0.0 mm 0.00 in0.0 mm 0.00 in0.0 mm
07:10 PM 81.0°F27.2°C 41.9°F5.5°C 25% Calm Calm -- 30.17 in1021.7 mb 0.00 in0.0 mm 0.00 in0.0 mm 0.00 in0.0 mm
07:11 PM 81.0°F27.2°C 41.9°F5.5°C 25% Calm Calm -- 30.17 in1021.7 mb 0.00 in0.0 mm 0.00 in0.0 mm 0.00 in0.0 mm
07:12 PM 80.5°F26.9°C 41.4°F5.2°C 25% Calm Calm -- 30.17 in1021.7 mb 0.00 in0.0 mm 0.00 in0.0 mm 0.00 in0.0 mm
07:13 PM 80.5°F26.9°C 43.4°F6.3°C 27% Calm Calm -- 30.17 in1021.7 mb 0.00 in0.0 mm 0.00 in0.0 mm 0.00 in0.0 mm
07:14 PM 80.5°F26.9°C 43.4°F6.3°C 27% Calm Calm -- 30.17 in1021.7 mb 0.00 in0.0 mm 0.00 in0.0 mm 0.00 in0.0 mm
07:15 PM 80.3°F26.8°C 43.2°F6.2°C 27% 2.0 mph ENE3.2 kmh ENE -- 30.17 in1021.7 mb 0.00 in0.0 mm 0.00 in0.0 mm 0.00 in0.0 mm
07:16 PM 80.1°F26.7°C 43.1°F6.2°C 27% 2.0 mph ENE3.2 kmh ENE -- 30.17 in1021.7 mb 0.00 in0.0 mm 0.00 in0.0 mm 0.00 in0.0 mm
07:17 PM 80.1°F26.7°C 45.0°F7.2°C 29% 2.0 mph ENE3.2 kmh ENE -- 30.17 in1021.7 mb 0.00 in0.0 mm 0.00 in0.0 mm 0.00 in0.0 mm
07:18 PM 80.1°F26.7°C 45.0°F7.2°C 29% 1.0 mph E1.6 kmh E -- 30.17 in1021.7 mb 0.00 in0.0 mm 0.00 in0.0 mm 0.00 in0.0 mm
07:19 PM 80.1°F26.7°C 43.1°F6.2°C 27% Calm Calm -- 30.17 in1021.7 mb 0.00 in0.0 mm 0.00 in0.0 mm 0.00 in0.0 mm
07:20 PM 79.9°F26.6°C 42.9°F6.1°C 27% Calm Calm -- 30.17 in1021.7 mb 0.00 in0.0 mm 0.00 in0.0 mm 0.00 in0.0 mm
07:22 PM 79.6°F26.4°C 42.6°F5.9°C 27% Calm Calm -- 30.17 in1021.7 mb 0.00 in0.0 mm 0.00 in0.0 mm 0.00 in0.0 mm
07:23 PM 79.6°F26.4°C 42.6°F5.9°C 27% 2.0 mph E3.2 kmh E -- 30.17 in1021.7 mb 0.00 in0.0 mm 0.00 in0.0 mm 0.00 in0.0 mm
07:24 PM 79.4°F26.3°C 42.5°F5.8°C 27% 3.0 mph E4.8 kmh E -- 30.17 in1021.7 mb 0.00 in0.0 mm 0.00 in0.0 mm 0.00 in0.0 mm
07:25 PM 79.4°F26.3°C 42.5°F5.8°C 27% 5.0 mph E8.0 kmh E -- 30.17 in1021.7 mb 0.00 in0.0 mm 0.00 in0.0 mm 0.00 in0.0 mm
07:26 PM 79.4°F26.3°C 42.5°F5.8°C 27% 5.0 mph NE8.0 kmh NE -- 30.18 in1022.0 mb 0.00 in0.0 mm 0.00 in0.0 mm 0.00 in0.0 mm
07:27 PM 79.1°F26.2°C 45.1°F7.3°C 30% 6.0 mph ESE9.7 kmh ESE -- 30.18 in1022.0 mb 0.00 in0.0 mm 0.00 in0.0 mm 0.00 in0.0 mm
07:28 PM 79.0°F26.1°C 45.8°F7.7°C 31% 5.0 mph ESE8.0 kmh ESE -- 30.18 in1022.0 mb 0.00 in0.0 mm 0.00 in0.0 mm 0.00 in0.0 mm
07:29 PM 78.5°F25.8°C 47.7°F8.7°C 34% 4.0 mph ENE6.4 kmh ENE -- 30.18 in1022.0 mb 0.00 in0.0 mm 0.00 in0.0 mm 0.00 in0.0 mm
07:30 PM 78.3°F25.7°C 48.3°F9.1°C 35% 8.0 mph E12.9 kmh E -- 30.18 in1022.0 mb 0.00 in0.0 mm 0.00 in0.0 mm 0.00 in0.0 mm
07:31 PM 78.3°F25.7°C 48.3°F9.1°C 35% 6.0 mph NE9.7 kmh NE -- 30.18 in1022.0 mb 0.00 in0.0 mm 0.00 in0.0 mm 0.00 in0.0 mm
07:32 PM 77.6°F25.3°C 49.2°F9.6°C 37% 9.0 mph NE14.5 kmh NE -- 30.18 in1022.0 mb 0.00 in0.0 mm 0.00 in0.0 mm 0.00 in0.0 mm
07:33 PM 77.5°F25.3°C 49.2°F9.6°C 37% 9.0 mph ENE14.5 kmh ENE -- 30.18 in1022.0 mb 0.00 in0.0 mm 0.00 in0.0 mm 0.00 in0.0 mm
07:34 PM 77.4°F25.2°C 49.0°F9.4°C 37% 10.0 mph E16.1 kmh E -- 30.18 in1022.0 mb 0.00 in0.0 mm 0.00 in0.0 mm 0.00 in0.0 mm
07:35 PM 77.1°F25.1°C 50.3°F10.2°C 39% 10.0 mph ENE16.1 kmh ENE -- 30.17 in1021.7 mb 0.00 in0.0 mm 0.00 in0.0 mm 0.00 in0.0 mm
07:36 PM 76.9°F24.9°C 50.0°F10.0°C 39% 9.0 mph ESE14.5 kmh ESE -- 30.18 in1022.0 mb 0.00 in0.0 mm 0.00 in0.0 mm 0.00 in0.0 mm
07:37 PM 76.8°F24.9°C 50.0°F10.0°C 39% 10.0 mph E16.1 kmh E -- 30.17 in1021.7 mb 0.00 in0.0 mm 0.00 in0.0 mm 0.00 in0.0 mm
07:38 PM 76.8°F24.9°C 50.0°F10.0°C 39% 8.0 mph E12.9 kmh E -- 30.18 in1022.0 mb 0.00 in0.0 mm 0.00 in0.0 mm 0.00 in0.0 mm
07:39 PM 76.8°F24.9°C 50.6°F10.3°C 40% 9.0 mph ESE14.5 kmh ESE -- 30.17 in1021.7 mb 0.00 in0.0 mm 0.00 in0.0 mm 0.00 in0.0 mm
07:40 PM 76.5°F24.7°C 50.3°F10.2°C 40% 7.0 mph E11.3 kmh E -- 30.18 in1022.0 mb 0.00 in0.0 mm 0.00 in0.0 mm 0.00 in0.0 mm
07:41 PM 76.5°F24.7°C 50.3°F10.2°C 40% 12.0 mph NE19.3 kmh NE -- 30.18 in1022.0 mb 0.00 in0.0 mm 0.00 in0.0 mm 0.00 in0.0 mm
07:42 PM 76.3°F24.6°C 50.1°F10.1°C 40% 9.0 mph NE14.5 kmh NE -- 30.18 in1022.0 mb 0.00 in0.0 mm 0.00 in0.0 mm 0.00 in0.0 mm
07:43 PM 75.5°F24.2°C 51.5°F10.8°C 43% 13.0 mph ESE20.9 kmh ESE -- 30.19 in1022.4 mb 0.00 in0.0 mm 0.00 in0.0 mm 0.00 in0.0 mm
07:44 PM 75.0°F23.9°C 51.6°F10.9°C 44% 9.0 mph NE14.5 kmh NE -- 30.19 in1022.4 mb 0.00 in0.0 mm 0.00 in0.0 mm 0.00 in0.0 mm
07:45 PM 74.8°F23.8°C 51.4°F10.8°C 44% 9.0 mph NE14.5 kmh NE -- 30.18 in1022.0 mb 0.00 in0.0 mm 0.00 in0.0 mm 0.00 in0.0 mm
07:46 PM 74.4°F23.6°C 51.1°F10.6°C 44% 9.0 mph NE14.5 kmh NE -- 30.18 in1022.0 mb 0.00 in0.0 mm 0.00 in0.0 mm 0.00 in0.0 mm
07:48 PM 74.4°F23.6°C 51.1°F10.6°C 44% 8.0 mph NE12.9 kmh NE -- 30.18 in1022.0 mb 0.00 in0.0 mm 0.00 in0.0 mm 0.00 in0.0 mm
07:49 PM 74.3°F23.5°C 51.5°F10.8°C 45% 9.0 mph 14.5 kmh -- 30.18 in1022.0 mb 0.00 in0.0 mm 0.00 in0.0 mm 0.00 in0.0 mm
07:50 PM 74.0°F23.3°C 51.2°F10.7°C 45% 9.0 mph NNE14.5 kmh NNE -- 30.18 in1022.0 mb 0.00 in0.0 mm 0.00 in0.0 mm 0.00 in0.0 mm
07:51 PM 74.0°F23.3°C 51.2°F10.7°C 45% 9.0 mph NE14.5 kmh NE -- 30.18 in1022.0 mb 0.00 in0.0 mm 0.00 in0.0 mm 0.00 in0.0 mm
07:52 PM 74.0°F23.3°C 51.2°F10.7°C 45% 6.0 mph NE9.7 kmh NE -- 30.18 in1022.0 mb 0.00 in0.0 mm 0.00 in0.0 mm 0.00 in0.0 mm
07:53 PM 73.9°F23.3°C 51.2°F10.7°C 45% 9.0 mph NE14.5 kmh NE -- 30.18 in1022.0 mb 0.00 in0.0 mm 0.00 in0.0 mm 0.00 in0.0 mm
07:54 PM 73.9°F23.3°C 51.2°F10.7°C 45% 5.0 mph NE8.0 kmh NE -- 30.18 in1022.0 mb 0.00 in0.0 mm 0.00 in0.0 mm 0.00 in0.0 mm
07:55 PM 73.9°F23.3°C 51.2°F10.7°C 45% 6.0 mph NNE9.7 kmh NNE -- 30.18 in1022.0 mb 0.00 in0.0 mm 0.00 in0.0 mm 0.00 in0.0 mm
07:56 PM 73.8°F23.2°C 51.0°F10.6°C 45% 7.0 mph NE11.3 kmh NE -- 30.19 in1022.4 mb 0.00 in0.0 mm 0.00 in0.0 mm 0.00 in0.0 mm
07:57 PM 73.8°F23.2°C 51.0°F10.6°C 45% 6.0 mph E9.7 kmh E -- 30.18 in1022.0 mb 0.00 in0.0 mm 0.00 in0.0 mm 0.00 in0.0 mm
07:58 PM 73.8°F23.2°C 51.0°F10.6°C 45% 8.0 mph NE12.9 kmh NE -- 30.18 in1022.0 mb 0.00 in0.0 mm 0.00 in0.0 mm 0.00 in0.0 mm
07:59 PM 73.5°F23.1°C 50.9°F10.5°C 45% 7.0 mph ESE11.3 kmh ESE -- 30.18 in1022.0 mb 0.00 in0.0 mm 0.00 in0.0 mm 0.00 in0.0 mm
08:00 PM 73.4°F23.0°C 50.7°F10.4°C 45% 6.0 mph ESE9.7 kmh ESE -- 30.18 in1022.0 mb 0.00 in0.0 mm 0.00 in0.0 mm 0.00 in0.0 mm
08:01 PM 73.4°F23.0°C 50.7°F10.4°C 45% 5.0 mph ESE8.0 kmh ESE -- 30.18 in1022.0 mb 0.00 in0.0 mm 0.00 in0.0 mm 0.00 in0.0 mm
08:02 PM 73.1°F22.8°C 50.4°F10.2°C 45% 10.0 mph E16.1 kmh E -- 30.18 in1022.0 mb 0.00 in0.0 mm 0.00 in0.0 mm 0.00 in0.0 mm
08:03 PM 73.1°F22.8°C 50.4°F10.2°C 45% 8.0 mph E12.9 kmh E -- 30.18 in1022.0 mb 0.00 in0.0 mm 0.00 in0.0 mm 0.00 in0.0 mm
08:04 PM 73.1°F22.8°C 50.4°F10.2°C 45% 6.0 mph NE9.7 kmh NE -- 30.19 in1022.4 mb 0.00 in0.0 mm 0.00 in0.0 mm 0.00 in0.0 mm
08:05 PM 73.1°F22.8°C 50.4°F10.2°C 45% 10.0 mph ENE16.1 kmh ENE -- 30.19 in1022.4 mb 0.00 in0.0 mm 0.00 in0.0 mm 0.00 in0.0 mm
08:06 PM 73.1°F22.8°C 50.4°F10.2°C 45% 8.0 mph NE12.9 kmh NE -- 30.19 in1022.4 mb 0.00 in0.0 mm 0.00 in0.0 mm 0.00 in0.0 mm
08:07 PM 73.1°F22.8°C 50.4°F10.2°C 45% 9.0 mph E14.5 kmh E -- 30.19 in1022.4 mb 0.00 in0.0 mm 0.00 in0.0 mm 0.00 in0.0 mm
08:09 PM 73.1°F22.8°C 50.4°F10.2°C 45% 7.0 mph ENE11.3 kmh ENE -- 30.19 in1022.4 mb 0.00 in0.0 mm 0.00 in0.0 mm 0.00 in0.0 mm
08:10 PM 73.1°F22.8°C 50.4°F10.2°C 45% 6.0 mph NNE9.7 kmh NNE -- 30.19 in1022.4 mb 0.00 in0.0 mm 0.00 in0.0 mm 0.00 in0.0 mm
08:11 PM 73.1°F22.8°C 50.4°F10.2°C 45% 8.0 mph NE12.9 kmh NE -- 30.20 in1022.7 mb 0.00 in0.0 mm 0.00 in0.0 mm 0.00 in0.0 mm
08:13 PM 73.1°F22.8°C 50.4°F10.2°C 45% 6.0 mph ESE9.7 kmh ESE -- 30.20 in1022.7 mb 0.00 in0.0 mm 0.00 in0.0 mm 0.00 in0.0 mm
08:14 PM 73.1°F22.8°C 50.4°F10.2°C 45% 6.0 mph ENE9.7 kmh ENE -- 30.19 in1022.4 mb 0.00 in0.0 mm 0.00 in0.0 mm 0.00 in0.0 mm
08:15 PM 73.1°F22.8°C 51.0°F10.6°C 46% 4.0 mph 6.4 kmh -- 30.20 in1022.7 mb 0.00 in0.0 mm 0.00 in0.0 mm 0.00 in0.0 mm
08:16 PM 73.1°F22.8°C 51.0°F10.6°C 46% 4.0 mph ENE6.4 kmh ENE -- 30.19 in1022.4 mb 0.00 in0.0 mm 0.00 in0.0 mm 0.00 in0.0 mm
08:17 PM 73.1°F22.8°C 51.0°F10.6°C 46% 6.0 mph E9.7 kmh E -- 30.21 in1023.0 mb 0.00 in0.0 mm 0.00 in0.0 mm 0.00 in0.0 mm
08:18 PM 73.1°F22.8°C 51.0°F10.6°C 46% 5.0 mph NE8.0 kmh NE -- 30.19 in1022.4 mb 0.00 in0.0 mm 0.00 in0.0 mm 0.00 in0.0 mm
08:19 PM 73.1°F22.8°C 51.0°F10.6°C 46% 5.0 mph E8.0 kmh E -- 30.21 in1023.0 mb 0.00 in0.0 mm 0.00 in0.0 mm 0.00 in0.0 mm
08:20 PM 73.1°F22.8°C 51.0°F10.6°C 46% 5.0 mph E8.0 kmh E -- 30.19 in1022.4 mb 0.00 in0.0 mm 0.00 in0.0 mm 0.00 in0.0 mm
08:21 PM 73.1°F22.8°C 51.0°F10.6°C 46% 6.0 mph E9.7 kmh E -- 30.21 in1023.0 mb 0.00 in0.0 mm 0.00 in0.0 mm 0.00 in0.0 mm
08:22 PM 73.1°F22.8°C 51.0°F10.6°C 46% 8.0 mph NE12.9 kmh NE -- 30.20 in1022.7 mb 0.00 in0.0 mm 0.00 in0.0 mm 0.00 in0.0 mm
08:23 PM 73.1°F22.8°C 51.0°F10.6°C 46% 6.0 mph NE9.7 kmh NE -- 30.21 in1023.0 mb 0.00 in0.0 mm 0.00 in0.0 mm 0.00 in0.0 mm
08:24 PM 73.1°F22.8°C 50.4°F10.2°C 45% 8.0 mph ENE12.9 kmh ENE -- 30.19 in1022.4 mb 0.00 in0.0 mm 0.00 in0.0 mm 0.00 in0.0 mm
08:25 PM 73.1°F22.8°C 50.4°F10.2°C 45% 6.0 mph ESE9.7 kmh ESE -- 30.20 in1022.7 mb 0.00 in0.0 mm 0.00 in0.0 mm 0.00 in0.0 mm
08:26 PM 73.1°F22.8°C 50.4°F10.2°C 45% 6.0 mph E9.7 kmh E -- 30.20 in1022.7 mb 0.00 in0.0 mm 0.00 in0.0 mm 0.00 in0.0 mm
08:27 PM 73.1°F22.8°C 50.4°F10.2°C 45% 7.0 mph ENE11.3 kmh ENE -- 30.20 in1022.7 mb 0.00 in0.0 mm 0.00 in0.0 mm 0.00 in0.0 mm
08:28 PM 73.1°F22.8°C 50.4°F10.2°C 45% 6.0 mph ESE9.7 kmh ESE -- 30.20 in1022.7 mb 0.00 in0.0 mm 0.00 in0.0 mm 0.00 in0.0 mm
08:29 PM 73.1°F22.8°C 50.4°F10.2°C 45% 5.0 mph NE8.0 kmh NE -- 30.19 in1022.4 mb 0.00 in0.0 mm 0.00 in0.0 mm 0.00 in0.0 mm
08:30 PM 73.1°F22.8°C 50.4°F10.2°C 45% 6.0 mph E9.7 kmh E -- 30.20 in1022.7 mb 0.00 in0.0 mm 0.00 in0.0 mm 0.00 in0.0 mm
08:31 PM 73.1°F22.8°C 50.4°F10.2°C 45% 9.0 mph NNE14.5 kmh NNE -- 30.19 in1022.4 mb 0.00 in0.0 mm 0.00 in0.0 mm 0.00 in0.0 mm
08:32 PM 73.1°F22.8°C 50.4°F10.2°C 45% 5.0 mph E8.0 kmh E -- 30.20 in1022.7 mb 0.00 in0.0 mm 0.00 in0.0 mm 0.00 in0.0 mm
08:33 PM 73.1°F22.8°C 50.4°F10.2°C 45% 8.0 mph ENE12.9 kmh ENE -- 30.19 in1022.4 mb 0.00 in0.0 mm 0.00 in0.0 mm 0.00 in0.0 mm
08:34 PM 73.1°F22.8°C 50.4°F10.2°C 45% 9.0 mph ESE14.5 kmh ESE -- 30.21 in1023.0 mb 0.00 in0.0 mm 0.00 in0.0 mm 0.00 in0.0 mm
08:35 PM 73.1°F22.8°C 50.4°F10.2°C 45% 7.0 mph ENE11.3 kmh ENE -- 30.20 in1022.7 mb 0.00 in0.0 mm 0.00 in0.0 mm 0.00 in0.0 mm
08:36 PM 73.1°F22.8°C 50.4°F10.2°C 45% 8.0 mph E12.9 kmh E -- 30.20 in1022.7 mb 0.00 in0.0 mm 0.00 in0.0 mm 0.00 in0.0 mm
08:37 PM 73.1°F22.8°C 50.4°F10.2°C 45% 11.0 mph ESE17.7 kmh ESE -- 30.20 in1022.7 mb 0.00 in0.0 mm 0.00 in0.0 mm 0.00 in0.0 mm
08:38 PM 73.1°F22.8°C 50.4°F10.2°C 45% 8.0 mph E12.9 kmh E -- 30.21 in1023.0 mb 0.00 in0.0 mm 0.00 in0.0 mm 0.00 in0.0 mm
08:39 PM 73.1°F22.8°C 50.4°F10.2°C 45% 5.0 mph ENE8.0 kmh ENE -- 30.19 in1022.4 mb 0.00 in0.0 mm 0.00 in0.0 mm 0.00 in0.0 mm
08:40 PM 73.1°F22.8°C 50.4°F10.2°C 45% 9.0 mph ENE14.5 kmh ENE -- 30.20 in1022.7 mb 0.00 in0.0 mm 0.00 in0.0 mm 0.00 in0.0 mm
08:41 PM 73.1°F22.8°C 50.4°F10.2°C 45% 5.0 mph ENE8.0 kmh ENE -- 30.19 in1022.4 mb 0.00 in0.0 mm 0.00 in0.0 mm 0.00 in0.0 mm
08:42 PM 73.1°F22.8°C 50.4°F10.2°C 45% 6.0 mph ENE9.7 kmh ENE -- 30.20 in1022.7 mb 0.00 in0.0 mm 0.00 in0.0 mm 0.00 in0.0 mm
08:43 PM 73.1°F22.8°C 50.4°F10.2°C 45% 5.0 mph NNE8.0 kmh NNE -- 30.19 in1022.4 mb 0.00 in0.0 mm 0.00 in0.0 mm 0.00 in0.0 mm
08:44 PM 73.0°F22.8°C 50.4°F10.2°C 45% 8.0 mph NE12.9 kmh NE -- 30.20 in1022.7 mb 0.00 in0.0 mm 0.00 in0.0 mm 0.00 in0.0 mm
08:45 PM 73.0°F22.8°C 50.4°F10.2°C 45% 4.0 mph E6.4 kmh E -- 30.20 in1022.7 mb 0.00 in0.0 mm 0.00 in0.0 mm 0.00 in0.0 mm
08:46 PM 73.0°F22.8°C 50.4°F10.2°C 45% 5.0 mph E8.0 kmh E -- 30.20 in1022.7 mb 0.00 in0.0 mm 0.00 in0.0 mm 0.00 in0.0 mm
08:47 PM 72.8°F22.7°C 50.2°F10.1°C 45% 5.0 mph ENE8.0 kmh ENE -- 30.19 in1022.4 mb 0.00 in0.0 mm 0.00 in0.0 mm 0.00 in0.0 mm
08:48 PM 72.8°F22.7°C 50.2°F10.1°C 45% 9.0 mph ENE14.5 kmh ENE -- 30.20 in1022.7 mb 0.00 in0.0 mm 0.00 in0.0 mm 0.00 in0.0 mm
08:49 PM 72.8°F22.7°C 50.2°F10.1°C 45% 7.0 mph NNE11.3 kmh NNE -- 30.20 in1022.7 mb 0.00 in0.0 mm 0.00 in0.0 mm 0.00 in0.0 mm
08:50 PM 72.8°F22.7°C 50.2°F10.1°C 45% 5.0 mph ESE8.0 kmh ESE -- 30.20 in1022.7 mb 0.00 in0.0 mm 0.00 in0.0 mm 0.00 in0.0 mm
08:51 PM 72.8°F22.7°C 50.2°F10.1°C 45% 6.0 mph E9.7 kmh E -- 30.20 in1022.7 mb 0.00 in0.0 mm 0.00 in0.0 mm 0.00 in0.0 mm
08:52 PM 72.8°F22.7°C 50.2°F10.1°C 45% 4.0 mph E6.4 kmh E -- 30.20 in1022.7 mb 0.00 in0.0 mm 0.00 in0.0 mm 0.00 in0.0 mm
08:54 PM 72.8°F22.7°C 50.2°F10.1°C 45% 4.0 mph ENE6.4 kmh ENE -- 30.20 in1022.7 mb 0.00 in0.0 mm 0.00 in0.0 mm 0.00 in0.0 mm
08:55 PM 72.8°F22.7°C 50.2°F10.1°C 45% 6.0 mph NNE9.7 kmh NNE -- 30.20 in1022.7 mb 0.00 in0.0 mm 0.00 in0.0 mm 0.00 in0.0 mm
08:56 PM 72.8°F22.7°C 50.2°F10.1°C 45% 4.0 mph E6.4 kmh E -- 30.21 in1023.0 mb 0.00 in0.0 mm 0.00 in0.0 mm 0.00 in0.0 mm
08:57 PM 72.8°F22.7°C 50.2°F10.1°C 45% 3.0 mph ESE4.8 kmh ESE -- 30.21 in1023.0 mb 0.00 in0.0 mm 0.00 in0.0 mm 0.00 in0.0 mm
08:58 PM 72.8°F22.7°C 50.2°F10.1°C 45% 5.0 mph E8.0 kmh E -- 30.21 in1023.0 mb 0.00 in0.0 mm 0.00 in0.0 mm 0.00 in0.0 mm
08:59 PM 72.8°F22.7°C 50.8°F10.4°C 46% 5.0 mph NE8.0 kmh NE -- 30.21 in1023.0 mb 0.00 in0.0 mm 0.00 in0.0 mm 0.00 in0.0 mm
09:00 PM 72.8°F22.7°C 50.8°F10.4°C 46% 3.0 mph ENE4.8 kmh ENE -- 30.21 in1023.0 mb 0.00 in0.0 mm 0.00 in0.0 mm 0.00 in0.0 mm
09:01 PM 72.6°F22.6°C 50.6°F10.3°C 46% 4.0 mph NE6.4 kmh NE -- 30.21 in1023.0 mb 0.00 in0.0 mm 0.00 in0.0 mm 0.00 in0.0 mm
09:02 PM 72.6°F22.6°C 50.6°F10.3°C 46% 4.0 mph NNW6.4 kmh NNW -- 30.21 in1023.0 mb 0.00 in0.0 mm 0.00 in0.0 mm 0.00 in0.0 mm
09:03 PM 72.6°F22.6°C 50.6°F10.3°C 46% 3.0 mph NNW4.8 kmh NNW -- 30.21 in1023.0 mb 0.00 in0.0 mm 0.00 in0.0 mm 0.00 in0.0 mm
09:04 PM 72.6°F22.6°C 50.6°F10.3°C 46% 4.0 mph ENE6.4 kmh ENE -- 30.21 in1023.0 mb 0.00 in0.0 mm 0.00 in0.0 mm 0.00 in0.0 mm
09:05 PM 72.5°F22.5°C 50.5°F10.3°C 46% 6.0 mph NE9.7 kmh NE -- 30.21 in1023.0 mb 0.00 in0.0 mm 0.00 in0.0 mm 0.00 in0.0 mm
09:06 PM 72.5°F22.5°C 50.5°F10.3°C 46% 4.0 mph 6.4 kmh -- 30.21 in1023.0 mb 0.00 in0.0 mm 0.00 in0.0 mm 0.00 in0.0 mm
09:07 PM 72.5°F22.5°C 50.5°F10.3°C 46% 4.0 mph NE6.4 kmh NE -- 30.22 in1023.4 mb 0.00 in0.0 mm 0.00 in0.0 mm 0.00 in0.0 mm
09:08 PM 72.5°F22.5°C 50.5°F10.3°C 46% 3.0 mph ENE4.8 kmh ENE -- 30.22 in1023.4 mb 0.00 in0.0 mm 0.00 in0.0 mm 0.00 in0.0 mm
09:09 PM 72.5°F22.5°C 50.5°F10.3°C 46% 3.0 mph NW4.8 kmh NW -- 30.22 in1023.4 mb 0.00 in0.0 mm 0.00 in0.0 mm 0.00 in0.0 mm
09:10 PM 72.5°F22.5°C 50.5°F10.3°C 46% 3.0 mph 4.8 kmh -- 30.22 in1023.4 mb 0.00 in0.0 mm 0.00 in0.0 mm 0.00 in0.0 mm
09:11 PM 72.3°F22.4°C 50.3°F10.2°C 46% 2.0 mph NNE3.2 kmh NNE -- 30.22 in1023.4 mb 0.00 in0.0 mm 0.00 in0.0 mm 0.00 in0.0 mm
09:12 PM 72.3°F22.4°C 50.3°F10.2°C 46% 3.0 mph NW4.8 kmh NW -- 30.23 in1023.7 mb 0.00 in0.0 mm 0.00 in0.0 mm 0.00 in0.0 mm
09:13 PM 72.1°F22.3°C 50.1°F10.1°C 46% 3.0 mph W4.8 kmh W -- 30.23 in1023.7 mb 0.00 in0.0 mm 0.00 in0.0 mm 0.00 in0.0 mm
09:14 PM 72.1°F22.3°C 50.1°F10.1°C 46% 4.0 mph NNW6.4 kmh NNW -- 30.23 in1023.7 mb 0.00 in0.0 mm 0.00 in0.0 mm 0.00 in0.0 mm
09:15 PM 72.1°F22.3°C 50.1°F10.1°C 46% 3.0 mph NNW4.8 kmh NNW -- 30.23 in1023.7 mb 0.00 in0.0 mm 0.00 in0.0 mm 0.00 in0.0 mm
09:16 PM 72.1°F22.3°C 50.1°F10.1°C 46% 5.0 mph 8.0 kmh -- 30.23 in1023.7 mb 0.00 in0.0 mm 0.00 in0.0 mm 0.00 in0.0 mm
09:17 PM 72.1°F22.3°C 50.1°F